Provisional Data: West Branch Octoraro Creek Near White Rock, PA


Please select a monitoring station.
Please select start date.
Please select start date.

Toggle Unit: C/F Toggle Unit: C/F
Sample Time Temperature (C) Temperature (F) Specific Conductivity (mS/cm) pH   Turbidity (NTU+) DO (mg/L)
2/8/2023 12:00:00 AM 4.45 40.01 0.292 7.38 1.79 12.64
2/8/2023 12:15:00 AM 4.46 40.028 0.292 7.38 1.71 12.64
2/8/2023 12:30:00 AM 4.47 40.046 0.292 7.37 1.77 12.63
2/8/2023 12:45:00 AM 4.47 40.046 0.292 7.37 1.62 12.62
2/8/2023 1:00:00 AM 4.48 40.064 0.292 7.37 1.55 12.62
2/8/2023 1:15:00 AM 4.49 40.082 0.292 7.37 1.72 12.61
2/8/2023 1:30:00 AM 4.49 40.082 0.292 7.37 1.64 12.61
2/8/2023 1:45:00 AM 4.5 40.1 0.292 7.37 1.58 12.6
2/8/2023 2:00:00 AM 4.5 40.1 0.292 7.37 1.55 12.6
2/8/2023 2:15:00 AM 4.5 40.1 0.292 7.37 1.68 12.59
2/8/2023 2:30:00 AM 4.51 40.118 0.292 7.37 1.66 12.59
2/8/2023 2:45:00 AM 4.51 40.118 0.292 7.37 1.59 12.58
2/8/2023 3:00:00 AM 4.51 40.118 0.292 7.37 1.68 12.58
2/8/2023 3:15:00 AM 4.51 40.118 0.292 7.37 1.7 12.57
2/8/2023 3:30:00 AM 4.51 40.118 0.292 7.37 1.54 12.57
2/8/2023 3:45:00 AM 4.52 40.136 0.293 7.37 1.53 12.57
2/8/2023 4:00:00 AM 4.52 40.136 0.293 7.36 1.64 12.56
2/8/2023 4:15:00 AM 4.52 40.136 0.293 7.37 1.5 12.56
2/8/2023 4:30:00 AM 4.52 40.136 0.293 7.37 1.6 12.56
2/8/2023 4:45:00 AM 4.52 40.136 0.293 7.36 1.78 12.56
2/8/2023 5:00:00 AM 4.51 40.118 0.293 7.36 1.76 12.55
2/8/2023 5:15:00 AM 4.51 40.118 0.293 7.36 1.63 12.55
2/8/2023 5:30:00 AM 4.5 40.1 0.293 7.36 1.82 12.55
2/8/2023 5:45:00 AM 4.48 40.064 0.293 7.36 5.12 12.56
2/8/2023 6:00:00 AM 4.47 40.046 0.293 7.36 1.83 12.56
2/8/2023 6:15:00 AM 4.44 39.992 0.293 7.36 1.98 12.56
2/8/2023 6:30:00 AM 4.41 39.938 0.293 7.36 1.75 12.57
2/8/2023 6:45:00 AM 4.37 39.866 0.293 7.36 1.7 12.58
2/8/2023 7:00:00 AM 4.33 39.794 0.293 7.36 1.72 12.59
2/8/2023 7:15:00 AM 4.29 39.722 0.294 7.36 1.94 12.59
2/8/2023 7:30:00 AM 4.24 39.632 0.294 7.36 1.7 12.6
2/8/2023 7:45:00 AM 4.19 39.542 0.294 7.36 1.72 12.61
2/8/2023 8:00:00 AM 4.15 39.47 0.294 7.36 1.6 12.63
2/8/2023 8:15:00 AM 4.1 39.38 0.294 7.37 1.65 12.65
2/8/2023 8:30:00 AM 4.06 39.308 0.294 7.37 1.69 12.69
2/8/2023 8:45:00 AM 4.02 39.236 0.294 7.37 1.63 12.73
2/8/2023 9:00:00 AM 3.99 39.182 0.294 7.38 1.62 12.78
2/8/2023 9:15:00 AM 3.97 39.146 0.294 7.39 1.59 12.85
2/8/2023 9:30:00 AM 3.95 39.11 0.294 7.4 1.6 12.93
2/8/2023 9:45:00 AM 3.96 39.128 0.294 7.41 1.55 13.02
2/8/2023 10:00:00 AM 3.97 39.146 0.294 7.42 1.59 13.11
2/8/2023 10:15:00 AM 4.04 39.272 0.294 7.44 1.48 13.21
2/8/2023 10:30:00 AM 4.13 39.434 0.294 7.46 1.64 13.3
2/8/2023 10:45:00 AM 4.24 39.632 0.293 7.48 1.76 13.37
2/8/2023 11:00:00 AM 4.38 39.884 0.293 7.5 1.75 13.45
2/8/2023 11:15:00 AM 4.58 40.244 0.293 7.52 2.14 13.5
2/8/2023 11:30:00 AM 4.8 40.64 0.293 7.54 1.72 13.55
2/8/2023 11:45:00 AM 5.01 41.018 0.293 7.56 1.6 13.57
2/8/2023 12:00:00 PM 5.21 41.378 0.292 7.57 1.93 13.58
2/8/2023 12:15:00 PM 5.42 41.756 0.292 7.59 1.77 13.59
2/8/2023 12:30:00 PM 5.67 42.206 0.292 7.61 1.79 13.58
2/8/2023 12:45:00 PM 5.89 42.602 0.292 7.62 1.96 13.56
2/8/2023 1:00:00 PM 6.13 43.034 0.292 7.64 1.65 13.55
2/8/2023 1:15:00 PM 6.36 43.448 0.291 7.65 1.83 13.52
2/8/2023 1:30:00 PM 6.61 43.898 0.291 7.67 1.95 13.49
2/8/2023 1:45:00 PM 6.84 44.312 0.291 7.68 2.11 13.45
2/8/2023 2:00:00 PM 7.08 44.744 0.291 7.69 2.08 13.42
2/8/2023 2:15:00 PM 7.3 45.14 0.291 7.7 1.9 13.37
2/8/2023 2:30:00 PM 7.51 45.518 0.291 7.71 2.18 13.33
2/8/2023 2:45:00 PM 7.71 45.878 0.291 7.73 2.14 13.28
2/8/2023 3:00:00 PM 7.91 46.238 0.291 7.73 1.93 13.22
2/8/2023 3:15:00 PM 8.08 46.544 0.29 7.74 1.81 13.15
2/8/2023 3:30:00 PM 8.23 46.814 0.29 7.75 1.87 13.09
2/8/2023 3:45:00 PM 8.37 47.066 0.29 7.76 1.72 13.03
2/8/2023 4:00:00 PM 8.47 47.246 0.29 7.76 1.87 12.96
2/8/2023 4:15:00 PM 8.57 47.426 0.29 7.76 2.15 12.89
2/8/2023 4:30:00 PM 8.63 47.534 0.29 7.76 1.83 12.81
2/8/2023 4:45:00 PM 8.67 47.606 0.29 7.75 1.81 12.74
2/8/2023 5:00:00 PM 8.68 47.624 0.29 7.75 1.86 12.66
2/8/2023 5:15:00 PM 8.68 47.624 0.29 7.74 1.83 12.6
2/8/2023 5:30:00 PM 8.66 47.588 0.29 7.73 1.7 12.54
2/8/2023 5:45:00 PM 8.63 47.534 0.29 7.71 1.67 12.48
2/8/2023 6:00:00 PM 8.56 47.408 0.29 7.7 1.64 12.42
2/8/2023 6:15:00 PM 8.48 47.264 0.29 7.67 1.7 12.35
2/8/2023 6:30:00 PM 8.36 47.048 0.29 7.64 1.63 12.28
2/8/2023 6:45:00 PM 8.22 46.796 0.29 7.62 1.84 12.2
2/8/2023 7:00:00 PM 8.06 46.508 0.29 7.59 1.81 12.13
2/8/2023 7:15:00 PM 7.89 46.202 0.29 7.56 1.79 12.07
2/8/2023 7:30:00 PM 7.72 45.896 0.29 7.53 1.79 12.01
2/8/2023 7:45:00 PM 7.55 45.59 0.29 7.51 1.8 11.96
2/8/2023 8:00:00 PM 7.38 45.284 0.291 7.49 1.75 11.93
2/8/2023 8:15:00 PM 7.2 44.96 0.291 7.47 1.73 11.91
2/8/2023 8:30:00 PM 7.02 44.636 0.291 7.45 1.78 11.91
2/8/2023 8:45:00 PM 6.87 44.366 0.291 7.44 1.82 11.91
2/8/2023 9:00:00 PM 6.72 44.096 0.291 7.43 1.8 11.93
2/8/2023 9:15:00 PM 6.57 43.826 0.291 7.42 1.83 11.96
2/8/2023 9:30:00 PM 6.43 43.574 0.291 7.41 1.76 11.98
2/8/2023 9:45:00 PM 6.31 43.358 0.291 7.4 8.99 12
2/8/2023 10:00:00 PM 6.19 43.142 0.291 7.39 2.04 12.02
2/8/2023 10:15:00 PM 6.09 42.962 0.291 7.39 1.99 12.04
2/8/2023 10:30:00 PM 5.99 42.782 0.292 7.38 1.93 12.06
2/8/2023 10:45:00 PM 5.9 42.62 0.292 7.38 1.9 12.08
2/8/2023 11:00:00 PM 5.82 42.476 0.292 7.38 1.77 12.1
2/8/2023 11:15:00 PM 5.73 42.314 0.292 7.37 1.8 12.12
2/8/2023 11:30:00 PM 5.65 42.17 0.292 7.37 1.8 12.14
2/8/2023 11:45:00 PM 5.58 42.044 0.292 7.37 1.77 12.17
2/9/2023 12:00:00 AM 5.51 41.918 0.292 7.37 2.22 12.19
2/9/2023 12:15:00 AM 5.44 41.792 0.292 7.37 1.84 12.22
2/9/2023 12:30:00 AM 5.37 41.666 0.292 7.36 1.8 12.24
2/9/2023 12:45:00 AM 5.3 41.54 0.292 7.36 1.82 12.27
2/9/2023 1:00:00 AM 5.22 41.396 0.292 7.36 1.76 12.29
2/9/2023 1:15:00 AM 5.15 41.27 0.292 7.36 1.85 12.3
2/9/2023 1:30:00 AM 5.08 41.144 0.292 7.36 1.8 12.32
2/9/2023 1:45:00 AM 5.02 41.036 0.293 7.36 1.8 12.35
2/9/2023 2:00:00 AM 4.96 40.928 0.293 7.36 1.75 12.36
2/9/2023 2:15:00 AM 4.9 40.82 0.293 7.36 1.72 12.38
2/9/2023 2:30:00 AM 4.84 40.712 0.293 7.36 1.67 12.39
2/9/2023 2:45:00 AM 4.78 40.604 0.293 7.36 1.77 12.41
2/9/2023 3:00:00 AM 4.73 40.514 0.293 7.36 1.71 12.43
2/9/2023 3:15:00 AM 4.69 40.442 0.293 7.36 1.71 12.45
2/9/2023 3:30:00 AM 4.66 40.388 0.293 7.36 1.75 12.46
2/9/2023 3:45:00 AM 4.63 40.334 0.293 7.36 1.69 12.47
2/9/2023 4:00:00 AM 4.61 40.298 0.294 7.35 1.59 12.48
2/9/2023 4:15:00 AM 4.59 40.262 0.294 7.35 1.65 12.5
2/9/2023 4:30:00 AM 4.57 40.226 0.294 7.36 2.07 12.51
2/9/2023 4:45:00 AM 4.55 40.19 0.294 7.35 1.84 12.52
2/9/2023 5:00:00 AM 4.54 40.172 0.294 7.35 3.7 12.53
2/9/2023 5:15:00 AM 4.53 40.154 0.294 7.35 3.84 12.53
2/9/2023 5:30:00 AM 4.52 40.136 0.294 7.36 1.91 12.53
2/9/2023 5:45:00 AM 4.51 40.118 0.294 7.36 2.64 12.54
2/9/2023 6:00:00 AM 4.5 40.1 0.294 7.35 1.87 12.54
2/9/2023 6:15:00 AM 4.5 40.1 0.294 7.36 1.88 12.55
2/9/2023 6:30:00 AM 4.5 40.1 0.294 7.36 1.88 12.55
2/9/2023 6:45:00 AM 4.5 40.1 0.294 7.36 1.89 12.55
2/9/2023 7:00:00 AM 4.49 40.082 0.294 7.35 1.74 12.55
2/9/2023 7:15:00 AM 4.49 40.082 0.294 7.36 1.96 12.56
2/9/2023 7:30:00 AM 4.5 40.1 0.294 7.36 1.78 12.56
2/9/2023 7:45:00 AM 4.5 40.1 0.295 7.36 2.03 12.57
2/9/2023 8:00:00 AM 4.5 40.1 0.295 7.36 1.85 12.57
2/9/2023 8:15:00 AM 4.51 40.118 0.295 7.36 1.76 12.57
2/9/2023 8:30:00 AM 4.52 40.136 0.295 7.36 1.84 12.58
2/9/2023 8:45:00 AM 4.53 40.154 0.295 7.36 1.7 12.6
2/9/2023 9:00:00 AM 4.55 40.19 0.295 7.37 1.77 12.62
2/9/2023 9:15:00 AM 4.58 40.244 0.295 7.38 1.66 12.66
2/9/2023 9:30:00 AM 4.6 40.28 0.295 7.38 1.64 12.7
2/9/2023 9:45:00 AM 4.64 40.352 0.295 7.4 1.54 12.77
2/9/2023 10:00:00 AM 4.67 40.406 0.294 7.41 1.45 12.83
2/9/2023 10:15:00 AM 4.71 40.478 0.294 7.42 1.59 12.89
2/9/2023 10:30:00 AM 4.79 40.622 0.294 7.44 1.55 12.99
2/9/2023 10:45:00 AM 4.86 40.748 0.294 7.46 1.46 13.08
2/9/2023 11:00:00 AM 4.93 40.874 0.294 7.47 1.48 13.15
2/9/2023 11:15:00 AM 5.04 41.072 0.294 7.5 1.72 13.24
2/9/2023 11:30:00 AM 5.13 41.234 0.294 7.52 1.65 13.32
2/9/2023 11:45:00 AM 5.23 41.414 0.294 7.54 1.52 13.37
2/9/2023 12:00:00 PM 5.34 41.612 0.293 7.57 1.51 13.43
2/9/2023 12:15:00 PM 5.46 41.828 0.293 7.59 1.49 13.46
2/9/2023 12:30:00 PM 5.59 42.062 0.293 7.61 1.44 13.48
2/9/2023 12:45:00 PM 5.7 42.26 0.293 7.63 1.37 13.5
2/9/2023 1:00:00 PM 5.87 42.566 0.293 7.65 1.53 13.51
2/9/2023 1:15:00 PM 6.06 42.908 0.293 7.67 1.38 13.52
2/9/2023 1:30:00 PM 6.23 43.214 0.293 7.69 1.39 13.54
2/9/2023 1:45:00 PM 6.4 43.52 0.292 7.71 1.39 13.53
2/9/2023 2:00:00 PM 6.59 43.862 0.292 7.73 1.42 13.52
2/9/2023 2:15:00 PM 6.75 44.15 0.292 7.75 1.51 13.5
2/9/2023 2:30:00 PM 6.94 44.492 0.292 7.77 1.51 13.47
2/9/2023 2:45:00 PM 7.09 44.762 0.292 7.79 1.46 13.44
2/9/2023 3:00:00 PM 7.21 44.978 0.292 7.8 1.57 13.39
2/9/2023 3:15:00 PM 7.34 45.212 0.291 7.81 1.47 13.36
2/9/2023 3:30:00 PM 7.48 45.464 0.291 7.82 3.35 13.32
2/9/2023 3:45:00 PM 7.6 45.68 0.291 7.83 1.58 13.26
2/9/2023 4:00:00 PM 7.78 46.004 0.291 7.84 1.63 13.2
2/9/2023 4:15:00 PM 7.89 46.202 0.291 7.84 1.57 13.15
2/9/2023 4:30:00 PM 7.98 46.364 0.291 7.84 2.02 13.08
2/9/2023 4:45:00 PM 8.06 46.508 0.291 7.84 1.61 13
2/9/2023 5:00:00 PM 8.17 46.706 0.291 7.84 1.64 12.96
2/9/2023 5:15:00 PM 8.25 46.85 0.291 7.83 1.83 12.85
2/9/2023 5:30:00 PM 8.32 46.976 0.29 7.79 2.31 12.7
2/9/2023 5:45:00 PM 8.37 47.066 0.29 7.76 1.56 12.57
2/9/2023 6:00:00 PM 8.42 47.156 0.29 7.73 1.79 12.42
2/9/2023 6:15:00 PM 8.45 47.21 0.291 7.69 1.6 12.27
2/9/2023 6:30:00 PM 8.48 47.264 0.291 7.65 1.55 12.1
2/9/2023 6:45:00 PM 8.49 47.282 0.291 7.61 1.58 11.96
2/9/2023 7:00:00 PM 8.48 47.264 0.291 7.58 1.59 11.84
2/9/2023 7:15:00 PM 8.44 47.192 0.291 7.55 1.68 11.74
2/9/2023 7:30:00 PM 8.41 47.138 0.291 7.53 1.65 11.64
2/9/2023 7:45:00 PM 8.38 47.084 0.291 7.51 1.76 11.56
2/9/2023 8:00:00 PM 8.34 47.012 0.291 7.49 1.65 11.5
2/9/2023 8:15:00 PM 8.31 46.958 0.291 7.47 1.75 11.45
2/9/2023 8:30:00 PM 8.28 46.904 0.291 7.46 2.91 11.42
2/9/2023 8:45:00 PM 8.23 46.814 0.291 7.45 2.06 11.39
2/9/2023 9:00:00 PM 8.19 46.742 0.291 7.43 2.25 11.37
2/9/2023 9:15:00 PM 8.17 46.706 0.291 7.43 1.83 11.35
2/9/2023 9:30:00 PM 8.14 46.652 0.291 7.42 2.05 11.34
2/9/2023 9:45:00 PM 8.12 46.616 0.291 7.41 2 11.33
2/9/2023 10:00:00 PM 8.09 46.562 0.291 7.41 1.79 11.32
2/9/2023 10:15:00 PM 8.06 46.508 0.291 7.4 2.65 11.32
2/9/2023 10:30:00 PM 8.03 46.454 0.291 7.4 3.94 11.32
2/9/2023 10:45:00 PM 8 46.4 0.291 7.4 2.24 11.32
2/9/2023 11:00:00 PM 7.98 46.364 0.291 7.39 2.41 11.32
2/9/2023 11:15:00 PM 7.96 46.328 0.291 7.39 2.15 11.31
2/9/2023 11:30:00 PM 7.94 46.292 0.291 7.39 2.47 11.31
2/9/2023 11:45:00 PM 7.93 46.274 0.291 7.39 2.07 11.31
2/10/2023 12:00:00 AM 7.91 46.238 0.291 7.38 2.64 11.31
2/10/2023 12:15:00 AM 7.9 46.22 0.291 7.38 2.06 11.32
2/10/2023 12:30:00 AM 7.88 46.184 0.291 7.38 2.53 11.31
2/10/2023 12:45:00 AM 7.86 46.148 0.291 7.38 3.58 11.32
2/10/2023 1:00:00 AM 7.84 46.112 0.291 7.38 2.3 11.32
2/10/2023 1:15:00 AM 7.83 46.094 0.291 7.38 3.32 11.32
2/10/2023 1:30:00 AM 7.82 46.076 0.291 7.38 2.61 11.32
2/10/2023 1:45:00 AM 7.82 46.076 0.291 7.38 2.58 11.32
2/10/2023 2:00:00 AM 7.82 46.076 0.291 7.38 2.75 11.32
2/10/2023 2:15:00 AM 7.82 46.076 0.291 7.38 2.6 11.32
2/10/2023 2:30:00 AM 7.82 46.076 0.291 7.38 2.97 11.32
2/10/2023 2:45:00 AM 7.81 46.058 0.291 7.37 2.63 11.32
2/10/2023 3:00:00 AM 7.8 46.04 0.291 7.38 2.25 11.32
2/10/2023 3:15:00 AM 7.8 46.04 0.291 7.37 2.28 11.32
2/10/2023 3:30:00 AM 7.78 46.004 0.291 7.37 2.34 11.33
2/10/2023 3:45:00 AM 7.77 45.986 0.292 7.37 6.43 11.33
2/10/2023 4:00:00 AM 7.75 45.95 0.292 7.37 2.3 11.33
2/10/2023 4:15:00 AM 7.73 45.914 0.292 7.37 2.17 11.34
2/10/2023 4:30:00 AM 7.71 45.878 0.292 7.37 2.26 11.34
2/10/2023 4:45:00 AM 7.67 45.806 0.292 7.37 2.07 11.35
2/10/2023 5:00:00 AM 7.64 45.752 0.292 7.37 2.05 11.35
2/10/2023 5:15:00 AM 7.61 45.698 0.292 7.37 1.93 11.36
2/10/2023 5:30:00 AM 7.57 45.626 0.292 7.37 1.95 11.37
2/10/2023 5:45:00 AM 7.52 45.536 0.292 7.37 1.81 11.39
2/10/2023 6:00:00 AM 7.47 45.446 0.292 7.37 1.71 11.4
2/10/2023 6:15:00 AM 7.4 45.32 0.292 7.37 1.86 11.41
2/10/2023 6:30:00 AM 7.33 45.194 0.292 7.37 1.71 11.43
2/10/2023 6:45:00 AM 7.27 45.086 0.292 7.37 1.56 11.44
2/10/2023 7:00:00 AM 7.21 44.978 0.292 7.37 1.76 11.46
2/10/2023 7:15:00 AM 7.16 44.888 0.293 7.37 1.57 11.48
2/10/2023 7:30:00 AM 7.11 44.798 0.293 7.37 1.64 11.5
2/10/2023 7:45:00 AM 7.06 44.708 0.293 7.37 1.7 11.51
2/10/2023 8:00:00 AM 7.01 44.618 0.293 7.37 1.53 11.54
2/10/2023 8:15:00 AM 6.98 44.564 0.293 7.38 1.52 11.56
2/10/2023 8:30:00 AM 6.96 44.528 0.293 7.38 1.52 11.59
2/10/2023 8:45:00 AM 6.94 44.492 0.294 7.39 1.66 11.64
2/10/2023 9:00:00 AM 6.93 44.474 0.294 7.4 2.83 11.71
2/10/2023 9:15:00 AM 6.93 44.474 0.294 7.42 1.46 11.78
2/10/2023 9:30:00 AM 6.94 44.492 0.294 7.43 1.68 11.87
2/10/2023 9:45:00 AM 6.96 44.528 0.294 7.44 1.33 11.97
2/10/2023 10:00:00 AM 6.99 44.582 0.294 7.47 1.35 12.09
2/10/2023 10:15:00 AM 7.05 44.69 0.294 7.5 1.33 12.23
2/10/2023 10:30:00 AM 7.15 44.87 0.294 7.53 1.33 12.35
2/10/2023 10:45:00 AM 7.24 45.032 0.294 7.55 1.43 12.47
2/10/2023 11:00:00 AM 7.37 45.266 0.294 7.59 1.33 12.59
2/10/2023 11:15:00 AM 7.54 45.572 0.294 7.62 1.41 12.69
2/10/2023 11:30:00 AM 7.74 45.932 0.294 7.65 1.15 12.76
2/10/2023 11:45:00 AM 7.92 46.256 0.294 7.68 1.23 12.81
2/10/2023 12:00:00 PM 8.11 46.598 0.294 7.71 1.22 12.84
2/10/2023 12:15:00 PM 8.28 46.904 0.294 7.74 1.52 12.87
2/10/2023 12:30:00 PM 8.47 47.246 0.293 7.76 1.27 12.88
2/10/2023 12:45:00 PM 8.66 47.588 0.293 7.8 1.23 12.9
2/10/2023 1:00:00 PM 8.85 47.93 0.293 7.82 1.33 12.9
2/10/2023 1:15:00 PM 9.03 48.254 0.293 7.85 1.32 12.9
2/10/2023 1:30:00 PM 9.24 48.632 0.293 7.87 1.37 12.89
2/10/2023 1:45:00 PM 9.44 48.992 0.293 7.9 1.32 12.87
2/10/2023 2:00:00 PM 9.64 49.352 0.293 7.92 1.2 12.85
2/10/2023 2:15:00 PM 9.81 49.658 0.293 7.94 1.42 12.83
2/10/2023 2:30:00 PM 9.98 49.964 0.293 7.96 1.38 12.81
2/10/2023 2:45:00 PM 10.12 50.216 0.292 7.99 1.4 12.77
2/10/2023 3:00:00 PM 10.27 50.486 0.292 8 2.03 12.74
2/10/2023 3:15:00 PM 10.38 50.684 0.292 8.02 1.59 12.69
2/10/2023 3:30:00 PM 10.5 50.9 0.292 8.03 1.45 12.64
2/10/2023 3:45:00 PM 10.59 51.062 0.292 8.04 1.55 12.6
2/10/2023 4:00:00 PM 10.64 51.152 0.292 8.05 1.44 12.54
2/10/2023 4:15:00 PM 10.68 51.224 0.292 8.05 1.43 12.48
2/10/2023 4:30:00 PM 10.69 51.242 0.291 8.05 1.49 12.42
2/10/2023 4:45:00 PM 10.68 51.224 0.291 8.03 1.3 12.35
2/10/2023 5:00:00 PM 10.64 51.152 0.291 8.01 1.22 12.27
2/10/2023 5:15:00 PM 10.59 51.062 0.291 7.99 1.31 12.21
2/10/2023 5:30:00 PM 10.52 50.936 0.291 7.96 1.22 12.14
2/10/2023 5:45:00 PM 10.43 50.774 0.291 7.92 1.42 12.07
2/10/2023 6:00:00 PM 10.32 50.576 0.291 7.87 1.24 11.98
2/10/2023 6:15:00 PM 10.18 50.324 0.291 7.82 1.18 11.89
2/10/2023 6:30:00 PM 10.03 50.054 0.291 7.77 1.24 11.8
2/10/2023 6:45:00 PM 9.87 49.766 0.292 7.73 1.26 11.73
2/10/2023 7:00:00 PM 9.69 49.442 0.292 7.68 1.31 11.64
2/10/2023 7:15:00 PM 9.51 49.118 0.292 7.64 1.3 11.56
2/10/2023 7:30:00 PM 9.33 48.794 0.292 7.6 1.36 11.49
2/10/2023 7:45:00 PM 9.15 48.47 0.292 7.56 1.51 11.44
2/10/2023 8:00:00 PM 8.97 48.146 0.292 7.54 1.48 11.38
2/10/2023 8:15:00 PM 8.81 47.858 0.292 7.51 1.42 11.35
2/10/2023 8:30:00 PM 8.65 47.57 0.292 7.49 1.45 11.32
2/10/2023 8:45:00 PM 8.51 47.318 0.292 7.47 1.63 11.31
2/10/2023 9:00:00 PM 8.37 47.066 0.292 7.46 1.43 11.31
2/10/2023 9:15:00 PM 8.24 46.832 0.292 7.44 1.5 11.31
2/10/2023 9:30:00 PM 8.14 46.652 0.292 7.43 1.43 11.32
2/10/2023 9:45:00 PM 8.06 46.508 0.292 7.42 1.59 11.33
2/10/2023 10:00:00 PM 7.95 46.31 0.292 7.42 1.56 11.35
2/10/2023 10:15:00 PM 7.86 46.148 0.292 7.41 1.83 11.37
2/10/2023 10:30:00 PM 7.77 45.986 0.292 7.4 1.74 11.39
2/10/2023 10:45:00 PM 7.68 45.824 0.292 7.4 1.44 11.4
2/10/2023 11:00:00 PM 7.6 45.68 0.292 7.4 1.69 11.41
2/10/2023 11:15:00 PM 7.53 45.554 0.292 7.39 1.52 11.44
2/10/2023 11:30:00 PM 7.47 45.446 0.292 7.39 1.32 11.45
2/10/2023 11:45:00 PM 7.42 45.356 0.292 7.39 1.47 11.46
2/11/2023 12:00:00 AM 7.37 45.266 0.292 7.39 1.5 11.48
2/11/2023 12:15:00 AM 7.31 45.158 0.292 7.38 1.32 11.49
2/11/2023 12:30:00 AM 7.26 45.068 0.292 7.38 1.52 11.51
2/11/2023 12:45:00 AM 7.19 44.942 0.292 7.38 1.86 11.53
2/11/2023 1:00:00 AM 7.13 44.834 0.292 7.38 1.5 11.54
2/11/2023 1:15:00 AM 7.07 44.726 0.292 7.37 1.68 11.57
2/11/2023 1:30:00 AM 7 44.6 0.292 7.37 1.37 11.58
2/11/2023 1:45:00 AM 6.94 44.492 0.293 7.37 1.31 11.6
2/11/2023 2:00:00 AM 6.87 44.366 0.293 7.37 1.36 11.62
2/11/2023 2:15:00 AM 6.82 44.276 0.293 7.37 1.63 11.65
2/11/2023 2:30:00 AM 6.76 44.168 0.293 7.37 1.58 11.66
2/11/2023 2:45:00 AM 6.7 44.06 0.293 7.37 1.7 11.69
2/11/2023 3:00:00 AM 6.63 43.934 0.293 7.37 1.89 11.72
2/11/2023 3:15:00 AM 6.56 43.808 0.293 7.37 1.38 11.74
2/11/2023 3:30:00 AM 6.49 43.682 0.293 7.37 1.44 11.76
2/11/2023 3:45:00 AM 6.42 43.556 0.293 7.37 1.51 11.79
2/11/2023 4:00:00 AM 6.35 43.43 0.293 7.37 1.52 11.81
2/11/2023 4:15:00 AM 6.28 43.304 0.294 7.37 1.64 11.84
2/11/2023 4:30:00 AM 6.22 43.196 0.294 7.37 1.47 11.87
2/11/2023 4:45:00 AM 6.15 43.07 0.294 7.37 1.52 11.89
2/11/2023 5:00:00 AM 6.09 42.962 0.294 7.37 1.72 11.91
2/11/2023 5:15:00 AM 6.02 42.836 0.294 7.37 1.57 11.93
2/11/2023 5:30:00 AM 5.95 42.71 0.294 7.38 1.44 11.95
2/11/2023 5:45:00 AM 5.89 42.602 0.294 7.38 1.37 11.98
2/11/2023 6:00:00 AM 5.82 42.476 0.294 7.38 1.46 12
2/11/2023 6:15:00 AM 5.74 42.332 0.294 7.37 1.49 12.03
2/11/2023 6:30:00 AM 5.67 42.206 0.294 7.38 1.47 12.06
2/11/2023 6:45:00 AM 5.59 42.062 0.294 7.38 1.29 12.09
2/11/2023 7:00:00 AM 5.52 41.936 0.295 7.38 1.42 12.11
2/11/2023 7:15:00 AM 5.45 41.81 0.295 7.38 1.31 12.14
2/11/2023 7:30:00 AM 5.39 41.702 0.295 7.38 1.55 12.17
2/11/2023 7:45:00 AM 5.32 41.576 0.295 7.38 1.5 12.2
2/11/2023 8:00:00 AM 5.24 41.432 0.295 7.38 1.39 12.23
2/11/2023 8:15:00 AM 5.18 41.324 0.295 7.38 1.41 12.26
2/11/2023 8:30:00 AM 5.13 41.234 0.295 7.39 1.38 12.32
2/11/2023 8:45:00 AM 5.07 41.126 0.295 7.39 1.32 12.39
2/11/2023 9:00:00 AM 5.02 41.036 0.295 7.4 1.38 12.47
2/11/2023 9:15:00 AM 4.96 40.928 0.295 7.42 1.4 12.57
2/11/2023 9:30:00 AM 4.92 40.856 0.295 7.43 1.33 12.68
2/11/2023 9:45:00 AM 4.88 40.784 0.295 7.45 1.25 12.81
2/11/2023 10:00:00 AM 4.86 40.748 0.295 7.47 1.35 12.94
2/11/2023 10:15:00 AM 4.87 40.766 0.295 7.5 1.97 13.1
2/11/2023 10:30:00 AM 4.91 40.838 0.295 7.52 1.23 13.23
2/11/2023 10:45:00 AM 4.96 40.928 0.294 7.55 1.12 13.35
2/11/2023 11:00:00 AM 5.05 41.09 0.294 7.57 1.23 13.46
2/11/2023 11:15:00 AM 5.21 41.378 0.294 7.6 1.42 13.56
2/11/2023 11:30:00 AM 5.4 41.72 0.294 7.63 1.49 13.63
2/11/2023 11:45:00 AM 5.57 42.026 0.294 7.66 1.44 13.68
2/11/2023 12:00:00 PM 5.73 42.314 0.294 7.68 1.36 13.71
2/11/2023 12:15:00 PM 5.9 42.62 0.293 7.71 1.29 13.74
2/11/2023 12:30:00 PM 6.1 42.98 0.293 7.73 1.24 13.76
2/11/2023 12:45:00 PM 6.29 43.322 0.293 7.75 1.21 13.76
2/11/2023 1:00:00 PM 6.48 43.664 0.293 7.78 1.34 13.75
2/11/2023 1:15:00 PM 6.67 44.006 0.293 7.8 1.46 13.74
2/11/2023 1:30:00 PM 6.9 44.42 0.293 7.82 1.27 13.71
2/11/2023 1:45:00 PM 7.14 44.852 0.292 7.84 1.18 13.69
2/11/2023 2:00:00 PM 7.35 45.23 0.292 7.86 1.17 13.66
2/11/2023 2:15:00 PM 7.55 45.59 0.292 7.89 1.3 13.63
2/11/2023 2:30:00 PM 7.7 45.86 0.292 7.91 1.67 13.59
2/11/2023 2:45:00 PM 7.85 46.13 0.292 7.93 1.46 13.55
2/11/2023 3:00:00 PM 7.99 46.382 0.292 7.95 1.33 13.51
2/11/2023 3:15:00 PM 8.14 46.652 0.291 7.97 1.32 13.47
2/11/2023 3:30:00 PM 8.25 46.85 0.291 7.99 1.15 13.44
2/11/2023 3:45:00 PM 8.37 47.066 0.291 8 1.16 13.38
2/11/2023 4:00:00 PM 8.43 47.174 0.291 8.01 1.19 13.33
2/11/2023 4:15:00 PM 8.51 47.318 0.291 8.03 1.24 13.31
2/11/2023 4:30:00 PM 8.57 47.426 0.291 8.05 1.18 13.26
2/11/2023 4:45:00 PM 8.58 47.444 0.291 8.04 1.26 13.18
2/11/2023 5:00:00 PM 8.57 47.426 0.291 8.03 1.12 13.12
2/11/2023 5:15:00 PM 8.57 47.426 0.29 8.03 1.18 13.08
2/11/2023 5:30:00 PM 8.52 47.336 0.29 8 1.32 13.02
2/11/2023 5:45:00 PM 8.45 47.21 0.29 7.97 1.41 12.94
2/11/2023 6:00:00 PM 8.36 47.048 0.29 7.92 1.67 12.83
2/11/2023 6:15:00 PM 8.26 46.868 0.289 7.87 1.51 12.73
2/11/2023 6:30:00 PM 8.12 46.616 0.288 7.81 1.74 12.61
2/11/2023 6:45:00 PM 7.96 46.328 0.286 7.75 2.13 12.48
2/11/2023 7:00:00 PM 7.81 46.058 0.285 7.7 2.29 12.37
2/11/2023 7:15:00 PM 7.64 45.752 0.285 7.65 2.55 12.26
2/11/2023 7:30:00 PM 7.45 45.41 0.286 7.61 2.36 12.19
2/11/2023 7:45:00 PM 7.27 45.086 0.288 7.58 2.14 12.13
2/11/2023 8:00:00 PM 7.09 44.762 0.289 7.55 2.04 12.09
2/11/2023 8:15:00 PM 6.92 44.456 0.29 7.52 1.71 12.06
2/11/2023 8:30:00 PM 6.76 44.168 0.29 7.5 1.6 12.04
2/11/2023 8:45:00 PM 6.61 43.898 0.291 7.48 2.19 12.04
2/11/2023 9:00:00 PM 6.48 43.664 0.291 7.46 1.85 12.05
2/11/2023 9:15:00 PM 6.35 43.43 0.291 7.45 1.76 12.05
2/11/2023 9:30:00 PM 6.23 43.214 0.291 7.44 1.58 12.06
2/11/2023 9:45:00 PM 6.12 43.016 0.291 7.43 1.73 12.07
2/11/2023 10:00:00 PM 6.02 42.836 0.291 7.42 1.96 12.09
2/11/2023 10:15:00 PM 5.93 42.674 0.291 7.41 1.54 12.09
2/11/2023 10:30:00 PM 5.85 42.53 0.291 7.41 1.6 12.12
2/11/2023 10:45:00 PM 5.76 42.368 0.291 7.4 1.61 12.13
2/11/2023 11:00:00 PM 5.7 42.26 0.291 7.39 1.66 12.14
2/11/2023 11:15:00 PM 5.64 42.152 0.292 7.39 1.61 12.16
2/11/2023 11:30:00 PM 5.57 42.026 0.292 7.38 1.49 12.17
2/11/2023 11:45:00 PM 5.51 41.918 0.292 7.38 1.41 12.19
2/12/2023 12:00:00 AM 5.46 41.828 0.292 7.38 1.35 12.21
2/12/2023 12:15:00 AM 5.4 41.72 0.292 7.37 1.59 12.23
2/12/2023 12:30:00 AM 5.35 41.63 0.292 7.37 1.55 12.24
2/12/2023 12:45:00 AM 5.3 41.54 0.292 7.36 1.55 12.27
2/12/2023 1:00:00 AM 5.25 41.45 0.293 7.37 1.33 12.29
2/12/2023 1:15:00 AM 5.2 41.36 0.293 7.36 1.51 12.29
2/12/2023 1:30:00 AM 5.15 41.27 0.293 7.36 1.35 12.31
2/12/2023 1:45:00 AM 5.1 41.18 0.293 7.36 1.3 12.33
2/12/2023 2:00:00 AM 5.06 41.108 0.293 7.36 1.45 12.34
2/12/2023 2:15:00 AM 5.02 41.036 0.293 7.36 1.6 12.35
2/12/2023 2:30:00 AM 4.97 40.946 0.293 7.36 1.81 12.36
2/12/2023 2:45:00 AM 4.93 40.874 0.293 7.36 1.8 12.38
2/12/2023 3:00:00 AM 4.89 40.802 0.293 7.35 1.8 12.39
2/12/2023 3:15:00 AM 4.85 40.73 0.293 7.35 1.55 12.4
2/12/2023 3:30:00 AM 4.81 40.658 0.293 7.35 1.81 12.42
2/12/2023 3:45:00 AM 4.77 40.586 0.293 7.35 1.54 12.43
2/12/2023 4:00:00 AM 4.73 40.514 0.294 7.35 1.43 12.45
2/12/2023 4:15:00 AM 4.7 40.46 0.294 7.35 1.49 12.45
2/12/2023 4:30:00 AM 4.66 40.388 0.294 7.35 1.54 12.47
2/12/2023 4:45:00 AM 4.62 40.316 0.294 7.35 1.51 12.48
2/12/2023 5:00:00 AM 4.59 40.262 0.294 7.35 2.07 12.49
2/12/2023 5:15:00 AM 4.56 40.208 0.294 7.35 1.95 12.5
2/12/2023 5:30:00 AM 4.53 40.154 0.294 7.35 1.48 12.51
2/12/2023 5:45:00 AM 4.51 40.118 0.294 7.35 1.49 12.52
2/12/2023 6:00:00 AM 4.48 40.064 0.294 7.35 1.55 12.53
2/12/2023 6:15:00 AM 4.45 40.01 0.295 7.35 1.28 12.54
2/12/2023 6:30:00 AM 4.42 39.956 0.295 7.35 1.54 12.55
2/12/2023 6:45:00 AM 4.39 39.902 0.295 7.35 1.34 12.56
2/12/2023 7:00:00 AM 4.36 39.848 0.295 7.35 1.36 12.57
2/12/2023 7:15:00 AM 4.33 39.794 0.295 7.35 1.55 12.59
2/12/2023 7:30:00 AM 4.3 39.74 0.295 7.35 1.49 12.6
2/12/2023 7:45:00 AM 4.27 39.686 0.295 7.35 1.46 12.61
2/12/2023 8:00:00 AM 4.24 39.632 0.295 7.35 1.37 12.62
2/12/2023 8:15:00 AM 4.22 39.596 0.295 7.35 1.3 12.64
2/12/2023 8:30:00 AM 4.2 39.56 0.295 7.36 1.31 12.67
2/12/2023 8:45:00 AM 4.18 39.524 0.295 7.36 1.3 12.73
2/12/2023 9:00:00 AM 4.17 39.506 0.295 7.37 1.38 12.8
2/12/2023 9:15:00 AM 4.17 39.506 0.295 7.39 1.4 12.9
2/12/2023 9:30:00 AM 4.17 39.506 0.295 7.4 1.36 13.01
2/12/2023 9:45:00 AM 4.19 39.542 0.295 7.43 1.34 13.14
2/12/2023 10:00:00 AM 4.21 39.578 0.295 7.45 1.3 13.27
2/12/2023 10:15:00 AM 4.24 39.632 0.295 7.47 1.23 13.4
2/12/2023 10:30:00 AM 4.28 39.704 0.295 7.5 1.19 13.53
2/12/2023 10:45:00 AM 4.33 39.794 0.294 7.53 1.29 13.63
2/12/2023 11:00:00 AM 4.39 39.902 0.294 7.56 1.32 13.73
2/12/2023 11:15:00 AM 4.43 39.974 0.294 7.58 1.3 13.78
2/12/2023 11:30:00 AM 4.49 40.082 0.294 7.61 1.28 13.85
2/12/2023 11:45:00 AM 4.54 40.172 0.294 7.63 1.23 13.88
2/12/2023 12:00:00 PM 4.59 40.262 0.294 7.65 1.43 13.89
2/12/2023 12:15:00 PM 4.65 40.37 0.294 7.66 1.26 13.91
2/12/2023 12:30:00 PM 4.71 40.478 0.294 7.68 1.21 13.92
2/12/2023 12:45:00 PM 4.78 40.604 0.294 7.7 1.23 13.93
2/12/2023 1:00:00 PM 4.84 40.712 0.293 7.72 1.16 13.94
2/12/2023 1:15:00 PM 4.9 40.82 0.293 7.74 1.22 13.94
2/12/2023 1:30:00 PM 4.96 40.928 0.293 7.76 1.27 13.96
2/12/2023 1:45:00 PM 5.03 41.054 0.293 7.78 1.24 13.98
2/12/2023 2:00:00 PM 5.11 41.198 0.293 7.8 1.19 13.99
2/12/2023 2:15:00 PM 5.18 41.324 0.293 7.82 1.27 14
2/12/2023 2:30:00 PM 5.26 41.468 0.293 7.84 1.22 14
2/12/2023 2:45:00 PM 5.32 41.576 0.293 7.86 1.21 14
2/12/2023 3:00:00 PM 5.39 41.702 0.293 7.88 1.25 13.99
2/12/2023 3:15:00 PM 5.45 41.81 0.293 7.89 1.2 13.97
2/12/2023 3:30:00 PM 5.52 41.936 0.292 7.9 1.4 13.95
2/12/2023 3:45:00 PM 5.59 42.062 0.292 7.91 1.15 13.91
2/12/2023 4:00:00 PM 5.64 42.152 0.292 7.92 1.17 13.88
2/12/2023 4:15:00 PM 5.66 42.188 0.292 7.91 1.32 13.8
2/12/2023 4:30:00 PM 5.67 42.206 0.292 7.88 1.25 13.69
2/12/2023 4:45:00 PM 5.7 42.26 0.292 7.85 1.55 13.58
2/12/2023 5:00:00 PM 5.7 42.26 0.292 7.81 1.36 13.44
2/12/2023 5:15:00 PM 5.7 42.26 0.292 7.76 1.26 13.28
2/12/2023 5:30:00 PM 5.69 42.242 0.292 7.72 1.25 13.12
2/12/2023 5:45:00 PM 5.67 42.206 0.292 7.68 1.43 12.99
2/12/2023 6:00:00 PM 5.65 42.17 0.291 7.64 1.38 12.86
2/12/2023 6:15:00 PM 5.63 42.134 0.291 7.61 1.44 12.75
2/12/2023 6:30:00 PM 5.62 42.116 0.291 7.57 1.45 12.63
2/12/2023 6:45:00 PM 5.6 42.08 0.291 7.55 1.41 12.54
2/12/2023 7:00:00 PM 5.59 42.062 0.291 7.52 1.41 12.46
2/12/2023 7:15:00 PM 5.58 42.044 0.291 7.51 1.35 12.39
2/12/2023 7:30:00 PM 5.56 42.008 0.291 7.49 1.43 12.33
2/12/2023 7:45:00 PM 5.55 41.99 0.291 7.47 1.41 12.29
2/12/2023 8:00:00 PM 5.54 41.972 0.291 7.46 1.28 12.25
2/12/2023 8:15:00 PM 5.53 41.954 0.291 7.45 1.49 12.22
2/12/2023 8:30:00 PM 5.52 41.936 0.291 7.44 1.5 12.19
2/12/2023 8:45:00 PM 5.51 41.918 0.291 7.43 1.45 12.17
2/12/2023 9:00:00 PM 5.5 41.9 0.291 7.42 1.67 12.16
2/12/2023 9:15:00 PM 5.49 41.882 0.291 7.42 1.58 12.14
2/12/2023 9:30:00 PM 5.48 41.864 0.291 7.42 2.19 12.13
2/12/2023 9:45:00 PM 5.47 41.846 0.291 7.41 1.47 12.13
2/12/2023 10:00:00 PM 5.46 41.828 0.291 7.41 1.7 12.12
2/12/2023 10:15:00 PM 5.45 41.81 0.29 7.4 1.48 12.12
2/12/2023 10:30:00 PM 5.41 41.738 0.289 7.4 2.07 12.13
2/12/2023 10:45:00 PM 5.41 41.738 0.291 7.4 1.77 12.13
2/12/2023 11:00:00 PM 5.4 41.72 0.292 7.39 1.81 12.12
2/12/2023 11:15:00 PM 5.39 41.702 0.292 7.39 1.79 12.12
2/12/2023 11:30:00 PM 5.38 41.684 0.292 7.39 1.69 12.12
2/12/2023 11:45:00 PM 5.37 41.666 0.291 7.38 1.88 12.11
2/13/2023 12:00:00 AM 5.37 41.666 0.29 7.38 1.69 12.11
2/13/2023 12:15:00 AM 5.36 41.648 0.289 7.38 2.14 12.1
2/13/2023 12:30:00 AM 5.35 41.63 0.289 7.38 1.83 12.1
2/13/2023 12:45:00 AM 5.35 41.63 0.289 7.38 1.81 12.1
2/13/2023 1:00:00 AM 5.34 41.612 0.289 7.38 1.77 12.1
2/13/2023 1:15:00 AM 5.33 41.594 0.289 7.37 1.81 12.1
2/13/2023 1:30:00 AM 5.33 41.594 0.289 7.38 1.78 12.1
2/13/2023 1:45:00 AM 5.32 41.576 0.289 7.38 1.59 12.09
2/13/2023 2:00:00 AM 5.31 41.558 0.289 7.38 1.67 12.09
2/13/2023 2:15:00 AM 5.31 41.558 0.289 7.38 1.66 12.09
2/13/2023 2:30:00 AM 5.31 41.558 0.289 7.38 1.57 12.09
2/13/2023 2:45:00 AM 5.29 41.522 0.289 7.38 1.98 12.09
2/13/2023 3:00:00 AM 5.28 41.504 0.289 7.38 1.68 12.09
2/13/2023 3:15:00 AM 5.27 41.486 0.289 7.37 1.61 12.08
2/13/2023 3:30:00 AM 5.25 41.45 0.29 7.37 1.72 12.09
2/13/2023 3:45:00 AM 5.24 41.432 0.29 7.37 1.99 12.09
2/13/2023 4:00:00 AM 5.22 41.396 0.29 7.37 1.7 12.09
2/13/2023 4:15:00 AM 5.19 41.342 0.29 7.37 1.91 12.1
2/13/2023 4:30:00 AM 5.16 41.288 0.29 7.37 1.79 12.1
2/13/2023 4:45:00 AM 5.14 41.252 0.29 7.38 1.8 12.11
2/13/2023 5:00:00 AM 5.1 41.18 0.29 7.37 1.86 12.12
2/13/2023 5:15:00 AM 5.07 41.126 0.291 7.37 2.41 12.13
2/13/2023 5:30:00 AM 5.03 41.054 0.291 7.37 1.69 12.14
2/13/2023 5:45:00 AM 4.99 40.982 0.291 7.37 1.52 12.15
2/13/2023 6:00:00 AM 4.95 40.91 0.291 7.38 1.65 12.17
2/13/2023 6:15:00 AM 4.9 40.82 0.292 7.38 1.96 12.18
2/13/2023 6:30:00 AM 4.85 40.73 0.292 7.38 1.79 12.19
2/13/2023 6:45:00 AM 4.79 40.622 0.292 7.38 1.69 12.21
2/13/2023 7:00:00 AM 4.74 40.532 0.292 7.38 1.47 12.22
2/13/2023 7:15:00 AM 4.69 40.442 0.292 7.38 1.52 12.23
2/13/2023 7:30:00 AM 4.63 40.334 0.292 7.38 1.71 12.25
2/13/2023 7:45:00 AM 4.58 40.244 0.292 7.38 1.62 12.27
2/13/2023 8:00:00 AM 4.54 40.172 0.292 7.38 1.51 12.29
2/13/2023 8:15:00 AM 4.5 40.1 0.293 7.38 1.66 12.33
2/13/2023 8:30:00 AM 4.46 40.028 0.293 7.39 1.56 12.39
2/13/2023 8:45:00 AM 4.43 39.974 0.293 7.4 1.62 12.45
2/13/2023 9:00:00 AM 4.4 39.92 0.293 7.41 1.54 12.52
2/13/2023 9:15:00 AM 4.37 39.866 0.294 7.42 1.55 12.61
2/13/2023 9:30:00 AM 4.38 39.884 0.295 7.44 1.52 12.73
2/13/2023 9:45:00 AM 4.38 39.884 0.295 7.45 1.43 12.84
2/13/2023 10:00:00 AM 4.41 39.938 0.296 7.48 1.38 12.98
2/13/2023 10:15:00 AM 4.47 40.046 0.297 7.5 1.5 13.12
2/13/2023 10:30:00 AM 4.55 40.19 0.297 7.53 1.48 13.24
2/13/2023 10:45:00 AM 4.65 40.37 0.298 7.56 1.45 13.36
2/13/2023 11:00:00 AM 4.79 40.622 0.298 7.59 1.37 13.47
2/13/2023 11:15:00 AM 4.99 40.982 0.298 7.62 1.41 13.57
2/13/2023 11:30:00 AM 5.2 41.36 0.298 7.66 1.36 13.64
2/13/2023 11:45:00 AM 5.42 41.756 0.298 7.69 1.5 13.69
2/13/2023 12:00:00 PM 5.58 42.044 0.297 7.73 1.42 13.72
2/13/2023 12:15:00 PM 5.74 42.332 0.297 7.76 1.31 13.74
2/13/2023 12:30:00 PM 5.93 42.674 0.297 7.79 1.3 13.77
2/13/2023 12:45:00 PM 6.12 43.016 0.296 7.83 1.46 13.79
2/13/2023 1:00:00 PM 6.29 43.322 0.296 7.87 1.31 13.79
2/13/2023 1:15:00 PM 6.48 43.664 0.296 7.91 1.41 13.8
2/13/2023 1:30:00 PM 6.75 44.15 0.295 7.94 1.36 13.79
2/13/2023 1:45:00 PM 6.94 44.492 0.295 7.97 1.38 13.76
2/13/2023 2:00:00 PM 7.17 44.906 0.295 8 1.48 13.7
2/13/2023 2:15:00 PM 7.35 45.23 0.295 8.03 1.41 13.7
2/13/2023 2:30:00 PM 7.53 45.554 0.295 8.05 1.31 13.66
2/13/2023 2:45:00 PM 7.75 45.95 0.295 8.08 1.27 13.62
2/13/2023 3:00:00 PM 7.9 46.22 0.294 8.09 1.36 13.57
2/13/2023 3:15:00 PM 8.06 46.508 0.294 8.12 1.38 13.51
2/13/2023 3:30:00 PM 8.18 46.724 0.294 8.14 1.36 13.46
2/13/2023 3:45:00 PM 8.29 46.922 0.293 8.16 1.33 13.41
2/13/2023 4:00:00 PM 8.38 47.084 0.293 8.17 1.47 13.32
2/13/2023 4:15:00 PM 8.43 47.174 0.293 8.16 1.4 13.23
2/13/2023 4:30:00 PM 8.46 47.228 0.293 8.14 1.37 13.13
2/13/2023 4:45:00 PM 8.44 47.192 0.292 8.09 1.41 12.99
2/13/2023 5:00:00 PM 8.39 47.102 0.292 8.04 1.31 12.86
2/13/2023 5:15:00 PM 8.32 46.976 0.292 7.99 1.23 12.76
2/13/2023 5:30:00 PM 8.24 46.832 0.292 7.94 1.34 12.67
2/13/2023 5:45:00 PM 8.14 46.652 0.292 7.89 1.24 12.59
2/13/2023 6:00:00 PM 8.02 46.436 0.292 7.86 1.36 12.54
2/13/2023 6:15:00 PM 7.88 46.184 0.292 7.81 1.27 12.46
2/13/2023 6:30:00 PM 7.75 45.95 0.292 7.77 1.34 12.38
2/13/2023 6:45:00 PM 7.62 45.716 0.292 7.73 1.25 12.3
2/13/2023 7:00:00 PM 7.49 45.482 0.292 7.69 1.28 12.2
2/13/2023 7:15:00 PM 7.36 45.248 0.292 7.65 1.29 12.12
2/13/2023 7:30:00 PM 7.23 45.014 0.292 7.61 1.43 12.03
2/13/2023 7:45:00 PM 7.08 44.744 0.292 7.57 1.49 11.96
2/13/2023 8:00:00 PM 6.94 44.492 0.292 7.54 1.47 11.91
2/13/2023 8:15:00 PM 6.82 44.276 0.292 7.52 1.62 11.86
2/13/2023 8:30:00 PM 6.7 44.06 0.292 7.5 1.51 11.82
2/13/2023 8:45:00 PM 6.58 43.844 0.293 7.48 1.56 11.8
2/13/2023 9:00:00 PM 6.47 43.646 0.293 7.46 1.48 11.78
2/13/2023 9:15:00 PM 6.37 43.466 0.293 7.44 1.44 11.77
2/13/2023 9:30:00 PM 6.29 43.322 0.293 7.44 1.44 11.77
2/13/2023 9:45:00 PM 6.21 43.178 0.293 7.43 1.44 11.78
2/13/2023 10:00:00 PM 6.15 43.07 0.293 7.42 1.47 11.78
2/13/2023 10:15:00 PM 6.09 42.962 0.293 7.41 1.58 11.78
2/13/2023 10:30:00 PM 6.04 42.872 0.293 7.41 1.41 11.79
2/13/2023 10:45:00 PM 5.97 42.746 0.293 7.4 1.46 11.8
2/13/2023 11:00:00 PM 5.9 42.62 0.293 7.4 1.84 11.81
2/13/2023 11:15:00 PM 5.82 42.476 0.293 7.39 1.55 11.83
2/13/2023 11:30:00 PM 5.74 42.332 0.293 7.39 1.46 11.86
2/13/2023 11:45:00 PM 5.66 42.188 0.293 7.39 1.5 11.88
2/14/2023 12:00:00 AM 5.59 42.062 0.293 7.38 1.9 11.9
2/14/2023 12:15:00 AM 5.53 41.954 0.293 7.38 1.65 11.92
2/14/2023 12:30:00 AM 5.49 41.882 0.293 7.38 1.56 11.95
2/14/2023 12:45:00 AM 5.46 41.828 0.293 7.38 1.68 11.97
2/14/2023 1:00:00 AM 5.42 41.756 0.293 7.38 1.58 11.99
2/14/2023 1:15:00 AM 5.37 41.666 0.293 7.38 1.55 12.01
2/14/2023 1:30:00 AM 5.33 41.594 0.293 7.38 1.66 12.02
2/14/2023 1:45:00 AM 5.29 41.522 0.293 7.38 1.54 12.04
2/14/2023 2:00:00 AM 5.26 41.468 0.293 7.38 1.6 12.06
2/14/2023 2:15:00 AM 5.22 41.396 0.293 7.38 1.59 12.08
2/14/2023 2:30:00 AM 5.18 41.324 0.294 7.38 1.65 12.09
2/14/2023 2:45:00 AM 5.15 41.27 0.294 7.38 1.42 12.11
2/14/2023 3:00:00 AM 5.12 41.216 0.294 7.38 1.46 12.12
2/14/2023 3:15:00 AM 5.08 41.144 0.294 7.38 1.66 12.14
2/14/2023 3:30:00 AM 5.05 41.09 0.294 7.38 1.73 12.16
2/14/2023 3:45:00 AM 5.02 41.036 0.294 7.38 1.82 12.17
2/14/2023 4:00:00 AM 4.98 40.964 0.294 7.38 1.8 12.19
2/14/2023 4:15:00 AM 4.94 40.892 0.294 7.37 2.11 12.2
2/14/2023 4:30:00 AM 4.89 40.802 0.295 7.37 1.74 12.22
2/14/2023 4:45:00 AM 4.85 40.73 0.295 7.38 1.56 12.24
2/14/2023 5:00:00 AM 4.81 40.658 0.295 7.38 1.53 12.26
2/14/2023 5:15:00 AM 4.77 40.586 0.295 7.38 1.67 12.27
2/14/2023 5:30:00 AM 4.74 40.532 0.295 7.38 1.78 12.29
2/14/2023 5:45:00 AM 4.7 40.46 0.295 7.37 1.69 12.3
2/14/2023 6:00:00 AM 4.65 40.37 0.295 7.37 1.46 12.32
2/14/2023 6:15:00 AM 4.61 40.298 0.295 7.37 1.55 12.34
2/14/2023 6:30:00 AM 4.56 40.208 0.295 7.37 4.45 12.35
2/14/2023 6:45:00 AM 4.51 40.118 0.295 7.37 1.74 12.37
2/14/2023 7:00:00 AM 4.45 40.01 0.295 7.37 1.61 12.4
2/14/2023 7:15:00 AM 4.4 39.92 0.295 7.37 1.57 12.42
2/14/2023 7:30:00 AM 4.34 39.812 0.295 7.37 1.55 12.44
2/14/2023 7:45:00 AM 4.29 39.722 0.296 7.37 1.6 12.46
2/14/2023 8:00:00 AM 4.23 39.614 0.296 7.37 1.55 12.5
2/14/2023 8:15:00 AM 4.18 39.524 0.296 7.37 1.59 12.55
2/14/2023 8:30:00 AM 4.13 39.434 0.296 7.38 1.52 12.61
2/14/2023 8:45:00 AM 4.09 39.362 0.296 7.39 1.5 12.69
2/14/2023 9:00:00 AM 4.05 39.29 0.296 7.4 1.48 12.79
2/14/2023 9:15:00 AM 4.03 39.254 0.296 7.41 1.6 12.91
2/14/2023 9:30:00 AM 4.01 39.218 0.296 7.43 1.45 13.03
2/14/2023 9:45:00 AM 4.01 39.218 0.295 7.45 1.51 13.16
2/14/2023 10:00:00 AM 4.04 39.272 0.295 7.48 1.47 13.32
2/14/2023 10:15:00 AM 4.11 39.398 0.295 7.5 1.5 13.47
2/14/2023 10:30:00 AM 4.2 39.56 0.295 7.54 1.4 13.61
2/14/2023 10:45:00 AM 4.31 39.758 0.295 7.57 1.35 13.73
2/14/2023 11:00:00 AM 4.47 40.046 0.294 7.6 1.65 13.84
2/14/2023 11:15:00 AM 4.69 40.442 0.294 7.64 1.55 13.94
2/14/2023 11:30:00 AM 4.93 40.874 0.294 7.68 1.46 14.02
2/14/2023 11:45:00 AM 5.14 41.252 0.294 7.71 1.37 14.06
2/14/2023 12:00:00 PM 5.35 41.63 0.293 7.74 1.55 14.09
2/14/2023 12:15:00 PM 5.58 42.044 0.293 7.78 1.53 14.09
2/14/2023 12:30:00 PM 5.83 42.494 0.293 7.81 1.42 14.09
2/14/2023 12:45:00 PM 6.06 42.908 0.293 7.84 1.58 14.09
2/14/2023 1:00:00 PM 6.29 43.322 0.293 7.87 1.5 14.08
2/14/2023 1:15:00 PM 6.53 43.754 0.292 7.9 1.46 14.06
2/14/2023 1:30:00 PM 6.78 44.204 0.292 7.93 1.51 14.02
2/14/2023 1:45:00 PM 7.04 44.672 0.292 7.96 1.45 13.97
2/14/2023 2:00:00 PM 7.29 45.122 0.291 7.99 1.43 13.92
2/14/2023 2:15:00 PM 7.51 45.518 0.291 8.02 1.36 13.88
2/14/2023 2:30:00 PM 7.73 45.914 0.291 8.05 1.48 13.82
2/14/2023 2:45:00 PM 7.95 46.31 0.291 8.07 1.36 13.77
2/14/2023 3:00:00 PM 8.14 46.652 0.291 8.1 1.36 13.7
2/14/2023 3:15:00 PM 8.3 46.94 0.29 8.13 1.32 13.65
2/14/2023 3:30:00 PM 8.47 47.246 0.29 8.16 1.4 13.59
2/14/2023 3:45:00 PM 8.62 47.516 0.29 8.19 1.41 13.54
2/14/2023 4:00:00 PM 8.72 47.696 0.29 8.21 1.52 13.48
2/14/2023 4:15:00 PM 8.86 47.948 0.29 8.23 1.4 13.43
2/14/2023 4:30:00 PM 8.93 48.074 0.29 8.23 1.54 13.36
2/14/2023 4:45:00 PM 8.97 48.146 0.29 8.23 1.53 13.26
2/14/2023 5:00:00 PM 9 48.2 0.29 8.2 1.54 13.15
2/14/2023 5:15:00 PM 9.01 48.218 0.29 8.18 1.53 13.06
2/14/2023 5:30:00 PM 9 48.2 0.29 8.14 1.67 12.97
2/14/2023 5:45:00 PM 8.97 48.146 0.289 8.09 1.54 12.86
2/14/2023 6:00:00 PM 8.91 48.038 0.29 8.03 1.41 12.74
2/14/2023 6:15:00 PM 8.83 47.894 0.29 7.96 1.53 12.62
2/14/2023 6:30:00 PM 8.73 47.714 0.29 7.89 1.47 12.49
2/14/2023 6:45:00 PM 8.61 47.498 0.29 7.82 1.41 12.35
2/14/2023 7:00:00 PM 8.47 47.246 0.29 7.75 1.5 12.22
2/14/2023 7:15:00 PM 8.31 46.958 0.291 7.69 1.43 12.11
2/14/2023 7:30:00 PM 8.14 46.652 0.291 7.64 1.65 12.01
2/14/2023 7:45:00 PM 7.97 46.346 0.291 7.6 1.48 11.92
2/14/2023 8:00:00 PM 7.8 46.04 0.291 7.56 1.55 11.86
2/14/2023 8:15:00 PM 7.62 45.716 0.292 7.52 1.44 11.81
2/14/2023 8:30:00 PM 7.45 45.41 0.292 7.5 1.56 11.78
2/14/2023 8:45:00 PM 7.29 45.122 0.292 7.48 1.51 11.76
2/14/2023 9:00:00 PM 7.15 44.87 0.292 7.46 1.58 11.75
2/14/2023 9:15:00 PM 7.01 44.618 0.292 7.44 1.54 11.76
2/14/2023 9:30:00 PM 6.9 44.42 0.292 7.43 1.53 11.77
2/14/2023 9:45:00 PM 6.79 44.222 0.292 7.41 1.48 11.78
2/14/2023 10:00:00 PM 6.69 44.042 0.292 7.41 1.62 11.79
2/14/2023 10:15:00 PM 6.6 43.88 0.292 7.4 1.88 11.81
2/14/2023 10:30:00 PM 6.52 43.736 0.292 7.39 1.67 11.83
2/14/2023 10:45:00 PM 6.46 43.628 0.292 7.38 1.49 11.84
2/14/2023 11:00:00 PM 6.4 43.52 0.292 7.37 1.47 11.85
2/14/2023 11:15:00 PM 6.34 43.412 0.292 7.37 1.42 11.87
2/14/2023 11:30:00 PM 6.29 43.322 0.292 7.37 1.61 11.88
2/14/2023 11:45:00 PM 6.25 43.25 0.292 7.36 1.6 11.89
2/15/2023 12:00:00 AM 6.22 43.196 0.292 7.36 1.57 11.9
2/15/2023 12:15:00 AM 6.19 43.142 0.292 7.36 1.58 11.91
2/15/2023 12:30:00 AM 6.17 43.106 0.292 7.35 1.68 11.92
2/15/2023 12:45:00 AM 6.14 43.052 0.292 7.35 1.58 11.93
2/15/2023 1:00:00 AM 6.12 43.016 0.292 7.35 1.6 11.94
2/15/2023 1:15:00 AM 6.1 42.98 0.292 7.35 1.87 11.94
2/15/2023 1:30:00 AM 6.08 42.944 0.292 7.35 1.58 11.94
2/15/2023 1:45:00 AM 6.07 42.926 0.292 7.34 1.67 11.95
2/15/2023 2:00:00 AM 6.06 42.908 0.292 7.34 1.67 11.95
2/15/2023 2:15:00 AM 6.06 42.908 0.292 7.34 1.59 11.95
2/15/2023 2:30:00 AM 6.05 42.89 0.292 7.34 1.64 11.96
2/15/2023 2:45:00 AM 6.05 42.89 0.293 7.34 1.62 11.96
2/15/2023 3:00:00 AM 6.06 42.908 0.293 7.34 1.68 11.96
2/15/2023 3:15:00 AM 6.06 42.908 0.293 7.34 1.85 11.97
2/15/2023 3:30:00 AM 6.06 42.908 0.293 7.34 1.59 11.97
2/15/2023 3:45:00 AM 6.05 42.89 0.293 7.34 1.62 11.97
2/15/2023 4:00:00 AM 6.06 42.908 0.293 7.34 1.83 11.97
2/15/2023 4:15:00 AM 6.06 42.908 0.293 7.35 1.75 11.98
2/15/2023 4:30:00 AM 6.06 42.908 0.293 7.35 1.68 11.98
2/15/2023 4:45:00 AM 6.05 42.89 0.293 7.35 1.57 11.97
2/15/2023 5:00:00 AM 6.05 42.89 0.293 7.35 1.58 11.97
2/15/2023 5:15:00 AM 6.05 42.89 0.293 7.35 1.67 11.97
2/15/2023 5:30:00 AM 6.04 42.872 0.293 7.36 1.59 11.97
2/15/2023 5:45:00 AM 6.03 42.854 0.293 7.36 1.54 11.97
2/15/2023 6:00:00 AM 6.03 42.854 0.294 7.36 1.81 11.97
2/15/2023 6:15:00 AM 6.03 42.854 0.294 7.36 1.57 11.98
2/15/2023 6:30:00 AM 6.02 42.836 0.294 7.36 1.58 11.98
2/15/2023 6:45:00 AM 6.02 42.836 0.294 7.36 1.65 11.98
2/15/2023 7:00:00 AM 6.01 42.818 0.294 7.36 1.76 11.98
2/15/2023 7:15:00 AM 6.01 42.818 0.294 7.36 1.57 11.99
2/15/2023 7:30:00 AM 6 42.8 0.294 7.37 1.56 11.99
2/15/2023 7:45:00 AM 5.99 42.782 0.294 7.37 1.78 11.99
2/15/2023 8:00:00 AM 5.99 42.782 0.294 7.37 1.7 12
2/15/2023 8:15:00 AM 5.99 42.782 0.294 7.37 1.57 12.01
2/15/2023 8:30:00 AM 5.99 42.782 0.294 7.38 1.55 12.05
2/15/2023 8:45:00 AM 6 42.8 0.294 7.39 1.58 12.09
2/15/2023 9:00:00 AM 6.01 42.818 0.294 7.4 1.66 12.23
2/15/2023 9:15:00 AM 6.02 42.836 0.294 7.43 1.4 12.36
2/15/2023 9:30:00 AM 6.04 42.872 0.294 7.45 1.43 12.46
2/15/2023 9:45:00 AM 6.06 42.908 0.294 7.47 1.56 12.57
2/15/2023 10:00:00 AM 6.1 42.98 0.293 7.5 1.43 12.73
2/15/2023 10:15:00 AM 6.16 43.088 0.293 7.54 1.45 12.9
2/15/2023 10:30:00 AM 6.25 43.25 0.293 7.58 1.39 13.08
2/15/2023 10:45:00 AM 6.32 43.376 0.293 7.62 1.34 13.23
2/15/2023 11:00:00 AM 6.43 43.574 0.293 7.67 1.36 13.37
2/15/2023 11:15:00 AM 6.57 43.826 0.292 7.73 1.41 13.51
2/15/2023 11:30:00 AM 6.69 44.042 0.292 7.78 1.45 13.6
2/15/2023 11:45:00 AM 6.88 44.384 0.292 7.83 1.36 13.67
2/15/2023 12:00:00 PM 7.09 44.762 0.292 7.89 1.38 13.73
2/15/2023 12:15:00 PM 7.29 45.122 0.291 7.94 1.41 13.77
2/15/2023 12:30:00 PM 7.56 45.608 0.291 7.99 1.42 13.8
2/15/2023 12:45:00 PM 7.8 46.04 0.291 8.04 1.35 13.8
2/15/2023 1:00:00 PM 8.05 46.49 0.291 8.09 1.33 13.78
2/15/2023 1:15:00 PM 8.3 46.94 0.291 8.13 1.37 13.75
2/15/2023 1:30:00 PM 8.58 47.444 0.29 8.17 1.3 13.71
2/15/2023 1:45:00 PM 8.87 47.966 0.29 8.22 1.57 13.68
2/15/2023 2:00:00 PM 9.16 48.488 0.29 8.26 1.52 13.63
2/15/2023 2:15:00 PM 9.43 48.974 0.29 8.3 1.39 13.57
2/15/2023 2:30:00 PM 9.68 49.424 0.29 8.33 1.32 13.51
2/15/2023 2:45:00 PM 9.89 49.802 0.29 8.36 1.34 13.46
2/15/2023 3:00:00 PM 10.14 50.252 0.29 8.39 1.5 13.39
2/15/2023 3:15:00 PM 10.35 50.63 0.289 8.41 1.49 13.31
2/15/2023 3:30:00 PM 10.55 50.99 0.289 8.44 1.54 13.23
2/15/2023 3:45:00 PM 10.72 51.296 0.289 8.46 1.45 13.15
2/15/2023 4:00:00 PM 10.86 51.548 0.289 8.47 1.4 13.06
2/15/2023 4:15:00 PM 10.99 51.782 0.289 8.48 1.48 12.99
2/15/2023 4:30:00 PM 11.1 51.98 0.289 8.5 1.41 12.94
2/15/2023 4:45:00 PM 11.15 52.07 0.289 8.48 1.46 12.82
2/15/2023 5:00:00 PM 11.18 52.124 0.289 8.46 1.44 12.71
2/15/2023 5:15:00 PM 11.2 52.16 0.289 8.42 1.43 12.58
2/15/2023 5:30:00 PM 11.2 52.16 0.289 8.37 1.46 12.46
2/15/2023 5:45:00 PM 11.18 52.124 0.289 8.31 1.5 12.33
2/15/2023 6:00:00 PM 11.13 52.034 0.289 8.25 1.4 12.22
2/15/2023 6:15:00 PM 11.06 51.908 0.289 8.16 1.45 12.07
2/15/2023 6:30:00 PM 10.97 51.746 0.289 8.05 1.41 11.91
2/15/2023 6:45:00 PM 10.86 51.548 0.29 7.95 1.46 11.77
2/15/2023 7:00:00 PM 10.73 51.314 0.29 7.86 1.38 11.61
2/15/2023 7:15:00 PM 10.59 51.062 0.29 7.78 1.49 11.47
2/15/2023 7:30:00 PM 10.44 50.792 0.29 7.71 1.8 11.35
2/15/2023 7:45:00 PM 10.28 50.504 0.29 7.65 1.65 11.21
2/15/2023 8:00:00 PM 10.12 50.216 0.291 7.6 1.57 11.11
2/15/2023 8:15:00 PM 9.96 49.928 0.291 7.55 1.65 11.04
2/15/2023 8:30:00 PM 9.8 49.64 0.291 7.52 1.66 10.98
2/15/2023 8:45:00 PM 9.64 49.352 0.291 7.49 1.69 10.94
2/15/2023 9:00:00 PM 9.49 49.082 0.291 7.47 1.76 10.92
2/15/2023 9:15:00 PM 9.35 48.83 0.291 7.45 1.8 10.92
2/15/2023 9:30:00 PM 9.21 48.578 0.291 7.43 1.69 10.92
2/15/2023 9:45:00 PM 9.1 48.38 0.291 7.42 1.65 10.93
2/15/2023 10:00:00 PM 8.98 48.164 0.291 7.41 1.74 10.93
2/15/2023 10:15:00 PM 8.88 47.984 0.291 7.4 2.26 10.95
2/15/2023 10:30:00 PM 8.78 47.804 0.291 7.39 1.65 10.95
2/15/2023 10:45:00 PM 8.69 47.642 0.291 7.39 1.82 10.99
2/15/2023 11:00:00 PM 8.6 47.48 0.291 7.38 1.66 11
2/15/2023 11:15:00 PM 8.52 47.336 0.291 7.37 1.7 11.01
2/15/2023 11:30:00 PM 8.44 47.192 0.291 7.37 2.3 11.04
2/15/2023 11:45:00 PM 8.36 47.048 0.291 7.36 1.73 11.06
2/16/2023 12:00:00 AM 8.29 46.922 0.291 7.36 1.57 11.09
2/16/2023 12:15:00 AM 8.22 46.796 0.291 7.35 1.64 11.1
2/16/2023 12:30:00 AM 8.16 46.688 0.291 7.35 1.62 11.12
2/16/2023 12:45:00 AM 8.09 46.562 0.291 7.35 1.62 11.15
2/16/2023 1:00:00 AM 8.03 46.454 0.291 7.35 1.64 11.16
2/16/2023 1:15:00 AM 7.98 46.364 0.291 7.35 1.68 11.19
2/16/2023 1:30:00 AM 7.92 46.256 0.291 7.34 1.53 11.21
2/16/2023 1:45:00 AM 7.87 46.166 0.291 7.34 1.82 11.23
2/16/2023 2:00:00 AM 7.81 46.058 0.291 7.34 1.57 11.26
2/16/2023 2:15:00 AM 7.76 45.968 0.291 7.34 1.64 11.27
2/16/2023 2:30:00 AM 7.71 45.878 0.291 7.34 1.62 11.29
2/16/2023 2:45:00 AM 7.66 45.788 0.291 7.34 1.55 11.3
2/16/2023 3:00:00 AM 7.62 45.716 0.291 7.33 1.66 11.31
2/16/2023 3:15:00 AM 7.57 45.626 0.291 7.34 1.66 11.33
2/16/2023 3:30:00 AM 7.54 45.572 0.291 7.33 1.64 11.35
2/16/2023 3:45:00 AM 7.5 45.5 0.292 7.33 1.53 11.37
2/16/2023 4:00:00 AM 7.45 45.41 0.292 7.33 1.57 11.38
2/16/2023 4:15:00 AM 7.41 45.338 0.292 7.33 1.54 11.4
2/16/2023 4:30:00 AM 7.37 45.266 0.292 7.33 1.47 11.39
2/16/2023 4:45:00 AM 7.33 45.194 0.292 7.33 1.59 11.41
2/16/2023 5:00:00 AM 7.29 45.122 0.292 7.33 1.58 11.43
2/16/2023 5:15:00 AM 7.25 45.05 0.292 7.33 1.82 11.45
2/16/2023 5:30:00 AM 7.21 44.978 0.292 7.33 1.66 11.47
2/16/2023 5:45:00 AM 7.17 44.906 0.292 7.33 1.62 11.48
2/16/2023 6:00:00 AM 7.13 44.834 0.292 7.33 1.81 11.49
2/16/2023 6:15:00 AM 7.09 44.762 0.293 7.33 2.13 11.51
2/16/2023 6:30:00 AM 7.05 44.69 0.293 7.33 2.55 11.53
2/16/2023 6:45:00 AM 7.01 44.618 0.293 7.33 1.59 11.53
2/16/2023 7:00:00 AM 6.97 44.546 0.293 7.33 1.57 11.55
2/16/2023 7:15:00 AM 6.93 44.474 0.293 7.33 1.72 11.57
2/16/2023 7:30:00 AM 6.9 44.42 0.293 7.33 1.63 11.58
2/16/2023 7:45:00 AM 6.87 44.366 0.293 7.33 1.62 11.6
2/16/2023 8:00:00 AM 6.84 44.312 0.293 7.33 1.61 11.62
2/16/2023 8:15:00 AM 6.82 44.276 0.293 7.34 1.59 11.65
2/16/2023 8:30:00 AM 6.8 44.24 0.293 7.35 1.54 11.73
2/16/2023 8:45:00 AM 6.79 44.222 0.293 7.36 1.63 11.82
2/16/2023 9:00:00 AM 6.8 44.24 0.293 7.38 1.53 11.96
2/16/2023 9:15:00 AM 6.82 44.276 0.293 7.41 1.61 12.15
2/16/2023 9:30:00 AM 6.86 44.348 0.293 7.44 1.47 12.33
2/16/2023 9:45:00 AM 6.91 44.438 0.293 7.48 1.51 12.54
2/16/2023 10:00:00 AM 6.97 44.546 0.293 7.52 1.49 12.74
2/16/2023 10:15:00 AM 7.04 44.672 0.292 7.57 1.5 12.94
2/16/2023 10:30:00 AM 7.14 44.852 0.292 7.63 1.6 13.12
2/16/2023 10:45:00 AM 7.25 45.05 0.292 7.69 1.49 13.29
2/16/2023 11:00:00 AM 7.36 45.248 0.292 7.75 1.5 13.42
2/16/2023 11:15:00 AM 7.48 45.464 0.292 7.82 1.58 13.54
2/16/2023 11:30:00 AM 7.56 45.608 0.292 7.87 1.58 13.58
2/16/2023 11:45:00 AM 7.68 45.824 0.291 7.93 1.55 13.65
2/16/2023 12:00:00 PM 7.8 46.04 0.291 8 1.51 13.71
2/16/2023 12:15:00 PM 7.92 46.256 0.291 8.05 1.45 13.71
2/16/2023 12:30:00 PM 8.05 46.49 0.291 8.11 1.57 13.74
2/16/2023 12:45:00 PM 8.16 46.688 0.291 8.16 1.51 13.74
2/16/2023 1:00:00 PM 8.23 46.814 0.291 8.18 1.51 13.69
2/16/2023 1:15:00 PM 8.34 47.012 0.291 8.23 1.67 13.7
2/16/2023 1:30:00 PM 8.4 47.12 0.291 8.24 1.51 13.62
2/16/2023 1:45:00 PM 8.47 47.246 0.291 8.22 1.46 13.51
2/16/2023 2:00:00 PM 8.56 47.408 0.291 8.24 1.7 13.48
2/16/2023 2:15:00 PM 8.61 47.498 0.291 8.21 1.5 13.33
2/16/2023 2:30:00 PM 8.65 47.57 0.29 8.12 1.55 13.11
2/16/2023 2:45:00 PM 8.7 47.66 0.289 8.07 1.8 13
2/16/2023 3:00:00 PM 8.74 47.732 0.289 8 2.01 12.82
2/16/2023 3:15:00 PM 8.79 47.822 0.287 7.93 2.06 12.67
2/16/2023 3:30:00 PM 8.82 47.876 0.287 7.88 1.99 12.57
2/16/2023 3:45:00 PM 8.85 47.93 0.286 7.85 2.26 12.48
2/16/2023 4:00:00 PM 8.87 47.966 0.284 7.81 3.92 12.38
2/16/2023 4:15:00 PM 8.92 48.056 0.284 7.8 7.13 12.4
2/16/2023 4:30:00 PM 8.95 48.11 0.284 7.8 4.08 12.38
2/16/2023 4:45:00 PM 9 48.2 0.283 7.81 2.92 12.41
2/16/2023 5:00:00 PM 9.02 48.236 0.283 7.82 2.64 12.41
2/16/2023 5:15:00 PM 9.04 48.272 0.283 7.79 3.05 12.31
2/16/2023 5:30:00 PM 9.06 48.308 0.282 7.76 3.28 12.23
2/16/2023 5:45:00 PM 9.07 48.326 0.283 7.73 3.32 12.1
2/16/2023 6:00:00 PM 9.08 48.344 0.283 7.68 3.64 11.96
2/16/2023 6:15:00 PM 9.09 48.362 0.283 7.64 3.15 11.81
2/16/2023 6:30:00 PM 9.09 48.362 0.283 7.59 3.16 11.67
2/16/2023 6:45:00 PM 9.1 48.38 0.283 7.55 3.16 11.54
2/16/2023 7:00:00 PM 9.1 48.38 0.283 7.52 2.91 11.42
2/16/2023 7:15:00 PM 9.1 48.38 0.283 7.49 2.92 11.32
2/16/2023 7:30:00 PM 9.09 48.362 0.282 7.46 3.13 11.24
2/16/2023 7:45:00 PM 9.09 48.362 0.283 7.44 3.81 11.16
2/16/2023 8:00:00 PM 9.08 48.344 0.284 7.42 5.01 11.08
2/16/2023 8:15:00 PM 9.08 48.344 0.286 7.41 5.42 11.02
2/16/2023 8:30:00 PM 9.08 48.344 0.288 7.4 5.69 10.97
2/16/2023 8:45:00 PM 9.08 48.344 0.288 7.39 5.78 10.93
2/16/2023 9:00:00 PM 9.08 48.344 0.288 7.39 6.13 10.91
2/16/2023 9:15:00 PM 9.08 48.344 0.288 7.38 6.27 10.88
2/16/2023 9:30:00 PM 9.08 48.344 0.29 7.37 6.76 10.85
2/16/2023 9:45:00 PM 9.09 48.362 0.29 7.36 7.8 10.83
2/16/2023 10:00:00 PM 9.09 48.362 0.29 7.36 9.85 10.81
2/16/2023 10:15:00 PM 9.1 48.38 0.29 7.35 7.2 10.8
2/16/2023 10:30:00 PM 9.1 48.38 0.289 7.35 6.53 10.8
2/16/2023 10:45:00 PM 9.11 48.398 0.289 7.34 7.25 10.8
2/16/2023 11:00:00 PM 9.11 48.398 0.288 7.35 5.15 10.8
2/16/2023 11:15:00 PM 9.11 48.398 0.288 7.35 5.24 10.81
2/16/2023 11:30:00 PM 9.11 48.398 0.287 7.34 4.47 10.81
2/16/2023 11:45:00 PM 9.11 48.398 0.287 7.35 4.5 10.81
2/17/2023 12:00:00 AM 9.11 48.398 0.287 7.35 4.09 10.81
2/17/2023 12:15:00 AM 9.11 48.398 0.287 7.34 4.19 10.81
2/17/2023 12:30:00 AM 9.11 48.398 0.287 7.34 4.09 10.81
2/17/2023 12:45:00 AM 9.12 48.416 0.287 7.35 3.89 10.81
2/17/2023 1:00:00 AM 9.13 48.434 0.287 7.35 3.64 10.81
2/17/2023 1:15:00 AM 9.15 48.47 0.287 7.36 3.28 10.81
2/17/2023 1:30:00 AM 9.16 48.488 0.287 7.36 3.38 10.81
2/17/2023 1:45:00 AM 9.17 48.506 0.287 7.36 2.79 10.81
2/17/2023 2:00:00 AM 9.18 48.524 0.287 7.37 2.93 10.8
2/17/2023 2:15:00 AM 9.18 48.524 0.287 7.37 2.84 10.8
2/17/2023 2:30:00 AM 9.18 48.524 0.287 7.37 3.3 10.8
2/17/2023 2:45:00 AM 9.18 48.524 0.287 7.37 2.97 10.8
2/17/2023 3:00:00 AM 9.17 48.506 0.287 7.37 4.87 10.76
2/17/2023 3:15:00 AM 9.17 48.506 0.286 7.37 3.1 10.76
2/17/2023 3:30:00 AM 9.16 48.488 0.286 7.37 3.11 10.76
2/17/2023 3:45:00 AM 9.15 48.47 0.286 7.36 2.86 10.78
2/17/2023 4:00:00 AM 9.14 48.452 0.285 7.37 2.79 10.78
2/17/2023 4:15:00 AM 9.13 48.434 0.285 7.37 2.76 10.79
2/17/2023 4:30:00 AM 9.13 48.434 0.285 7.37 3.41 10.79
2/17/2023 4:45:00 AM 9.12 48.416 0.285 7.37 3.04 10.81
2/17/2023 5:00:00 AM 9.13 48.434 0.285 7.38 2.87 10.8
2/17/2023 5:15:00 AM 9.13 48.434 0.286 7.38 3.21 10.81
2/17/2023 5:30:00 AM 9.14 48.452 0.286 7.39 3.09 10.81
2/17/2023 5:45:00 AM 9.15 48.47 0.286 7.39 2.84 10.8
2/17/2023 6:00:00 AM 9.18 48.524 0.287 7.39 2.69 10.81
2/17/2023 6:15:00 AM 9.21 48.578 0.287 7.4 2.94 10.8
2/17/2023 6:30:00 AM 9.23 48.614 0.287 7.4 2.88 10.79
2/17/2023 6:45:00 AM 9.25 48.65 0.288 7.4 2.98 10.78
2/17/2023 7:00:00 AM 9.28 48.704 0.287 7.4 3.05 10.78
2/17/2023 7:15:00 AM 9.29 48.722 0.287 7.4 3.1 10.78
2/17/2023 7:30:00 AM 9.31 48.758 0.286 7.41 3.34 10.78
2/17/2023 7:45:00 AM 9.35 48.83 0.285 7.41 4.3 10.78
2/17/2023 8:00:00 AM 9.36 48.848 0.285 7.4 3.75 10.75
2/17/2023 8:15:00 AM 9.38 48.884 0.285 7.4 4.33 10.75
2/17/2023 8:30:00 AM 9.4 48.92 0.284 7.4 3.87 10.78
2/17/2023 8:45:00 AM 9.43 48.974 0.284 7.41 5.14 10.77
2/17/2023 9:00:00 AM 9.46 49.028 0.283 7.41 5.14 10.8
2/17/2023 9:15:00 AM 9.49 49.082 0.281 7.42 6.08 10.83
2/17/2023 9:30:00 AM 9.54 49.172 0.28 7.43 6.78 10.87
2/17/2023 9:45:00 AM 9.57 49.226 0.279 7.43 10.13 10.89
2/17/2023 10:00:00 AM 9.62 49.316 0.279 7.45 7.84 10.98
2/17/2023 10:15:00 AM 9.65 49.37 0.278 7.46 7.1 11.07
2/17/2023 10:30:00 AM 9.71 49.478 0.278 7.48 8.23 11.16
2/17/2023 10:45:00 AM 9.77 49.586 0.278 7.5 10.4 11.26
2/17/2023 11:00:00 AM 9.82 49.676 0.277 7.52 11.73 11.33
2/17/2023 11:15:00 AM 9.88 49.784 0.277 7.53 14.33 11.33
2/17/2023 11:30:00 AM 9.96 49.928 0.278 7.53 16.55 11.28
2/17/2023 11:45:00 AM 10.03 50.054 0.28 7.52 21 11.19
2/17/2023 12:00:00 PM 10.09 50.162 0.28 7.52 31.52 11.11
2/17/2023 12:15:00 PM 10.14 50.252 0.279 7.53 29.09 11.08
2/17/2023 12:30:00 PM 10.17 50.306 0.277 7.53 25.27 11.06
2/17/2023 12:45:00 PM 10.2 50.36 0.274 7.53 30.61 11.03
2/17/2023 1:00:00 PM 10.2 50.36 0.273 7.53 27.15 11.02
2/17/2023 1:15:00 PM 10.2 50.36 0.273 7.54 25.24 11.03
2/17/2023 1:30:00 PM 10.19 50.342 0.273 7.55 22.97 11.05
2/17/2023 1:45:00 PM 10.16 50.288 0.274 7.56 22.73 11.09
2/17/2023 2:00:00 PM 10.11 50.198 0.275 7.58 19.94 11.16
2/17/2023 2:15:00 PM 10.08 50.144 0.275 7.6 17.95 11.25
2/17/2023 2:30:00 PM 10.02 50.036 0.275 7.62 18.26 11.35
2/17/2023 2:45:00 PM 9.97 49.946 0.276 7.65 19.04 11.47
2/17/2023 3:00:00 PM 9.93 49.874 0.278 7.68 18.03 11.56
2/17/2023 3:15:00 PM 9.88 49.784 0.279 7.7 16.91 11.61
2/17/2023 3:30:00 PM 9.85 49.73 0.279 7.72 16.22 11.68
2/17/2023 3:45:00 PM 9.82 49.676 0.279 7.73 12.63 11.72
2/17/2023 4:00:00 PM 9.77 49.586 0.279 7.75 14.6 11.76
2/17/2023 4:15:00 PM 9.75 49.55 0.279 7.77 12.84 11.79
2/17/2023 4:30:00 PM 9.71 49.478 0.279 7.78 12.03 11.81
2/17/2023 4:45:00 PM 9.66 49.388 0.28 7.77 12.59 11.8
2/17/2023 5:00:00 PM 9.61 49.298 0.28 7.77 11.71 11.78
2/17/2023 5:15:00 PM 9.54 49.172 0.281 7.76 12.5 11.72
2/17/2023 5:30:00 PM 9.46 49.028 0.281 7.74 12.94 11.67
2/17/2023 5:45:00 PM 9.37 48.866 0.281 7.73 11.19 11.61
2/17/2023 6:00:00 PM 9.29 48.722 0.281 7.71 11.13 11.57
2/17/2023 6:15:00 PM 9.19 48.542 0.281 7.69 9.77 11.53
2/17/2023 6:30:00 PM 9.09 48.362 0.281 7.68 9.22 11.49
2/17/2023 6:45:00 PM 8.99 48.182 0.28 7.65 8.85 11.43
2/17/2023 7:00:00 PM 8.89 48.002 0.28 7.63 8.23 11.39
2/17/2023 7:15:00 PM 8.78 47.804 0.28 7.62 8.01 11.35
2/17/2023 7:30:00 PM 8.7 47.66 0.28 7.6 8.43 11.3
2/17/2023 7:45:00 PM 8.62 47.516 0.281 7.58 8.65 11.26
2/17/2023 8:00:00 PM 8.52 47.336 0.281 7.57 8.7 11.23
2/17/2023 8:15:00 PM 8.4 47.12 0.282 7.56 8.81 11.22
2/17/2023 8:30:00 PM 8.29 46.922 0.283 7.55 9.85 11.2
2/17/2023 8:45:00 PM 8.16 46.688 0.283 7.54 10.32 11.2
2/17/2023 9:00:00 PM 8.04 46.472 0.284 7.53 10 11.2
2/17/2023 9:15:00 PM 7.93 46.274 0.284 7.52 9.66 11.21
2/17/2023 9:30:00 PM 7.81 46.058 0.284 7.51 9.23 11.24
2/17/2023 9:45:00 PM 7.69 45.842 0.283 7.5 9.07 11.24
2/17/2023 10:00:00 PM 7.58 45.644 0.283 7.49 8.76 11.27
2/17/2023 10:15:00 PM 7.46 45.428 0.283 7.48 8.49 11.29
2/17/2023 10:30:00 PM 7.37 45.266 0.283 7.48 8.49 11.3
2/17/2023 10:45:00 PM 7.27 45.086 0.283 7.47 8.01 11.35
2/17/2023 11:00:00 PM 7.16 44.888 0.283 7.47 7.73 11.38
2/17/2023 11:15:00 PM 7.05 44.69 0.283 7.46 7.65 11.41
2/17/2023 11:30:00 PM 6.97 44.546 0.283 7.46 7.18 11.43
2/17/2023 11:45:00 PM 6.87 44.366 0.283 7.46 7.24 11.47
2/18/2023 12:00:00 AM 6.79 44.222 0.283 7.45 7.35 11.49
2/18/2023 12:15:00 AM 6.71 44.078 0.283 7.45 7 11.53
2/18/2023 12:30:00 AM 6.63 43.934 0.284 7.45 6.66 11.57
2/18/2023 12:45:00 AM 6.55 43.79 0.284 7.45 6.87 11.6
2/18/2023 1:00:00 AM 6.47 43.646 0.284 7.45 6.48 11.63
2/18/2023 1:15:00 AM 6.38 43.484 0.284 7.44 6.31 11.66
2/18/2023 1:30:00 AM 6.3 43.34 0.285 7.44 6.34 11.69
2/18/2023 1:45:00 AM 6.24 43.232 0.285 7.44 5.96 11.72
2/18/2023 2:00:00 AM 6.13 43.034 0.286 7.44 6.61 11.75
2/18/2023 2:15:00 AM 6.05 42.89 0.286 7.45 6.27 11.78
2/18/2023 2:30:00 AM 5.93 42.674 0.287 7.44 5.88 11.82
2/18/2023 2:45:00 AM 5.84 42.512 0.287 7.45 6.27 11.85
2/18/2023 3:00:00 AM 5.74 42.332 0.288 7.44 6.27 11.88
2/18/2023 3:15:00 AM 5.64 42.152 0.289 7.45 6.06 11.92
2/18/2023 3:30:00 AM 5.54 41.972 0.289 7.45 5.81 11.95
2/18/2023 3:45:00 AM 5.43 41.774 0.29 7.44 5.7 11.98
2/18/2023 4:00:00 AM 5.33 41.594 0.29 7.45 5.59 12.04
2/18/2023 4:15:00 AM 5.23 41.414 0.291 7.45 5.59 12.08
2/18/2023 4:30:00 AM 5.12 41.216 0.291 7.44 5.46 12.11
2/18/2023 4:45:00 AM 5.01 41.018 0.292 7.44 5.74 12.15
2/18/2023 5:00:00 AM 4.92 40.856 0.292 7.44 5.45 12.19
2/18/2023 5:15:00 AM 4.82 40.676 0.292 7.44 5.34 12.22
2/18/2023 5:30:00 AM 4.72 40.496 0.292 7.44 5.08 12.26
2/18/2023 5:45:00 AM 4.63 40.334 0.292 7.44 5.27 12.31
2/18/2023 6:00:00 AM 4.53 40.154 0.293 7.44 5.25 12.35
2/18/2023 6:15:00 AM 4.45 40.01 0.293 7.44 5.7 12.38
2/18/2023 6:30:00 AM 4.37 39.866 0.293 7.44 5.33 12.42
2/18/2023 6:45:00 AM 4.29 39.722 0.293 7.44 4.66 12.46
2/18/2023 7:00:00 AM 4.21 39.578 0.293 7.44 4.63 12.5
2/18/2023 7:15:00 AM 4.14 39.452 0.293 7.44 4.81 12.54
2/18/2023 7:30:00 AM 4.07 39.326 0.293 7.43 4.44 12.58
2/18/2023 7:45:00 AM 3.99 39.182 0.293 7.43 4.55 12.62
2/18/2023 8:00:00 AM 3.92 39.056 0.294 7.43 4.21 12.65
2/18/2023 8:15:00 AM 3.87 38.966 0.294 7.44 4.36 12.7
2/18/2023 8:30:00 AM 3.8 38.84 0.294 7.44 4.06 12.76
2/18/2023 8:45:00 AM 3.75 38.75 0.294 7.45 3.94 12.84
2/18/2023 9:00:00 AM 3.7 38.66 0.295 7.46 3.87 12.93
2/18/2023 9:15:00 AM 3.66 38.588 0.295 7.47 3.86 13.05
2/18/2023 9:30:00 AM 3.61 38.498 0.295 7.49 3.51 13.18
2/18/2023 9:45:00 AM 3.58 38.444 0.295 7.5 3.7 13.31
2/18/2023 10:00:00 AM 3.56 38.408 0.295 7.52 3.68 13.49
2/18/2023 10:15:00 AM 3.58 38.444 0.296 7.55 3.45 13.65
2/18/2023 10:30:00 AM 3.6 38.48 0.296 7.58 3.57 13.79
2/18/2023 10:45:00 AM 3.66 38.588 0.296 7.6 3.37 13.93
2/18/2023 11:00:00 AM 3.78 38.804 0.295 7.63 3.65 14.05
2/18/2023 11:15:00 AM 3.95 39.11 0.295 7.66 3.36 14.17
2/18/2023 11:30:00 AM 4.16 39.488 0.295 7.69 3.43 14.25
2/18/2023 11:45:00 AM 4.33 39.794 0.295 7.72 3.33 14.32
2/18/2023 12:00:00 PM 4.52 40.136 0.294 7.75 3.2 14.37
2/18/2023 12:15:00 PM 4.71 40.478 0.294 7.77 3.23 14.41
2/18/2023 12:30:00 PM 4.89 40.802 0.294 7.8 3.12 14.43
2/18/2023 12:45:00 PM 5.1 41.18 0.294 7.83 3.21 14.45
2/18/2023 1:00:00 PM 5.3 41.54 0.293 7.85 3.03 14.46
2/18/2023 1:15:00 PM 5.51 41.918 0.293 7.88 3.03 14.47
2/18/2023 1:30:00 PM 5.73 42.314 0.292 7.91 2.94 14.46
2/18/2023 1:45:00 PM 5.96 42.728 0.292 7.94 3.01 14.44
2/18/2023 2:00:00 PM 6.2 43.16 0.292 7.96 3.06 14.43
2/18/2023 2:15:00 PM 6.42 43.556 0.291 7.99 2.92 14.41
2/18/2023 2:30:00 PM 6.61 43.898 0.291 8.01 2.91 14.38
2/18/2023 2:45:00 PM 6.81 44.258 0.291 8.04 2.97 14.33
2/18/2023 3:00:00 PM 7 44.6 0.291 8.07 2.73 14.27
2/18/2023 3:15:00 PM 7.17 44.906 0.29 8.08 2.73 14.22
2/18/2023 3:30:00 PM 7.32 45.176 0.29 8.11 2.76 14.18
2/18/2023 3:45:00 PM 7.47 45.446 0.29 8.13 2.68 14.12
2/18/2023 4:00:00 PM 7.57 45.626 0.29 8.14 2.67 14.05
2/18/2023 4:15:00 PM 7.65 45.77 0.29 8.16 2.71 13.99
2/18/2023 4:30:00 PM 7.69 45.842 0.29 8.16 2.75 13.91
2/18/2023 4:45:00 PM 7.71 45.878 0.29 8.15 2.51 13.82
2/18/2023 5:00:00 PM 7.69 45.842 0.29 8.13 2.48 13.7
2/18/2023 5:15:00 PM 7.67 45.806 0.29 8.11 2.75 13.61
2/18/2023 5:30:00 PM 7.65 45.77 0.29 8.09 2.4 13.54
2/18/2023 5:45:00 PM 7.59 45.662 0.29 8.06 2.59 13.45
2/18/2023 6:00:00 PM 7.52 45.536 0.29 8.01 2.39 13.35
2/18/2023 6:15:00 PM 7.42 45.356 0.29 7.97 2.47 13.26
2/18/2023 6:30:00 PM 7.3 45.14 0.29 7.92 2.47 13.15
2/18/2023 6:45:00 PM 7.15 44.87 0.29 7.87 2.44 13.03
2/18/2023 7:00:00 PM 7 44.6 0.29 7.81 2.34 12.92
2/18/2023 7:15:00 PM 6.82 44.276 0.29 7.76 2.44 12.81
2/18/2023 7:30:00 PM 6.64 43.952 0.291 7.71 2.32 12.73
2/18/2023 7:45:00 PM 6.46 43.628 0.291 7.66 2.33 12.63
2/18/2023 8:00:00 PM 6.28 43.304 0.291 7.62 2.33 12.54
2/18/2023 8:15:00 PM 6.1 42.98 0.291 7.59 2.37 12.43
2/18/2023 8:30:00 PM 5.94 42.692 0.291 7.56 3.31 12.43
2/18/2023 8:45:00 PM 5.78 42.404 0.291 7.53 2.12 12.36
2/18/2023 9:00:00 PM 5.62 42.116 0.291 7.51 2.13 12.36
2/18/2023 9:15:00 PM 5.49 41.882 0.291 7.49 2.16 12.37
2/18/2023 9:30:00 PM 5.37 41.666 0.291 7.48 2.65 12.38
2/18/2023 9:45:00 PM 5.26 41.468 0.291 7.47 2.14 12.38
2/18/2023 10:00:00 PM 5.16 41.288 0.292 7.46 2.2 12.4
2/18/2023 10:15:00 PM 5.06 41.108 0.292 7.45 2.33 12.41
2/18/2023 10:30:00 PM 4.98 40.964 0.292 7.44 2.22 12.42
2/18/2023 10:45:00 PM 4.89 40.802 0.292 7.43 2.27 12.43
2/18/2023 11:00:00 PM 4.82 40.676 0.292 7.43 2.86 12.45
2/18/2023 11:15:00 PM 4.75 40.55 0.292 7.42 2.34 12.48
2/18/2023 11:30:00 PM 4.68 40.424 0.292 7.41 2.25 12.49
2/18/2023 11:45:00 PM 4.61 40.298 0.292 7.41 2.36 12.51
2/19/2023 12:00:00 AM 4.55 40.19 0.292 7.41 2.28 12.53
2/19/2023 12:15:00 AM 4.49 40.082 0.292 7.4 2.34 12.54
2/19/2023 12:30:00 AM 4.44 39.992 0.292 7.4 2.34 12.56
2/19/2023 12:45:00 AM 4.39 39.902 0.292 7.4 2.18 12.57
2/19/2023 1:00:00 AM 4.34 39.812 0.292 7.4 2.21 12.6
2/19/2023 1:15:00 AM 4.3 39.74 0.292 7.4 2.28 12.59
2/19/2023 1:30:00 AM 4.26 39.668 0.292 7.39 2.16 12.61
2/19/2023 1:45:00 AM 4.22 39.596 0.292 7.39 2.2 12.64
2/19/2023 2:00:00 AM 4.19 39.542 0.292 7.39 2.5 12.66
2/19/2023 2:15:00 AM 4.16 39.488 0.292 7.39 2.13 12.67
2/19/2023 2:30:00 AM 4.13 39.434 0.292 7.39 2.49 12.68
2/19/2023 2:45:00 AM 4.11 39.398 0.292 7.39 2.01 12.69
2/19/2023 3:00:00 AM 4.09 39.362 0.292 7.39 2.19 12.7
2/19/2023 3:15:00 AM 4.07 39.326 0.292 7.39 2.15 12.71
2/19/2023 3:30:00 AM 4.05 39.29 0.293 7.39 2.1 12.72
2/19/2023 3:45:00 AM 4.02 39.236 0.293 7.38 2.05 12.73
2/19/2023 4:00:00 AM 4 39.2 0.293 7.38 2.07 12.73
2/19/2023 4:15:00 AM 3.98 39.164 0.293 7.38 2.12 12.74
2/19/2023 4:30:00 AM 3.96 39.128 0.293 7.38 2.16 12.76
2/19/2023 4:45:00 AM 3.94 39.092 0.293 7.38 2.34 12.74
2/19/2023 5:00:00 AM 3.92 39.056 0.293 7.38 2 12.78
2/19/2023 5:15:00 AM 3.89 39.002 0.293 7.38 1.98 12.78
2/19/2023 5:30:00 AM 3.87 38.966 0.293 7.38 2 12.79
2/19/2023 5:45:00 AM 3.85 38.93 0.293 7.38 2.05 12.8
2/19/2023 6:00:00 AM 3.83 38.894 0.293 7.38 2.05 12.81
2/19/2023 6:15:00 AM 3.81 38.858 0.293 7.38 2.02 12.8
2/19/2023 6:30:00 AM 3.79 38.822 0.293 7.38 1.87 12.83
2/19/2023 6:45:00 AM 3.77 38.786 0.293 7.38 2.13 12.84
2/19/2023 7:00:00 AM 3.75 38.75 0.293 7.38 2.09 12.85
2/19/2023 7:15:00 AM 3.72 38.696 0.293 7.38 1.85 12.85
2/19/2023 7:30:00 AM 3.7 38.66 0.294 7.38 1.82 12.86
2/19/2023 7:45:00 AM 3.67 38.606 0.294 7.38 1.89 12.87
2/19/2023 8:00:00 AM 3.65 38.57 0.294 7.38 1.92 12.88
2/19/2023 8:15:00 AM 3.63 38.534 0.294 7.38 1.81 12.93
2/19/2023 8:30:00 AM 3.61 38.498 0.294 7.39 1.93 12.98
2/19/2023 8:45:00 AM 3.61 38.498 0.294 7.4 1.76 13.1
2/19/2023 9:00:00 AM 3.63 38.534 0.294 7.42 1.75 13.25
2/19/2023 9:15:00 AM 3.63 38.534 0.294 7.44 1.77 13.37
2/19/2023 9:30:00 AM 3.65 38.57 0.294 7.46 1.8 13.53
2/19/2023 9:45:00 AM 3.71 38.678 0.293 7.49 1.75 13.7
2/19/2023 10:00:00 AM 3.79 38.822 0.293 7.53 1.64 13.87
2/19/2023 10:15:00 AM 3.88 38.984 0.293 7.56 1.62 14.01
2/19/2023 10:30:00 AM 3.97 39.146 0.293 7.6 1.61 14.14
2/19/2023 10:45:00 AM 4.08 39.344 0.293 7.64 1.65 14.26
2/19/2023 11:00:00 AM 4.31 39.758 0.292 7.68 1.68 14.38
2/19/2023 11:15:00 AM 4.43 39.974 0.292 7.72 1.66 14.45
2/19/2023 11:30:00 AM 4.6 40.28 0.292 7.76 1.71 14.5
2/19/2023 11:45:00 AM 4.78 40.604 0.292 7.8 1.61 14.54
2/19/2023 12:00:00 PM 4.99 40.982 0.292 7.83 1.61 14.55
2/19/2023 12:15:00 PM 5.29 41.522 0.291 7.86 1.63 14.55
2/19/2023 12:30:00 PM 5.54 41.972 0.291 7.89 1.57 14.52
2/19/2023 12:45:00 PM 5.74 42.332 0.291 7.91 1.63 14.48
2/19/2023 1:00:00 PM 5.9 42.62 0.291 7.94 1.62 14.46
2/19/2023 1:15:00 PM 6.11 42.998 0.291 7.96 1.72 14.43
2/19/2023 1:30:00 PM 6.35 43.43 0.291 7.99 1.58 14.42
2/19/2023 1:45:00 PM 6.59 43.862 0.29 8.03 1.57 14.39
2/19/2023 2:00:00 PM 6.69 44.042 0.29 8.05 1.6 14.33
2/19/2023 2:15:00 PM 6.89 44.402 0.29 8.07 1.66 14.25
2/19/2023 2:30:00 PM 7.13 44.834 0.29 8.09 1.69 14.23
2/19/2023 2:45:00 PM 7.37 45.266 0.29 8.12 1.59 14.15
2/19/2023 3:00:00 PM 7.58 45.644 0.29 8.15 1.55 14.12
2/19/2023 3:15:00 PM 7.78 46.004 0.289 8.18 1.76 14.08
2/19/2023 3:30:00 PM 7.95 46.31 0.289 8.2 1.57 14.03
2/19/2023 3:45:00 PM 8.03 46.454 0.289 8.22 1.81 13.97
2/19/2023 4:00:00 PM 8.15 46.67 0.289 8.24 1.56 13.9
2/19/2023 4:15:00 PM 8.24 46.832 0.289 8.25 1.5 13.81
2/19/2023 4:30:00 PM 8.33 46.994 0.289 8.26 1.48 13.71
2/19/2023 4:45:00 PM 8.39 47.102 0.289 8.26 1.47 13.65
2/19/2023 5:00:00 PM 8.46 47.228 0.289 8.26 1.58 13.54
2/19/2023 5:15:00 PM 8.48 47.264 0.289 8.24 1.52 13.44
2/19/2023 5:30:00 PM 8.47 47.246 0.289 8.22 1.58 13.36
2/19/2023 5:45:00 PM 8.43 47.174 0.289 8.19 1.56 13.27
2/19/2023 6:00:00 PM 8.36 47.048 0.29 8.14 1.55 13.15
2/19/2023 6:15:00 PM 8.27 46.886 0.29 8.08 1.55 13.03
2/19/2023 6:30:00 PM 8.17 46.706 0.29 8.01 1.54 12.88
2/19/2023 6:45:00 PM 8.06 46.508 0.29 7.93 1.57 12.7
2/19/2023 7:00:00 PM 7.96 46.328 0.29 7.86 1.44 12.55
2/19/2023 7:15:00 PM 7.85 46.13 0.291 7.79 1.7 12.41
2/19/2023 7:30:00 PM 7.72 45.896 0.291 7.73 1.62 12.25
2/19/2023 7:45:00 PM 7.6 45.68 0.291 7.68 1.77 12.12
2/19/2023 8:00:00 PM 7.49 45.482 0.291 7.63 1.52 12.03
2/19/2023 8:15:00 PM 7.38 45.284 0.291 7.59 1.56 11.91
2/19/2023 8:30:00 PM 7.28 45.104 0.292 7.56 1.6 11.83
2/19/2023 8:45:00 PM 7.18 44.924 0.292 7.53 1.64 11.78
2/19/2023 9:00:00 PM 7.09 44.762 0.292 7.51 1.63 11.74
2/19/2023 9:15:00 PM 7.01 44.618 0.292 7.49 1.73 11.7
2/19/2023 9:30:00 PM 6.94 44.492 0.292 7.48 1.76 11.68
2/19/2023 9:45:00 PM 6.89 44.402 0.292 7.47 1.77 11.66
2/19/2023 10:00:00 PM 6.84 44.312 0.292 7.46 1.83 11.63
2/19/2023 10:15:00 PM 6.8 44.24 0.292 7.45 1.66 11.64
2/19/2023 10:30:00 PM 6.76 44.168 0.292 7.44 1.78 11.64
2/19/2023 10:45:00 PM 6.71 44.078 0.292 7.43 1.62 11.66
2/19/2023 11:00:00 PM 6.68 44.024 0.292 7.43 1.82 11.65
2/19/2023 11:15:00 PM 6.64 43.952 0.292 7.42 1.8 11.66
2/19/2023 11:30:00 PM 6.6 43.88 0.292 7.42 1.7 11.66
2/19/2023 11:45:00 PM 6.56 43.808 0.292 7.41 1.71 11.67
2/20/2023 12:00:00 AM 6.52 43.736 0.292 7.41 1.66 11.68
2/20/2023 12:15:00 AM 6.48 43.664 0.292 7.4 1.8 11.69
2/20/2023 12:30:00 AM 6.44 43.592 0.292 7.4 2.55 11.7
2/20/2023 12:45:00 AM 6.4 43.52 0.292 7.4 4.45 11.71
2/20/2023 1:00:00 AM 6.36 43.448 0.292 7.4 1.75 11.73
2/20/2023 1:15:00 AM 6.32 43.376 0.292 7.39 1.66 11.74
2/20/2023 1:30:00 AM 6.28 43.304 0.292 7.39 1.69 11.76
2/20/2023 1:45:00 AM 6.24 43.232 0.292 7.39 1.7 11.76
2/20/2023 2:00:00 AM 6.2 43.16 0.293 7.39 1.73 11.78
2/20/2023 2:15:00 AM 6.16 43.088 0.293 7.38 1.85 11.79
2/20/2023 2:30:00 AM 6.12 43.016 0.293 7.38 1.94 11.8
2/20/2023 2:45:00 AM 6.09 42.962 0.293 7.38 1.81 11.8
2/20/2023 3:00:00 AM 6.05 42.89 0.293 7.38 1.83 11.82
2/20/2023 3:15:00 AM 6.02 42.836 0.293 7.38 1.75 11.83
2/20/2023 3:30:00 AM 5.98 42.764 0.293 7.38 1.82 11.84
2/20/2023 3:45:00 AM 5.95 42.71 0.293 7.37 1.83 11.85
2/20/2023 4:00:00 AM 5.93 42.674 0.293 7.37 1.87 11.86
2/20/2023 4:15:00 AM 5.9 42.62 0.294 7.37 2.19 11.86
2/20/2023 4:30:00 AM 5.88 42.584 0.294 7.37 1.74 11.87
2/20/2023 4:45:00 AM 5.86 42.548 0.294 7.37 1.91 11.88
2/20/2023 5:00:00 AM 5.85 42.53 0.294 7.37 1.89 11.88
2/20/2023 5:15:00 AM 5.83 42.494 0.294 7.37 2.13 11.89
2/20/2023 5:30:00 AM 5.82 42.476 0.294 7.37 1.74 11.89
2/20/2023 5:45:00 AM 5.8 42.44 0.294 7.37 2.63 11.9
2/20/2023 6:00:00 AM 5.78 42.404 0.294 7.36 1.84 11.91
2/20/2023 6:15:00 AM 5.76 42.368 0.294 7.36 1.95 11.91
2/20/2023 6:30:00 AM 5.75 42.35 0.294 7.36 1.86 11.91
2/20/2023 6:45:00 AM 5.74 42.332 0.294 7.36 1.7 11.92
2/20/2023 7:00:00 AM 5.73 42.314 0.294 7.36 1.74 11.93
2/20/2023 7:15:00 AM 5.71 42.278 0.294 7.36 1.74 11.93
2/20/2023 7:30:00 AM 5.7 42.26 0.294 7.36 1.61 11.94
2/20/2023 7:45:00 AM 5.69 42.242 0.295 7.36 1.7 11.95
2/20/2023 8:00:00 AM 5.68 42.224 0.295 7.36 1.66 11.95
2/20/2023 8:15:00 AM 5.67 42.206 0.295 7.37 1.63 11.98
2/20/2023 8:30:00 AM 5.66 42.188 0.295 7.37 1.74 12.03
2/20/2023 8:45:00 AM 5.66 42.188 0.295 7.37 1.65 12.11
2/20/2023 9:00:00 AM 5.67 42.206 0.295 7.4 1.58 12.26
2/20/2023 9:15:00 AM 5.7 42.26 0.294 7.42 1.56 12.4
2/20/2023 9:30:00 AM 5.73 42.314 0.294 7.45 1.61 12.56
2/20/2023 9:45:00 AM 5.77 42.386 0.294 7.48 1.43 12.75
2/20/2023 10:00:00 AM 5.82 42.476 0.294 7.52 1.5 12.93
2/20/2023 10:15:00 AM 5.88 42.584 0.294 7.55 1.51 13.09
2/20/2023 10:30:00 AM 5.95 42.71 0.294 7.6 1.47 13.26
2/20/2023 10:45:00 AM 6.04 42.872 0.293 7.64 1.48 13.41
2/20/2023 11:00:00 AM 6.15 43.07 0.293 7.69 1.5 13.55
2/20/2023 11:15:00 AM 6.27 43.286 0.293 7.74 1.53 13.67
2/20/2023 11:30:00 AM 6.41 43.538 0.293 7.79 1.59 13.76
2/20/2023 11:45:00 AM 6.56 43.808 0.292 7.85 1.62 13.84
2/20/2023 12:00:00 PM 6.8 44.24 0.292 7.9 1.5 13.9
2/20/2023 12:15:00 PM 6.91 44.438 0.292 7.96 1.51 13.91
2/20/2023 12:30:00 PM 7.06 44.708 0.292 8.01 1.39 13.95
2/20/2023 12:45:00 PM 7.27 45.086 0.292 8.06 1.46 13.96
2/20/2023 1:00:00 PM 7.49 45.482 0.292 8.11 1.52 13.96
2/20/2023 1:15:00 PM 7.65 45.77 0.291 8.15 1.39 13.92
2/20/2023 1:30:00 PM 7.93 46.274 0.291 8.2 1.41 13.9
2/20/2023 1:45:00 PM 8.23 46.814 0.291 8.24 1.32 13.86
2/20/2023 2:00:00 PM 8.5 47.3 0.291 8.28 1.39 13.79
2/20/2023 2:15:00 PM 8.7 47.66 0.291 8.3 1.39 13.71
2/20/2023 2:30:00 PM 8.93 48.074 0.29 8.32 1.5 13.66
2/20/2023 2:45:00 PM 9.17 48.506 0.29 8.35 1.44 13.62
2/20/2023 3:00:00 PM 9.29 48.722 0.29 8.36 1.42 13.51
2/20/2023 3:15:00 PM 9.57 49.226 0.29 8.4 1.43 13.49
2/20/2023 3:30:00 PM 9.72 49.496 0.29 8.41 1.39 13.43
2/20/2023 3:45:00 PM 9.83 49.694 0.29 8.42 1.42 13.33
2/20/2023 4:00:00 PM 9.97 49.946 0.29 8.43 1.47 13.3
2/20/2023 4:15:00 PM 10.08 50.144 0.29 8.44 1.35 13.21
2/20/2023 4:30:00 PM 10.16 50.288 0.29 8.43 1.33 13.12
2/20/2023 4:45:00 PM 10.21 50.378 0.29 8.39 1.31 12.97
2/20/2023 5:00:00 PM 10.23 50.414 0.29 8.34 1.38 12.83
2/20/2023 5:15:00 PM 10.23 50.414 0.29 8.3 1.34 12.75
2/20/2023 5:30:00 PM 10.22 50.396 0.29 8.24 1.48 12.61
2/20/2023 5:45:00 PM 10.19 50.342 0.29 8.18 1.44 12.52
2/20/2023 6:00:00 PM 10.14 50.252 0.29 8.13 1.43 12.41
2/20/2023 6:15:00 PM 10.09 50.162 0.29 8.05 1.28 12.28
2/20/2023 6:30:00 PM 10.01 50.018 0.29 7.97 1.6 12.12
2/20/2023 6:45:00 PM 9.93 49.874 0.29 7.89 1.43 11.96
2/20/2023 7:00:00 PM 9.84 49.712 0.291 7.81 1.45 11.79
2/20/2023 7:15:00 PM 9.75 49.55 0.291 7.74 1.46 11.64
2/20/2023 7:30:00 PM 9.66 49.388 0.291 7.68 1.66 11.5
2/20/2023 7:45:00 PM 9.56 49.208 0.291 7.63 1.4 11.37
2/20/2023 8:00:00 PM 9.45 49.01 0.291 7.59 1.38 11.27
2/20/2023 8:15:00 PM 9.36 48.848 0.291 7.56 1.57 11.18
2/20/2023 8:30:00 PM 9.28 48.704 0.291 7.52 2.93 11.1
2/20/2023 8:45:00 PM 9.17 48.506 0.291 7.5 1.98 11.05
2/20/2023 9:00:00 PM 9.08 48.344 0.291 7.48 1.77 11.01
2/20/2023 9:15:00 PM 9 48.2 0.291 7.46 1.68 10.98
2/20/2023 9:30:00 PM 8.93 48.074 0.291 7.44 1.81 10.96
2/20/2023 9:45:00 PM 8.85 47.93 0.291 7.43 2.04 10.95
2/20/2023 10:00:00 PM 8.76 47.768 0.291 7.42 1.69 10.95
2/20/2023 10:15:00 PM 8.68 47.624 0.291 7.41 1.86 10.94
2/20/2023 10:30:00 PM 8.62 47.516 0.291 7.4 1.81 10.94
2/20/2023 10:45:00 PM 8.56 47.408 0.291 7.4 1.85 10.95
2/20/2023 11:00:00 PM 8.5 47.3 0.291 7.39 2.26 10.95
2/20/2023 11:15:00 PM 8.46 47.228 0.291 7.39 1.95 10.96
2/20/2023 11:30:00 PM 8.41 47.138 0.291 7.38 1.75 10.96
2/20/2023 11:45:00 PM 8.36 47.048 0.291 7.38 1.75 10.97
2/21/2023 12:00:00 AM 8.32 46.976 0.291 7.38 1.79 10.97
2/21/2023 12:15:00 AM 8.28 46.904 0.291 7.37 1.61 10.98
2/21/2023 12:30:00 AM 8.25 46.85 0.291 7.37 1.9 10.99
2/21/2023 12:45:00 AM 8.22 46.796 0.291 7.37 1.81 11
2/21/2023 1:00:00 AM 8.18 46.724 0.291 7.37 1.78 11
2/21/2023 1:15:00 AM 8.16 46.688 0.291 7.36 1.75 11.01
2/21/2023 1:30:00 AM 8.14 46.652 0.291 7.36 2.08 11.02
2/21/2023 1:45:00 AM 8.12 46.616 0.291 7.36 1.75 11.02
2/21/2023 2:00:00 AM 8.1 46.58 0.291 7.36 2.07 11.03
2/21/2023 2:15:00 AM 8.09 46.562 0.292 7.36 1.7 11.03
2/21/2023 2:30:00 AM 8.07 46.526 0.292 7.36 2.05 11.03
2/21/2023 2:45:00 AM 8.06 46.508 0.292 7.36 1.92 11.04
2/21/2023 3:00:00 AM 8.05 46.49 0.292 7.36 1.76 11.04
2/21/2023 3:15:00 AM 8.04 46.472 0.292 7.36 1.7 11.04
2/21/2023 3:30:00 AM 8.03 46.454 0.292 7.35 1.72 11.04
2/21/2023 3:45:00 AM 8.02 46.436 0.292 7.36 1.77 11.05
2/21/2023 4:00:00 AM 8.02 46.436 0.292 7.37 1.78 11.05
2/21/2023 4:15:00 AM 8.01 46.418 0.291 7.37 2.51 11.06
2/21/2023 4:30:00 AM 8.01 46.418 0.291 7.37 1.86 11.06
2/21/2023 4:45:00 AM 7.99 46.382 0.291 7.37 1.65 11.07
2/21/2023 5:00:00 AM 7.98 46.364 0.291 7.38 1.75 11.07
2/21/2023 5:15:00 AM 7.96 46.328 0.291 7.38 1.97 11.07
2/21/2023 5:30:00 AM 7.94 46.292 0.291 7.38 1.94 11.08
2/21/2023 5:45:00 AM 7.93 46.274 0.292 7.38 2.03 11.09
2/21/2023 6:00:00 AM 7.9 46.22 0.292 7.38 1.87 11.09
2/21/2023 6:15:00 AM 7.88 46.184 0.292 7.38 1.75 11.09
2/21/2023 6:30:00 AM 7.85 46.13 0.292 7.38 1.71 11.1
2/21/2023 6:45:00 AM 7.82 46.076 0.292 7.38 1.81 11.11
2/21/2023 7:00:00 AM 7.79 46.022 0.292 7.38 2 11.12
2/21/2023 7:15:00 AM 7.74 45.932 0.292 7.38 1.86 11.13
2/21/2023 7:30:00 AM 7.69 45.842 0.292 7.38 1.73 11.13
2/21/2023 7:45:00 AM 7.64 45.752 0.292 7.38 1.68 11.15
2/21/2023 8:00:00 AM 7.59 45.662 0.292 7.38 1.68 11.18
2/21/2023 8:15:00 AM 7.54 45.572 0.292 7.39 1.66 11.23
2/21/2023 8:30:00 AM 7.5 45.5 0.292 7.4 1.61 11.32
2/21/2023 8:45:00 AM 7.49 45.482 0.292 7.42 1.59 11.47
2/21/2023 9:00:00 AM 7.45 45.41 0.292 7.44 1.58 11.61
2/21/2023 9:15:00 AM 7.46 45.428 0.292 7.47 1.51 11.81
2/21/2023 9:30:00 AM 7.49 45.482 0.291 7.51 1.5 12.04
2/21/2023 9:45:00 AM 7.5 45.5 0.291 7.54 1.55 12.22
2/21/2023 10:00:00 AM 7.55 45.59 0.291 7.6 1.38 12.48
2/21/2023 10:15:00 AM 7.6 45.68 0.291 7.66 1.45 12.7
2/21/2023 10:30:00 AM 7.77 45.986 0.29 7.73 1.41 12.93
2/21/2023 10:45:00 AM 7.86 46.148 0.29 7.8 1.54 13.11
2/21/2023 11:00:00 AM 7.94 46.292 0.29 7.87 1.4 13.24
2/21/2023 11:15:00 AM 8.07 46.526 0.29 7.94 1.43 13.34
2/21/2023 11:30:00 AM 8.26 46.868 0.29 8.01 1.36 13.45
2/21/2023 11:45:00 AM 8.46 47.228 0.29 8.09 1.63 13.52
2/21/2023 12:00:00 PM 8.64 47.552 0.29 8.15 1.6 13.56
2/21/2023 12:15:00 PM 8.9 48.02 0.289 8.21 1.49 13.62
2/21/2023 12:30:00 PM 9.03 48.254 0.289 8.28 1.45 13.67
2/21/2023 12:45:00 PM 9.08 48.344 0.289 8.34 1.48 13.69
2/21/2023 1:00:00 PM 9.23 48.614 0.289 8.4 1.48 13.73
2/21/2023 1:15:00 PM 9.55 49.19 0.289 8.46 1.43 13.76
2/21/2023 1:30:00 PM 9.76 49.568 0.288 8.51 1.32 13.77
2/21/2023 1:45:00 PM 9.84 49.712 0.288 8.54 1.38 13.7
2/21/2023 2:00:00 PM 9.87 49.766 0.288 8.55 1.34 13.62
2/21/2023 2:15:00 PM 9.85 49.73 0.288 8.53 1.39 13.46
2/21/2023 2:30:00 PM 9.87 49.766 0.288 8.48 1.45 13.22
2/21/2023 2:45:00 PM 9.9 49.82 0.288 8.47 1.36 13.17
2/21/2023 3:00:00 PM 10.06 50.108 0.288 8.47 1.41 13.14
2/21/2023 3:15:00 PM 10.12 50.216 0.288 8.45 1.45 13.08
2/21/2023 3:30:00 PM 10.23 50.414 0.288 8.46 1.44 13.08
2/21/2023 3:45:00 PM 10.32 50.576 0.288 8.48 1.6 13.07
2/21/2023 4:00:00 PM 10.41 50.738 0.288 8.5 1.55 13.05
2/21/2023 4:15:00 PM 10.4 50.72 0.287 8.51 1.46 12.96
2/21/2023 4:30:00 PM 10.42 50.756 0.287 8.49 1.46 12.91
2/21/2023 4:45:00 PM 10.43 50.774 0.287 8.5 1.35 12.86
2/21/2023 5:00:00 PM 10.4 50.72 0.287 8.46 1.57 12.74
2/21/2023 5:15:00 PM 10.4 50.72 0.287 8.42 1.78 12.65
2/21/2023 5:30:00 PM 10.4 50.72 0.287 8.4 1.77 12.56
2/21/2023 5:45:00 PM 10.37 50.666 0.287 8.37 1.41 12.47
2/21/2023 6:00:00 PM 10.31 50.558 0.287 8.31 1.37 12.37
2/21/2023 6:15:00 PM 10.23 50.414 0.288 8.24 1.55 12.26
2/21/2023 6:30:00 PM 10.13 50.234 0.288 8.15 1.56 12.13
2/21/2023 6:45:00 PM 10.01 50.018 0.288 8.05 1.44 12
2/21/2023 7:00:00 PM 9.9 49.82 0.288 7.96 1.65 11.87
2/21/2023 7:15:00 PM 9.78 49.604 0.288 7.88 1.48 11.74
2/21/2023 7:30:00 PM 9.66 49.388 0.289 7.8 1.62 11.61
2/21/2023 7:45:00 PM 9.52 49.136 0.289 7.73 1.69 11.47
2/21/2023 8:00:00 PM 9.37 48.866 0.289 7.67 1.59 11.36
2/21/2023 8:15:00 PM 9.22 48.596 0.289 7.63 1.68 11.28
2/21/2023 8:30:00 PM 9.07 48.326 0.29 7.58 1.66 11.21
2/21/2023 8:45:00 PM 8.91 48.038 0.29 7.55 1.74 11.16
2/21/2023 9:00:00 PM 8.76 47.768 0.29 7.53 2.64 11.13
2/21/2023 9:15:00 PM 8.63 47.534 0.29 7.51 1.93 11.1
2/21/2023 9:30:00 PM 8.5 47.3 0.29 7.49 1.81 11.08
2/21/2023 9:45:00 PM 8.38 47.084 0.29 7.48 1.73 11.1
2/21/2023 10:00:00 PM 8.25 46.85 0.29 7.46 1.64 11.1
2/21/2023 10:15:00 PM 8.13 46.634 0.29 7.45 1.62 11.12
2/21/2023 10:30:00 PM 8.01 46.418 0.29 7.44 1.67 11.11
2/21/2023 10:45:00 PM 7.9 46.22 0.29 7.44 1.62 11.14
2/21/2023 11:00:00 PM 7.8 46.04 0.291 7.43 1.75 11.16
2/21/2023 11:15:00 PM 7.71 45.878 0.291 7.43 1.73 11.18
2/21/2023 11:30:00 PM 7.63 45.734 0.291 7.42 1.65 11.19
2/21/2023 11:45:00 PM 7.55 45.59 0.291 7.42 1.69 11.21
2/22/2023 12:00:00 AM 7.47 45.446 0.291 7.41 1.63 11.22
2/22/2023 12:15:00 AM 7.4 45.32 0.291 7.41 1.65 11.24
2/22/2023 12:30:00 AM 7.32 45.176 0.291 7.4 2.32 11.25
2/22/2023 12:45:00 AM 7.24 45.032 0.291 7.4 4.2 11.27
2/22/2023 1:00:00 AM 7.16 44.888 0.291 7.39 1.86 11.29
2/22/2023 1:15:00 AM 7.08 44.744 0.291 7.39 1.85 11.32
2/22/2023 1:30:00 AM 7 44.6 0.291 7.39 1.76 11.33
2/22/2023 1:45:00 AM 6.92 44.456 0.291 7.39 1.9 11.37
2/22/2023 2:00:00 AM 6.84 44.312 0.291 7.39 1.75 11.4
2/22/2023 2:15:00 AM 6.76 44.168 0.291 7.38 1.69 11.41
2/22/2023 2:30:00 AM 6.67 44.006 0.291 7.38 1.62 11.45
2/22/2023 2:45:00 AM 6.6 43.88 0.292 7.38 1.79 11.5
2/22/2023 3:00:00 AM 6.52 43.736 0.292 7.38 1.82 11.52
2/22/2023 3:15:00 AM 6.45 43.61 0.292 7.38 1.72 11.55
2/22/2023 3:30:00 AM 6.37 43.466 0.292 7.38 2.35 11.59
2/22/2023 3:45:00 AM 6.3 43.34 0.292 7.38 1.72 11.61
2/22/2023 4:00:00 AM 6.22 43.196 0.292 7.37 1.76 11.65
2/22/2023 4:15:00 AM 6.15 43.07 0.292 7.37 1.83 11.68
2/22/2023 4:30:00 AM 6.07 42.926 0.293 7.37 2.02 11.71
2/22/2023 4:45:00 AM 6 42.8 0.293 7.37 1.84 11.75
2/22/2023 5:00:00 AM 5.93 42.674 0.293 7.37 1.68 11.79
2/22/2023 5:15:00 AM 5.86 42.548 0.293 7.37 1.98 11.82
2/22/2023 5:30:00 AM 5.79 42.422 0.293 7.37 2.16 11.85
2/22/2023 5:45:00 AM 5.72 42.296 0.293 7.37 1.83 11.89
2/22/2023 6:00:00 AM 5.65 42.17 0.294 7.37 1.79 11.93
2/22/2023 6:15:00 AM 5.6 42.08 0.294 7.37 1.81 11.96
2/22/2023 6:30:00 AM 5.55 41.99 0.294 7.37 1.86 11.99
2/22/2023 6:45:00 AM 5.5 41.9 0.294 7.37 1.75 12.02
2/22/2023 7:00:00 AM 5.46 41.828 0.294 7.37 1.74 12.05
2/22/2023 7:15:00 AM 5.43 41.774 0.294 7.37 1.71 12.08
2/22/2023 7:30:00 AM 5.39 41.702 0.294 7.37 1.79 12.1
2/22/2023 7:45:00 AM 5.37 41.666 0.294 7.37 1.67 12.12
2/22/2023 8:00:00 AM 5.35 41.63 0.295 7.37 1.62 12.16
2/22/2023 8:15:00 AM 5.33 41.594 0.295 7.37 1.55 12.2
2/22/2023 8:30:00 AM 5.31 41.558 0.295 7.38 1.57 12.28
2/22/2023 8:45:00 AM 5.32 41.576 0.295 7.4 1.71 12.42
2/22/2023 9:00:00 AM 5.33 41.594 0.295 7.42 1.73 12.56
2/22/2023 9:15:00 AM 5.35 41.63 0.295 7.44 1.63 12.74
2/22/2023 9:30:00 AM 5.39 41.702 0.295 7.48 1.49 12.97
2/22/2023 9:45:00 AM 5.44 41.792 0.294 7.52 1.62 13.2
2/22/2023 10:00:00 AM 5.51 41.918 0.294 7.57 1.49 13.43
2/22/2023 10:15:00 AM 5.54 41.972 0.294 7.62 1.43 13.57
2/22/2023 10:30:00 AM 5.58 42.044 0.294 7.66 1.85 13.72
2/22/2023 10:45:00 AM 5.64 42.152 0.294 7.71 1.53 13.87
2/22/2023 11:00:00 AM 5.69 42.242 0.294 7.76 1.44 13.97
2/22/2023 11:15:00 AM 5.75 42.35 0.294 7.79 1.55 14.02
2/22/2023 11:30:00 AM 5.78 42.404 0.294 7.81 1.46 14.03
2/22/2023 11:45:00 AM 5.83 42.494 0.293 7.87 1.46 14.11
2/22/2023 12:00:00 PM 5.91 42.638 0.293 7.92 1.35 14.19
2/22/2023 12:15:00 PM 5.96 42.728 0.293 7.96 1.49 14.23
2/22/2023 12:30:00 PM 5.99 42.782 0.293 8 1.36 14.26
2/22/2023 12:45:00 PM 6.05 42.89 0.293 8.05 1.48 14.31
2/22/2023 1:00:00 PM 6.09 42.962 0.293 8.09 1.42 14.3
2/22/2023 1:15:00 PM 6.12 43.016 0.292 8.11 1.38 14.32
2/22/2023 1:30:00 PM 6.15 43.07 0.292 8.12 1.45 14.28
2/22/2023 1:45:00 PM 6.17 43.106 0.292 8.13 1.54 14.25
2/22/2023 2:00:00 PM 6.23 43.214 0.292 8.16 1.42 14.27
2/22/2023 2:15:00 PM 6.3 43.34 0.291 8.2 1.49 14.31
2/22/2023 2:30:00 PM 6.35 43.43 0.291 8.21 1.43 14.27
2/22/2023 2:45:00 PM 6.4 43.52 0.291 8.23 1.63 14.28
2/22/2023 3:00:00 PM 6.45 43.61 0.291 8.27 1.46 14.29
2/22/2023 3:15:00 PM 6.51 43.718 0.291 8.29 1.42 14.3
2/22/2023 3:30:00 PM 6.56 43.808 0.291 8.31 1.32 14.28
2/22/2023 3:45:00 PM 6.61 43.898 0.291 8.33 1.41 14.29
2/22/2023 4:00:00 PM 6.65 43.97 0.29 8.35 1.35 14.28
2/22/2023 4:15:00 PM 6.69 44.042 0.29 8.37 1.37 14.27
2/22/2023 4:30:00 PM 6.74 44.132 0.29 8.38 1.35 14.23
2/22/2023 4:45:00 PM 6.78 44.204 0.29 8.37 1.35 14.17
2/22/2023 5:00:00 PM 6.81 44.258 0.29 8.37 1.65 14.12
2/22/2023 5:15:00 PM 6.84 44.312 0.29 8.35 1.4 14.06
2/22/2023 5:30:00 PM 6.84 44.312 0.29 8.3 1.37 13.93
2/22/2023 5:45:00 PM 6.85 44.33 0.29 8.25 1.35 13.83
2/22/2023 6:00:00 PM 6.86 44.348 0.29 8.18 1.42 13.68
2/22/2023 6:15:00 PM 6.87 44.366 0.29 8.09 1.5 13.49
2/22/2023 6:30:00 PM 6.87 44.366 0.29 7.99 1.41 13.29
2/22/2023 6:45:00 PM 6.86 44.348 0.291 7.9 1.42 13.09
2/22/2023 7:00:00 PM 6.85 44.33 0.291 7.82 1.41 12.89
2/22/2023 7:15:00 PM 6.83 44.294 0.291 7.75 1.44 12.71
2/22/2023 7:30:00 PM 6.81 44.258 0.291 7.69 1.5 12.54
2/22/2023 7:45:00 PM 6.8 44.24 0.291 7.64 1.72 12.39
2/22/2023 8:00:00 PM 6.79 44.222 0.291 7.6 1.5 12.26
2/22/2023 8:15:00 PM 6.79 44.222 0.291 7.57 1.44 12.15
2/22/2023 8:30:00 PM 6.76 44.168 0.291 7.54 1.44 12.04
2/22/2023 8:45:00 PM 6.73 44.114 0.291 7.51 1.55 11.96
2/22/2023 9:00:00 PM 6.7 44.06 0.291 7.49 1.51 11.92
2/22/2023 9:15:00 PM 6.69 44.042 0.291 7.48 1.76 11.88
2/22/2023 9:30:00 PM 6.67 44.006 0.291 7.46 1.58 11.82
2/22/2023 9:45:00 PM 6.66 43.988 0.291 7.45 1.62 11.8
2/22/2023 10:00:00 PM 6.63 43.934 0.291 7.44 1.87 11.77
2/22/2023 10:15:00 PM 6.6 43.88 0.291 7.44 1.66 11.78
2/22/2023 10:30:00 PM 6.6 43.88 0.291 7.43 1.54 11.78
2/22/2023 10:45:00 PM 6.58 43.844 0.291 7.42 1.61 11.77
2/22/2023 11:00:00 PM 6.57 43.826 0.291 7.42 1.94 11.77
2/22/2023 11:15:00 PM 6.56 43.808 0.291 7.41 1.67 11.77
2/22/2023 11:30:00 PM 6.56 43.808 0.291 7.41 1.48 11.76
2/22/2023 11:45:00 PM 6.56 43.808 0.291 7.4 1.57 11.75
2/23/2023 12:00:00 AM 6.54 43.772 0.291 7.4 1.83 11.74
2/23/2023 12:15:00 AM 6.54 43.772 0.291 7.4 1.6 11.74
2/23/2023 12:30:00 AM 6.54 43.772 0.291 7.4 1.66 11.74
2/23/2023 12:45:00 AM 6.54 43.772 0.291 7.39 1.42 11.74
2/23/2023 1:00:00 AM 6.53 43.754 0.291 7.39 1.52 11.74
2/23/2023 1:15:00 AM 6.53 43.754 0.291 7.39 1.57 11.74
2/23/2023 1:30:00 AM 6.53 43.754 0.291 7.39 1.5 11.74
2/23/2023 1:45:00 AM 6.53 43.754 0.291 7.39 1.6 11.74
2/23/2023 2:00:00 AM 6.53 43.754 0.291 7.39 1.66 11.74
2/23/2023 2:15:00 AM 6.53 43.754 0.291 7.38 1.6 11.73
2/23/2023 2:30:00 AM 6.53 43.754 0.291 7.38 1.51 11.73
2/23/2023 2:45:00 AM 6.53 43.754 0.291 7.38 1.71 11.72
2/23/2023 3:00:00 AM 6.52 43.736 0.291 7.38 1.71 11.73
2/23/2023 3:15:00 AM 6.53 43.754 0.291 7.38 1.66 11.73
2/23/2023 3:30:00 AM 6.53 43.754 0.291 7.38 1.63 11.71
2/23/2023 3:45:00 AM 6.52 43.736 0.291 7.38 1.58 11.71
2/23/2023 4:00:00 AM 6.52 43.736 0.291 7.38 1.5 11.72
2/23/2023 4:15:00 AM 6.52 43.736 0.291 7.38 1.62 11.7
2/23/2023 4:30:00 AM 6.53 43.754 0.291 7.38 1.71 11.69
2/23/2023 4:45:00 AM 6.52 43.736 0.291 7.38 1.66 11.71
2/23/2023 5:00:00 AM 6.52 43.736 0.292 7.38 1.65 11.71
2/23/2023 5:15:00 AM 6.52 43.736 0.292 7.38 1.75 11.71
2/23/2023 5:30:00 AM 6.52 43.736 0.292 7.38 1.64 11.71
2/23/2023 5:45:00 AM 6.52 43.736 0.292 7.38 1.75 11.71
2/23/2023 6:00:00 AM 6.52 43.736 0.292 7.38 1.64 11.71
2/23/2023 6:15:00 AM 6.53 43.754 0.292 7.38 1.77 11.71
2/23/2023 6:30:00 AM 6.53 43.754 0.292 7.38 1.55 11.72
2/23/2023 6:45:00 AM 6.53 43.754 0.292 7.38 1.57 11.71
2/23/2023 7:00:00 AM 6.52 43.736 0.292 7.38 1.69 11.7
2/23/2023 7:15:00 AM 6.5 43.7 0.292 7.38 1.57 11.69
2/23/2023 7:30:00 AM 6.48 43.664 0.293 7.38 1.59 11.72
2/23/2023 7:45:00 AM 6.48 43.664 0.293 7.38 1.67 11.72
2/23/2023 8:00:00 AM 6.47 43.646 0.293 7.39 1.51 11.75
2/23/2023 8:15:00 AM 6.45 43.61 0.293 7.4 1.52 11.82
2/23/2023 8:30:00 AM 6.45 43.61 0.293 7.41 1.58 11.94
2/23/2023 8:45:00 AM 6.45 43.61 0.293 7.44 1.59 12.1
2/23/2023 9:00:00 AM 6.45 43.61 0.293 7.46 1.52 12.28
2/23/2023 9:15:00 AM 6.47 43.646 0.293 7.49 1.48 12.47
2/23/2023 9:30:00 AM 6.5 43.7 0.293 7.54 1.42 12.68
2/23/2023 9:45:00 AM 6.53 43.754 0.292 7.58 1.43 12.89
2/23/2023 10:00:00 AM 6.58 43.844 0.292 7.64 1.43 13.12
2/23/2023 10:15:00 AM 6.65 43.97 0.292 7.69 1.5 13.32
2/23/2023 10:30:00 AM 6.77 44.186 0.292 7.76 1.49 13.51
2/23/2023 10:45:00 AM 6.89 44.402 0.291 7.83 1.48 13.67
2/23/2023 11:00:00 AM 7.09 44.762 0.291 7.92 1.62 13.81
2/23/2023 11:15:00 AM 7.21 44.978 0.291 8.01 1.5 13.94
2/23/2023 11:30:00 AM 7.34 45.212 0.291 8.09 1.38 14.05
2/23/2023 11:45:00 AM 7.63 45.734 0.29 8.19 1.36 14.14
2/23/2023 12:00:00 PM 7.95 46.31 0.29 8.28 1.41 14.19
2/23/2023 12:15:00 PM 8.26 46.868 0.29 8.35 1.5 14.18
2/23/2023 12:30:00 PM 8.51 47.318 0.29 8.41 1.43 14.15
2/23/2023 12:45:00 PM 8.72 47.696 0.289 8.46 1.43 14.12
2/23/2023 1:00:00 PM 8.96 48.128 0.289 8.51 1.31 14.08
2/23/2023 1:15:00 PM 9.22 48.596 0.289 8.56 1.6 14.04
2/23/2023 1:30:00 PM 9.52 49.136 0.289 8.61 1.39 14.03
2/23/2023 1:45:00 PM 9.82 49.676 0.288 8.65 1.53 14.01
2/23/2023 2:00:00 PM 10.11 50.198 0.288 8.69 1.42 13.98
2/23/2023 2:15:00 PM 10.39 50.702 0.288 8.72 1.33 13.99
2/23/2023 2:30:00 PM 10.66 51.188 0.288 8.75 1.64 13.97
2/23/2023 2:45:00 PM 10.94 51.692 0.288 8.78 1.55 13.97
2/23/2023 3:00:00 PM 11.22 52.196 0.287 8.8 1.54 13.94
2/23/2023 3:15:00 PM 11.47 52.646 0.287 8.83 1.58 13.88
2/23/2023 3:30:00 PM 11.69 53.042 0.287 8.85 1.45 13.76
2/23/2023 3:45:00 PM 11.9 53.42 0.287 8.86 1.3 13.6
2/23/2023 4:00:00 PM 12.08 53.744 0.287 8.88 1.48 13.44
2/23/2023 4:15:00 PM 12.25 54.05 0.287 8.88 1.35 13.31
2/23/2023 4:30:00 PM 12.38 54.284 0.287 8.88 1.38 13.17
2/23/2023 4:45:00 PM 12.49 54.482 0.287 8.87 1.41 13
2/23/2023 5:00:00 PM 12.56 54.608 0.287 8.85 1.42 12.87
2/23/2023 5:15:00 PM 12.62 54.716 0.287 8.82 1.41 12.69
2/23/2023 5:30:00 PM 12.67 54.806 0.287 8.79 1.37 12.57
2/23/2023 5:45:00 PM 12.68 54.824 0.287 8.74 1.36 12.44
2/23/2023 6:00:00 PM 12.66 54.788 0.287 8.69 1.36 12.26
2/23/2023 6:15:00 PM 12.61 54.698 0.288 8.61 1.42 12.12
2/23/2023 6:30:00 PM 12.53 54.554 0.288 8.52 1.41 11.9
2/23/2023 6:45:00 PM 12.43 54.374 0.288 8.39 1.41 11.74
2/23/2023 7:00:00 PM 12.31 54.158 0.289 8.24 1.36 11.52
2/23/2023 7:15:00 PM 12.18 53.924 0.289 8.09 1.36 11.32
2/23/2023 7:30:00 PM 12.03 53.654 0.289 7.95 1.48 11.13
2/23/2023 7:45:00 PM 11.85 53.33 0.289 7.84 1.52 10.92
2/23/2023 8:00:00 PM 11.68 53.024 0.29 7.75 1.52 10.78
2/23/2023 8:15:00 PM 11.51 52.718 0.29 7.67 1.79 10.65
2/23/2023 8:30:00 PM 11.34 52.412 0.29 7.62 1.49 10.54
2/23/2023 8:45:00 PM 11.18 52.124 0.29 7.57 1.55 10.46
2/23/2023 9:00:00 PM 11.02 51.836 0.29 7.53 1.74 10.4
2/23/2023 9:15:00 PM 10.85 51.53 0.29 7.5 1.78 10.36
2/23/2023 9:30:00 PM 10.7 51.26 0.291 7.48 1.67 10.35
2/23/2023 9:45:00 PM 10.56 51.008 0.291 7.46 1.84 10.36
2/23/2023 10:00:00 PM 10.44 50.792 0.291 7.45 1.79 10.38
2/23/2023 10:15:00 PM 10.33 50.594 0.291 7.43 2 10.39
2/23/2023 10:30:00 PM 10.22 50.396 0.291 7.42 1.71 10.42
2/23/2023 10:45:00 PM 10.12 50.216 0.291 7.42 1.65 10.46
2/23/2023 11:00:00 PM 10.02 50.036 0.291 7.41 1.69 10.48
2/23/2023 11:15:00 PM 9.93 49.874 0.291 7.4 1.7 10.52
2/23/2023 11:30:00 PM 9.84 49.712 0.291 7.4 1.7 10.52
2/23/2023 11:45:00 PM 9.76 49.568 0.291 7.4 1.78 10.57
2/24/2023 12:00:00 AM 9.69 49.442 0.291 7.39 1.65 10.59
2/24/2023 12:15:00 AM 9.62 49.316 0.291 7.39 1.69 10.62
2/24/2023 12:30:00 AM 9.57 49.226 0.291 7.39 1.75 10.6
2/24/2023 12:45:00 AM 9.53 49.154 0.291 7.39 1.66 10.66
2/24/2023 1:00:00 AM 9.49 49.082 0.291 7.38 1.77 10.67
2/24/2023 1:15:00 AM 9.44 48.992 0.291 7.38 1.77 10.69
2/24/2023 1:30:00 AM 9.4 48.92 0.291 7.38 1.72 10.69
2/24/2023 1:45:00 AM 9.35 48.83 0.291 7.38 1.69 10.73
2/24/2023 2:00:00 AM 9.31 48.758 0.291 7.38 1.78 10.74
2/24/2023 2:15:00 AM 9.26 48.668 0.291 7.38 1.76 10.74
2/24/2023 2:30:00 AM 9.22 48.596 0.291 7.38 1.76 10.75
2/24/2023 2:45:00 AM 9.17 48.506 0.291 7.38 1.75 10.8
2/24/2023 3:00:00 AM 9.12 48.416 0.291 7.38 1.76 10.8
2/24/2023 3:15:00 AM 9.08 48.344 0.291 7.37 1.77 10.8
2/24/2023 3:30:00 AM 9.06 48.308 0.291 7.37 1.77 10.82
2/24/2023 3:45:00 AM 9.03 48.254 0.292 7.37 1.76 10.81
2/24/2023 4:00:00 AM 9.01 48.218 0.292 7.37 1.82 10.84
2/24/2023 4:15:00 AM 8.98 48.164 0.292 7.37 1.99 10.84
2/24/2023 4:30:00 AM 8.93 48.074 0.292 7.37 1.87 10.84
2/24/2023 4:45:00 AM 8.91 48.038 0.292 7.37 1.8 10.82
2/24/2023 5:00:00 AM 8.87 47.966 0.292 7.37 1.82 10.84
2/24/2023 5:15:00 AM 8.87 47.966 0.292 7.37 1.89 10.84
2/24/2023 5:30:00 AM 8.83 47.894 0.292 7.36 1.95 10.84
2/24/2023 5:45:00 AM 8.8 47.84 0.292 7.37 2 10.88
2/24/2023 6:00:00 AM 8.78 47.804 0.292 7.37 1.88 10.88
2/24/2023 6:15:00 AM 8.75 47.75 0.292 7.38 2.03 10.87
2/24/2023 6:30:00 AM 8.69 47.642 0.292 7.38 1.82 10.88
2/24/2023 6:45:00 AM 8.62 47.516 0.293 7.38 1.84 10.9
2/24/2023 7:00:00 AM 8.57 47.426 0.293 7.38 1.75 10.92
2/24/2023 7:15:00 AM 8.5 47.3 0.293 7.37 1.95 10.93
2/24/2023 7:30:00 AM 8.43 47.174 0.293 7.39 1.72 10.95
2/24/2023 7:45:00 AM 8.35 47.03 0.293 7.39 1.63 10.98
2/24/2023 8:00:00 AM 8.28 46.904 0.293 7.39 1.79 11.02
2/24/2023 8:15:00 AM 8.19 46.742 0.293 7.41 1.76 11.11
2/24/2023 8:30:00 AM 8.08 46.544 0.293 7.42 1.72 11.23
2/24/2023 8:45:00 AM 8.02 46.436 0.293 7.44 1.7 11.37
2/24/2023 9:00:00 AM 7.96 46.328 0.293 7.46 1.62 11.53
2/24/2023 9:15:00 AM 7.92 46.256 0.293 7.5 1.6 11.75
2/24/2023 9:30:00 AM 7.87 46.166 0.293 7.53 1.65 11.97
2/24/2023 9:45:00 AM 7.83 46.094 0.293 7.58 1.49 12.25
2/24/2023 10:00:00 AM 7.82 46.076 0.293 7.64 1.54 12.53
2/24/2023 10:15:00 AM 7.84 46.112 0.293 7.7 1.53 12.77
2/24/2023 10:30:00 AM 7.88 46.184 0.292 7.77 1.61 13
2/24/2023 10:45:00 AM 7.93 46.274 0.292 7.86 1.64 13.21
2/24/2023 11:00:00 AM 8.06 46.508 0.292 7.95 1.53 13.41
2/24/2023 11:15:00 AM 8.23 46.814 0.291 8.05 1.7 13.57
2/24/2023 11:30:00 AM 8.41 47.138 0.291 8.15 1.52 13.69
2/24/2023 11:45:00 AM 8.59 47.462 0.291 8.26 1.46 13.82
2/24/2023 12:00:00 PM 8.75 47.75 0.291 8.35 1.48 13.88
2/24/2023 12:15:00 PM 8.89 48.002 0.291 8.42 1.51 13.92
2/24/2023 12:30:00 PM 9.06 48.308 0.29 8.5 1.53 13.97
2/24/2023 12:45:00 PM 9.21 48.578 0.29 8.56 1.52 14
2/24/2023 1:00:00 PM 9.38 48.884 0.29 8.62 1.6 14.01
2/24/2023 1:15:00 PM 9.55 49.19 0.29 8.67 1.45 14.04
2/24/2023 1:30:00 PM 9.75 49.55 0.29 8.72 1.56 14.09
2/24/2023 1:45:00 PM 9.95 49.91 0.29 8.77 1.43 14.13
2/24/2023 2:00:00 PM 10.07 50.126 0.29 8.8 1.45 14.08
2/24/2023 2:15:00 PM 10.25 50.45 0.289 8.83 1.52 14.09
2/24/2023 2:30:00 PM 10.38 50.684 0.289 8.86 1.95 14.12
2/24/2023 2:45:00 PM 10.48 50.864 0.289 8.88 1.52 14.06
2/24/2023 3:00:00 PM 10.62 51.116 0.289 8.91 1.48 14.07
2/24/2023 3:15:00 PM 10.69 51.242 0.289 8.92 1.52 14.02
2/24/2023 3:30:00 PM 10.73 51.314 0.289 8.94 1.85 13.97
2/24/2023 3:45:00 PM 10.82 51.476 0.289 8.95 1.52 13.93
2/24/2023 4:00:00 PM 10.9 51.62 0.289 8.96 1.44 13.87
2/24/2023 4:15:00 PM 10.91 51.638 0.289 8.96 2.09 13.83
2/24/2023 4:30:00 PM 10.9 51.62 0.289 8.96 1.45 13.7
2/24/2023 4:45:00 PM 10.87 51.566 0.289 8.96 1.47 13.62
2/24/2023 5:00:00 PM 10.79 51.422 0.289 8.94 1.46 13.49
2/24/2023 5:15:00 PM 10.74 51.332 0.289 8.91 1.43 13.35
2/24/2023 5:30:00 PM 10.66 51.188 0.289 8.88 1.43 13.24
2/24/2023 5:45:00 PM 10.57 51.026 0.289 8.84 1.53 13.13
2/24/2023 6:00:00 PM 10.43 50.774 0.289 8.79 1.43 13.02
2/24/2023 6:15:00 PM 10.29 50.522 0.29 8.73 1.56 12.87
2/24/2023 6:30:00 PM 10.15 50.27 0.29 8.64 1.59 12.71
2/24/2023 6:45:00 PM 10 50 0.29 8.53 1.63 12.53
2/24/2023 7:00:00 PM 9.82 49.676 0.291 8.39 1.51 12.36
2/24/2023 7:15:00 PM 9.63 49.334 0.291 8.23 1.91 12.19
2/24/2023 7:30:00 PM 9.42 48.956 0.291 8.08 1.49 12.03
2/24/2023 7:45:00 PM 9.23 48.614 0.292 7.94 1.53 11.88
2/24/2023 8:00:00 PM 9.02 48.236 0.292 7.83 1.58 11.71
2/24/2023 8:15:00 PM 8.8 47.84 0.292 7.74 1.63 11.6
2/24/2023 8:30:00 PM 8.59 47.462 0.292 7.67 2.08 11.5
2/24/2023 8:45:00 PM 8.4 47.12 0.293 7.62 1.86 11.43
2/24/2023 9:00:00 PM 8.21 46.778 0.293 7.58 1.88 11.39
2/24/2023 9:15:00 PM 8.03 46.454 0.293 7.55 1.72 11.36
2/24/2023 9:30:00 PM 7.86 46.148 0.293 7.52 1.65 11.34
2/24/2023 9:45:00 PM 7.72 45.896 0.293 7.5 1.63 11.39
2/24/2023 10:00:00 PM 7.59 45.662 0.293 7.48 2.08 11.41
2/24/2023 10:15:00 PM 7.46 45.428 0.293 7.46 2.5 11.41
2/24/2023 10:30:00 PM 7.34 45.212 0.293 7.45 1.66 11.48
2/24/2023 10:45:00 PM 7.23 45.014 0.293 7.44 2.01 11.5
2/24/2023 11:00:00 PM 7.12 44.816 0.293 7.43 1.78 11.54
2/24/2023 11:15:00 PM 7.01 44.618 0.293 7.42 1.84 11.55
2/24/2023 11:30:00 PM 6.91 44.438 0.293 7.42 1.93 11.63
2/24/2023 11:45:00 PM 6.81 44.258 0.293 7.41 1.93 11.67
2/25/2023 12:00:00 AM 6.71 44.078 0.293 7.41 1.8 11.69
2/25/2023 12:15:00 AM 6.62 43.916 0.293 7.4 1.9 11.75
2/25/2023 12:30:00 AM 6.54 43.772 0.293 7.4 1.76 11.79
2/25/2023 12:45:00 AM 6.45 43.61 0.293 7.4 1.87 11.82
2/25/2023 1:00:00 AM 6.36 43.448 0.293 7.39 1.92 11.86
2/25/2023 1:15:00 AM 6.27 43.286 0.293 7.39 1.98 11.89
2/25/2023 1:30:00 AM 6.19 43.142 0.293 7.39 1.88 11.91
2/25/2023 1:45:00 AM 6.11 42.998 0.293 7.39 1.8 11.93
2/25/2023 2:00:00 AM 6.03 42.854 0.293 7.38 1.81 11.96
2/25/2023 2:15:00 AM 5.94 42.692 0.293 7.38 1.78 12
2/25/2023 2:30:00 AM 5.85 42.53 0.293 7.38 1.9 12.02
2/25/2023 2:45:00 AM 5.79 42.422 0.293 7.38 2.38 12.03
2/25/2023 3:00:00 AM 5.71 42.278 0.293 7.38 1.89 12.06
2/25/2023 3:15:00 AM 5.62 42.116 0.293 7.38 1.75 12.09
2/25/2023 3:30:00 AM 5.55 41.99 0.293 7.37 1.8 12.11
2/25/2023 3:45:00 AM 5.48 41.864 0.294 7.37 1.74 12.14
2/25/2023 4:00:00 AM 5.42 41.756 0.294 7.37 1.74 12.13
2/25/2023 4:15:00 AM 5.37 41.666 0.294 7.37 1.68 12.16
2/25/2023 4:30:00 AM 5.31 41.558 0.294 7.37 1.69 12.18
2/25/2023 4:45:00 AM 5.25 41.45 0.294 7.37 2.21 12.18
2/25/2023 5:00:00 AM 5.21 41.378 0.294 7.37 1.96 12.21
2/25/2023 5:15:00 AM 5.16 41.288 0.294 7.37 1.8 12.23
2/25/2023 5:30:00 AM 5.12 41.216 0.294 7.37 1.81 12.26
2/25/2023 5:45:00 AM 5.06 41.108 0.294 7.37 1.89 12.26
2/25/2023 6:00:00 AM 5 41 0.295 7.37 1.95 12.25
2/25/2023 6:15:00 AM 4.97 40.946 0.295 7.37 4.87 12.27
2/25/2023 6:30:00 AM 4.93 40.874 0.295 7.37 1.92 12.3
2/25/2023 6:45:00 AM 4.88 40.784 0.295 7.37 1.79 12.32
2/25/2023 7:00:00 AM 4.84 40.712 0.295 7.37 1.78 12.32
2/25/2023 7:15:00 AM 4.79 40.622 0.295 7.37 1.92 12.34
2/25/2023 7:30:00 AM 4.75 40.55 0.295 7.37 1.87 12.34
2/25/2023 7:45:00 AM 4.71 40.478 0.295 7.36 1.89 12.39
2/25/2023 8:00:00 AM 4.66 40.388 0.295 7.38 1.87 12.43
2/25/2023 8:15:00 AM 4.62 40.316 0.295 7.39 1.86 12.48
2/25/2023 8:30:00 AM 4.59 40.262 0.295 7.4 1.75 12.61
2/25/2023 8:45:00 AM 4.57 40.226 0.296 7.42 1.71 12.69
2/25/2023 9:00:00 AM 4.55 40.19 0.295 7.44 1.67 12.9
2/25/2023 9:15:00 AM 4.54 40.172 0.295 7.47 1.66 13.07
2/25/2023 9:30:00 AM 4.55 40.19 0.295 7.51 1.56 13.31
2/25/2023 9:45:00 AM 4.51 40.118 0.295 7.55 1.57 13.51
2/25/2023 10:00:00 AM 4.54 40.172 0.295 7.59 1.49 13.72
2/25/2023 10:15:00 AM 4.58 40.244 0.295 7.65 1.53 13.97
2/25/2023 10:30:00 AM 4.63 40.334 0.295 7.72 1.55 14.18
2/25/2023 10:45:00 AM 4.74 40.532 0.294 7.79 1.57 14.42
2/25/2023 11:00:00 AM 4.79 40.622 0.294 7.87 1.52 14.58
2/25/2023 11:15:00 AM 4.85 40.73 0.294 7.95 1.6 14.71
2/25/2023 11:30:00 AM 4.89 40.802 0.294 8.04 1.53 14.84
2/25/2023 11:45:00 AM 5.01 41.018 0.293 8.12 1.56 14.89
2/25/2023 12:00:00 PM 5.05 41.09 0.293 8.19 1.49 14.98
2/25/2023 12:15:00 PM 5.07 41.126 0.293 8.24 1.5 14.93
2/25/2023 12:30:00 PM 5.09 41.162 0.293 8.28 1.43 14.96
2/25/2023 12:45:00 PM 5.11 41.198 0.293 8.31 1.4 14.94
2/25/2023 1:00:00 PM 5.12 41.216 0.293 8.33 1.46 14.89
2/25/2023 1:15:00 PM 5.13 41.234 0.293 8.34 1.51 14.85
2/25/2023 1:30:00 PM 5.12 41.216 0.293 8.33 1.5 14.79
2/25/2023 1:45:00 PM 5.11 41.198 0.293 8.32 1.44 14.73
2/25/2023 2:00:00 PM 5.09 41.162 0.293 8.32 1.45 14.69
2/25/2023 2:15:00 PM 5.05 41.09 0.293 8.32 1.56 14.68
2/25/2023 2:30:00 PM 5.01 41.018 0.293 8.31 1.44 14.59
2/25/2023 2:45:00 PM 4.99 40.982 0.293 8.31 1.46 14.64
2/25/2023 3:00:00 PM 4.97 40.946 0.293 8.31 1.52 14.63
2/25/2023 3:15:00 PM 4.95 40.91 0.293 8.33 1.46 14.69
2/25/2023 3:30:00 PM 4.96 40.928 0.293 8.36 1.49 14.74
2/25/2023 3:45:00 PM 5 41 0.293 8.4 1.4 14.8
2/25/2023 4:00:00 PM 5.05 41.09 0.293 8.44 1.39 14.84
2/25/2023 4:15:00 PM 5.09 41.162 0.293 8.48 1.48 14.91
2/25/2023 4:30:00 PM 5.15 41.27 0.292 8.52 1.43 14.94
2/25/2023 4:45:00 PM 5.18 41.324 0.292 8.55 1.44 14.96
2/25/2023 5:00:00 PM 5.2 41.36 0.292 8.58 1.43 14.97
2/25/2023 5:15:00 PM 5.26 41.468 0.292 8.6 1.36 14.97
2/25/2023 5:30:00 PM 5.28 41.504 0.292 8.61 1.44 14.95
2/25/2023 5:45:00 PM 5.3 41.54 0.292 8.63 1.4 14.94
2/25/2023 6:00:00 PM 5.31 41.558 0.292 8.6 1.51 14.81
2/25/2023 6:15:00 PM 5.31 41.558 0.292 8.55 1.49 14.63
2/25/2023 6:30:00 PM 5.3 41.54 0.292 8.48 1.47 14.46
2/25/2023 6:45:00 PM 5.27 41.486 0.293 8.36 1.38 14.22
2/25/2023 7:00:00 PM 5.25 41.45 0.293 8.22 1.54 13.98
2/25/2023 7:15:00 PM 5.21 41.378 0.293 8.07 1.51 13.74
2/25/2023 7:30:00 PM 5.17 41.306 0.294 7.94 1.53 13.52
2/25/2023 7:45:00 PM 5.12 41.216 0.294 7.83 1.52 13.32
2/25/2023 8:00:00 PM 5.07 41.126 0.294 7.75 1.49 13.15
2/25/2023 8:15:00 PM 5.03 41.054 0.294 7.69 1.55 12.99
2/25/2023 8:30:00 PM 4.98 40.964 0.294 7.63 1.5 12.84
2/25/2023 8:45:00 PM 4.94 40.892 0.295 7.59 1.58 12.74
2/25/2023 9:00:00 PM 4.9 40.82 0.295 7.55 1.6 12.64
2/25/2023 9:15:00 PM 4.86 40.748 0.295 7.53 2.4 12.58
2/25/2023 9:30:00 PM 4.82 40.676 0.295 7.5 1.78 12.52
2/25/2023 9:45:00 PM 4.78 40.604 0.295 7.48 2.24 12.5
2/25/2023 10:00:00 PM 4.72 40.496 0.295 7.47 1.91 12.46
2/25/2023 10:15:00 PM 4.69 40.442 0.295 7.46 1.6 12.46
2/25/2023 10:30:00 PM 4.66 40.388 0.294 7.45 1.73 12.45
2/25/2023 10:45:00 PM 4.63 40.334 0.294 7.44 1.6 12.44
2/25/2023 11:00:00 PM 4.6 40.28 0.294 7.43 1.63 12.44
2/25/2023 11:15:00 PM 4.57 40.226 0.294 7.43 1.61 12.43
2/25/2023 11:30:00 PM 4.53 40.154 0.294 7.42 1.59 12.43
2/25/2023 11:45:00 PM 4.5 40.1 0.294 7.42 1.64 12.42
2/26/2023 12:00:00 AM 4.48 40.064 0.294 7.41 1.58 12.43
2/26/2023 12:15:00 AM 4.46 40.028 0.294 7.41 1.55 12.44
2/26/2023 12:30:00 AM 4.44 39.992 0.294 7.4 1.6 12.44
2/26/2023 12:45:00 AM 4.42 39.956 0.294 7.4 1.57 12.44
2/26/2023 1:00:00 AM 4.41 39.938 0.294 7.4 1.49 12.45
2/26/2023 1:15:00 AM 4.39 39.902 0.294 7.39 1.68 12.44
2/26/2023 1:30:00 AM 4.38 39.884 0.294 7.39 5.46 12.43
2/26/2023 1:45:00 AM 4.36 39.848 0.294 7.39 1.6 12.46
2/26/2023 2:00:00 AM 4.35 39.83 0.294 7.39 1.59 12.45
2/26/2023 2:15:00 AM 4.34 39.812 0.294 7.39 1.51 12.46
2/26/2023 2:30:00 AM 4.32 39.776 0.294 7.39 1.54 12.46
2/26/2023 2:45:00 AM 4.3 39.74 0.294 7.39 1.79 12.44
2/26/2023 3:00:00 AM 4.28 39.704 0.294 7.38 1.6 12.47
2/26/2023 3:15:00 AM 4.27 39.686 0.294 7.38 1.61 12.48
2/26/2023 3:30:00 AM 4.26 39.668 0.294 7.38 1.77 12.45
2/26/2023 3:45:00 AM 4.24 39.632 0.294 7.38 1.73 12.48
2/26/2023 4:00:00 AM 4.22 39.596 0.294 7.38 1.69 12.47
2/26/2023 4:15:00 AM 4.2 39.56 0.294 7.38 1.76 12.48
2/26/2023 4:30:00 AM 4.19 39.542 0.295 7.38 1.75 12.5
2/26/2023 4:45:00 AM 4.18 39.524 0.295 7.38 1.82 12.5
2/26/2023 5:00:00 AM 4.17 39.506 0.295 7.38 1.77 12.5
2/26/2023 5:15:00 AM 4.15 39.47 0.295 7.38 1.77 12.52
2/26/2023 5:30:00 AM 4.14 39.452 0.295 7.38 1.83 12.52
2/26/2023 5:45:00 AM 4.14 39.452 0.295 7.38 1.7 12.52
2/26/2023 6:00:00 AM 4.14 39.452 0.295 7.38 1.75 12.53
2/26/2023 6:15:00 AM 4.13 39.434 0.295 7.37 2.35 12.54
2/26/2023 6:30:00 AM 4.13 39.434 0.295 7.38 1.7 12.53
2/26/2023 6:45:00 AM 4.13 39.434 0.295 7.38 1.67 12.54
2/26/2023 7:00:00 AM 4.12 39.416 0.295 7.38 1.7 12.54
2/26/2023 7:15:00 AM 4.12 39.416 0.295 7.38 1.72 12.54
2/26/2023 7:30:00 AM 4.12 39.416 0.295 7.38 1.84 12.52
2/26/2023 7:45:00 AM 4.11 39.398 0.295 7.38 1.66 12.56
2/26/2023 8:00:00 AM 4.11 39.398 0.295 7.39 1.62 12.57
2/26/2023 8:15:00 AM 4.12 39.416 0.295 7.39 1.6 12.63
2/26/2023 8:30:00 AM 4.13 39.434 0.295 7.41 1.56 12.72
2/26/2023 8:45:00 AM 4.14 39.452 0.295 7.43 1.61 12.87
2/26/2023 9:00:00 AM 4.17 39.506 0.295 7.46 1.63 13.03
2/26/2023 9:15:00 AM 4.19 39.542 0.295 7.48 1.59 13.18
2/26/2023 9:30:00 AM 4.23 39.614 0.295 7.52 1.47 13.39
2/26/2023 9:45:00 AM 4.27 39.686 0.295 7.56 1.52 13.58
2/26/2023 10:00:00 AM 4.33 39.794 0.295 7.61 1.56 13.8
2/26/2023 10:15:00 AM 4.38 39.884 0.294 7.67 1.45 14.01
2/26/2023 10:30:00 AM 4.48 40.064 0.294 7.73 1.52 14.2
2/26/2023 10:45:00 AM 4.59 40.262 0.294 7.82 1.54 14.42
2/26/2023 11:00:00 AM 4.76 40.568 0.294 7.9 1.61 14.61
2/26/2023 11:15:00 AM 4.98 40.964 0.293 7.99 1.56 14.73
2/26/2023 11:30:00 AM 5.22 41.396 0.293 8.08 1.51 14.83
2/26/2023 11:45:00 AM 5.46 41.828 0.293 8.17 1.47 14.88
2/26/2023 12:00:00 PM 5.64 42.152 0.292 8.25 1.43 14.91
2/26/2023 12:15:00 PM 5.74 42.332 0.292 8.32 1.52 14.91
2/26/2023 12:30:00 PM 5.91 42.638 0.292 8.39 1.5 14.95
2/26/2023 12:45:00 PM 6.09 42.962 0.292 8.47 1.46 14.96
2/26/2023 1:00:00 PM 6.28 43.304 0.291 8.53 1.49 14.94
2/26/2023 1:15:00 PM 6.6 43.88 0.291 8.59 1.5 14.95
2/26/2023 1:30:00 PM 6.84 44.312 0.291 8.63 1.64 14.88
2/26/2023 1:45:00 PM 7.18 44.924 0.29 8.68 1.4 14.91
2/26/2023 2:00:00 PM 7.34 45.212 0.29 8.7 1.51 14.85
2/26/2023 2:15:00 PM 7.52 45.536 0.29 8.73 1.47 14.84
2/26/2023 2:30:00 PM 7.76 45.968 0.29 8.77 1.48 14.83
2/26/2023 2:45:00 PM 8.01 46.418 0.289 8.8 1.38 14.81
2/26/2023 3:00:00 PM 8.31 46.958 0.289 8.83 1.4 14.79
2/26/2023 3:15:00 PM 8.55 47.39 0.289 8.86 1.69 14.73
2/26/2023 3:30:00 PM 8.72 47.696 0.289 8.87 1.41 14.65
2/26/2023 3:45:00 PM 8.88 47.984 0.288 8.89 1.39 14.55
2/26/2023 4:00:00 PM 9.07 48.326 0.288 8.91 1.47 14.45
2/26/2023 4:15:00 PM 9.24 48.632 0.288 8.92 1.48 14.29
2/26/2023 4:30:00 PM 9.38 48.884 0.288 8.94 1.44 14.23
2/26/2023 4:45:00 PM 9.47 49.046 0.288 8.95 1.44 14.09
2/26/2023 5:00:00 PM 9.52 49.136 0.288 8.93 1.5 13.96
2/26/2023 5:15:00 PM 9.56 49.208 0.288 8.93 1.45 13.79
2/26/2023 5:30:00 PM 9.57 49.226 0.288 8.91 1.54 13.65
2/26/2023 5:45:00 PM 9.57 49.226 0.288 8.88 1.39 13.49
2/26/2023 6:00:00 PM 9.52 49.136 0.288 8.84 1.5 13.33
2/26/2023 6:15:00 PM 9.43 48.974 0.289 8.77 1.47 13.15
2/26/2023 6:30:00 PM 9.34 48.812 0.289 8.69 1.51 12.95
2/26/2023 6:45:00 PM 9.25 48.65 0.289 8.58 1.46 12.73
2/26/2023 7:00:00 PM 9.14 48.452 0.29 8.44 1.5 12.52
2/26/2023 7:15:00 PM 9.01 48.218 0.29 8.27 1.5 12.3
2/26/2023 7:30:00 PM 8.87 47.966 0.29 8.1 1.48 12.12
2/26/2023 7:45:00 PM 8.71 47.678 0.291 7.95 1.54 11.93
2/26/2023 8:00:00 PM 8.53 47.354 0.291 7.83 1.56 11.76
2/26/2023 8:15:00 PM 8.36 47.048 0.291 7.74 1.72 11.63
2/26/2023 8:30:00 PM 8.18 46.724 0.291 7.67 1.64 11.5
2/26/2023 8:45:00 PM 8 46.4 0.292 7.62 1.6 11.43
2/26/2023 9:00:00 PM 7.82 46.076 0.292 7.57 1.65 11.36
2/26/2023 9:15:00 PM 7.66 45.788 0.292 7.54 1.61 11.35
2/26/2023 9:30:00 PM 7.5 45.5 0.292 7.51 1.59 11.32
2/26/2023 9:45:00 PM 7.37 45.266 0.292 7.48 2.04 11.33
2/26/2023 10:00:00 PM 7.24 45.032 0.292 7.47 1.72 11.35
2/26/2023 10:15:00 PM 7.12 44.816 0.292 7.45 1.66 11.35
2/26/2023 10:30:00 PM 7.01 44.618 0.292 7.44 1.94 11.4
2/26/2023 10:45:00 PM 6.91 44.438 0.292 7.43 1.64 11.4
2/26/2023 11:00:00 PM 6.82 44.276 0.292 7.42 1.73 11.41
2/26/2023 11:15:00 PM 6.73 44.114 0.292 7.42 1.64 11.47
2/26/2023 11:30:00 PM 6.65 43.97 0.292 7.41 1.6 11.51
2/26/2023 11:45:00 PM 6.56 43.808 0.292 7.41 1.65 11.52
2/27/2023 12:00:00 AM 6.48 43.664 0.292 7.4 1.54 11.57
2/27/2023 12:15:00 AM 6.41 43.538 0.292 7.4 1.6 11.58
2/27/2023 12:30:00 AM 6.35 43.43 0.292 7.39 1.64 11.62
2/27/2023 12:45:00 AM 6.28 43.304 0.292 7.39 1.75 11.63
2/27/2023 1:00:00 AM 6.22 43.196 0.292 7.39 1.8 11.64
2/27/2023 1:15:00 AM 6.16 43.088 0.292 7.38 1.69 11.7
2/27/2023 1:30:00 AM 6.09 42.962 0.292 7.38 1.68 11.71
2/27/2023 1:45:00 AM 6.03 42.854 0.292 7.38 1.68 11.7
2/27/2023 2:00:00 AM 5.96 42.728 0.293 7.38 1.65 11.73
2/27/2023 2:15:00 AM 5.9 42.62 0.293 7.38 1.76 11.77
2/27/2023 2:30:00 AM 5.84 42.512 0.293 7.37 1.77 11.77
2/27/2023 2:45:00 AM 5.77 42.386 0.293 7.37 1.71 11.8
2/27/2023 3:00:00 AM 5.71 42.278 0.293 7.37 1.73 11.82
2/27/2023 3:15:00 AM 5.65 42.17 0.293 7.37 1.67 11.84
2/27/2023 3:30:00 AM 5.59 42.062 0.293 7.37 1.67 11.86
2/27/2023 3:45:00 AM 5.53 41.954 0.293 7.37 2.41 11.87
2/27/2023 4:00:00 AM 5.48 41.864 0.293 7.37 1.79 11.88
2/27/2023 4:15:00 AM 5.43 41.774 0.293 7.36 1.68 11.92
2/27/2023 4:30:00 AM 5.37 41.666 0.294 7.36 1.7 11.93
2/27/2023 4:45:00 AM 5.32 41.576 0.294 7.36 1.65 11.95
2/27/2023 5:00:00 AM 5.26 41.468 0.294 7.36 1.68 11.95
2/27/2023 5:15:00 AM 5.2 41.36 0.294 7.36 1.67 11.98
2/27/2023 5:30:00 AM 5.15 41.27 0.294 7.36 1.89 12
2/27/2023 5:45:00 AM 5.09 41.162 0.294 7.36 1.82 12.01
2/27/2023 6:00:00 AM 5.04 41.072 0.294 7.36 1.79 12.04
2/27/2023 6:15:00 AM 4.98 40.964 0.294 7.36 1.73 12.05
2/27/2023 6:30:00 AM 4.92 40.856 0.295 7.36 1.8 12.05
2/27/2023 6:45:00 AM 4.87 40.766 0.295 7.36 1.82 12.07
2/27/2023 7:00:00 AM 4.81 40.658 0.295 7.37 1.75 12.1
2/27/2023 7:15:00 AM 4.76 40.568 0.295 7.36 1.85 12.12
2/27/2023 7:30:00 AM 4.7 40.46 0.295 7.36 1.69 12.14
2/27/2023 7:45:00 AM 4.65 40.37 0.295 7.37 1.67 12.15
2/27/2023 8:00:00 AM 4.6 40.28 0.295 7.37 1.67 12.21
2/27/2023 8:15:00 AM 4.56 40.208 0.295 7.39 1.6 12.35
2/27/2023 8:30:00 AM 4.53 40.154 0.295 7.41 1.64 12.54
2/27/2023 8:45:00 AM 4.51 40.118 0.295 7.43 1.61 12.72
2/27/2023 9:00:00 AM 4.49 40.082 0.295 7.47 1.62 12.93
2/27/2023 9:15:00 AM 4.5 40.1 0.295 7.5 1.63 13.18
2/27/2023 9:30:00 AM 4.51 40.118 0.295 7.55 1.55 13.44
2/27/2023 9:45:00 AM 4.55 40.19 0.294 7.61 1.54 13.67
2/27/2023 10:00:00 AM 4.62 40.316 0.294 7.67 1.51 13.91
2/27/2023 10:15:00 AM 4.71 40.478 0.294 7.75 1.49 14.14
2/27/2023 10:30:00 AM 4.81 40.658 0.293 7.82 1.52 14.33
2/27/2023 10:45:00 AM 4.95 40.91 0.293 7.91 1.52 14.49
2/27/2023 11:00:00 AM 5.12 41.216 0.293 8.01 1.46 14.6
2/27/2023 11:15:00 AM 5.32 41.576 0.293 8.11 1.55 14.78
2/27/2023 11:30:00 AM 5.59 42.062 0.292 8.21 1.48 14.85
2/27/2023 11:45:00 AM 5.85 42.53 0.292 8.3 1.5 14.9
2/27/2023 12:00:00 PM 6.02 42.836 0.291 8.39 1.51 14.96
2/27/2023 12:15:00 PM 6.24 43.232 0.291 8.46 1.45 14.98
2/27/2023 12:30:00 PM 6.51 43.718 0.291 8.53 1.49 15.01
2/27/2023 12:45:00 PM 6.78 44.204 0.291 8.59 1.47 14.99
2/27/2023 1:00:00 PM 7.02 44.636 0.29 8.65 1.46 15.01
2/27/2023 1:15:00 PM 7.19 44.942 0.29 8.7 1.45 15.02
2/27/2023 1:30:00 PM 7.44 45.392 0.29 8.75 1.41 15.07
2/27/2023 1:45:00 PM 7.73 45.914 0.29 8.79 1.39 15.04
2/27/2023 2:00:00 PM 7.94 46.292 0.289 8.84 1.39 15.08
2/27/2023 2:15:00 PM 8.06 46.508 0.289 8.87 1.41 15.01
2/27/2023 2:30:00 PM 8.2 46.76 0.289 8.91 1.45 14.97
2/27/2023 2:45:00 PM 8.25 46.85 0.289 8.93 1.52 14.83
2/27/2023 3:00:00 PM 8.32 46.976 0.289 8.94 1.42 14.73
2/27/2023 3:15:00 PM 8.41 47.138 0.288 8.96 1.51 14.63
2/27/2023 3:30:00 PM 8.46 47.228 0.288 8.96 1.48 14.53
2/27/2023 3:45:00 PM 8.48 47.264 0.288 8.96 1.51 14.42
2/27/2023 4:00:00 PM 8.47 47.246 0.288 8.96 1.36 14.32
2/27/2023 4:15:00 PM 8.43 47.174 0.288 8.94 1.43 14.16
2/27/2023 4:30:00 PM 8.37 47.066 0.289 8.9 1.43 13.96
2/27/2023 4:45:00 PM 8.34 47.012 0.289 8.87 1.39 13.83
2/27/2023 5:00:00 PM 8.27 46.886 0.289 8.8 1.42 13.59
2/27/2023 5:15:00 PM 8.2 46.76 0.289 8.7 1.41 13.38
2/27/2023 5:30:00 PM 8.12 46.616 0.289 8.63 1.39 13.25
2/27/2023 5:45:00 PM 8.02 46.436 0.29 8.48 1.44 13.01
2/27/2023 6:00:00 PM 7.94 46.292 0.29 8.34 1.43 12.85
2/27/2023 6:15:00 PM 7.86 46.148 0.29 8.19 1.51 12.69
2/27/2023 6:30:00 PM 7.74 45.932 0.291 8.04 1.43 12.5
2/27/2023 6:45:00 PM 7.63 45.734 0.291 7.92 1.44 12.33
2/27/2023 7:00:00 PM 7.52 45.536 0.291 7.83 1.44 12.17
2/27/2023 7:15:00 PM 7.42 45.356 0.291 7.75 1.39 12.05
2/27/2023 7:30:00 PM 7.31 45.158 0.291 7.69 1.47 11.93
2/27/2023 7:45:00 PM 7.2 44.96 0.291 7.64 1.45 11.84
2/27/2023 8:00:00 PM 7.1 44.78 0.29 7.6 1.78 11.79
2/27/2023 8:15:00 PM 7 44.6 0.29 7.57 1.68 11.74
2/27/2023 8:30:00 PM 6.83 44.294 0.289 7.54 2.17 11.67
2/27/2023 8:45:00 PM 6.73 44.114 0.289 7.52 1.9 11.66
2/27/2023 9:00:00 PM 6.65 43.97 0.288 7.49 1.89 11.65
2/27/2023 9:15:00 PM 6.56 43.808 0.288 7.48 1.78 11.64
2/27/2023 9:30:00 PM 6.49 43.682 0.288 7.46 2.56 11.64
2/27/2023 9:45:00 PM 6.44 43.592 0.288 7.45 1.82 11.64
2/27/2023 10:00:00 PM 6.4 43.52 0.287 7.44 1.74 11.63
2/27/2023 10:15:00 PM 6.36 43.448 0.287 7.43 1.68 11.63
2/27/2023 10:30:00 PM 6.32 43.376 0.287 7.42 1.72 11.64
2/27/2023 10:45:00 PM 6.29 43.322 0.287 7.42 1.9 11.63
2/27/2023 11:00:00 PM 6.26 43.268 0.286 7.41 1.92 11.65
2/27/2023 11:15:00 PM 6.22 43.196 0.287 7.41 1.89 11.66
2/27/2023 11:30:00 PM 6.18 43.124 0.286 7.4 2.35 11.66
2/27/2023 11:45:00 PM 6.16 43.088 0.286 7.4 2.05 11.68
2/28/2023 12:00:00 AM 6.12 43.016 0.285 7.4 2.62 11.69
2/28/2023 12:15:00 AM 6.09 42.962 0.284 7.39 2.22 11.71
2/28/2023 12:30:00 AM 6.07 42.926 0.283 7.39 2.36 11.71
2/28/2023 12:45:00 AM 6.03 42.854 0.283 7.39 2.26 11.7
2/28/2023 1:00:00 AM 6.01 42.818 0.282 7.38 2.2 11.72
2/28/2023 1:15:00 AM 5.99 42.782 0.282 7.38 2.31 11.73
2/28/2023 1:30:00 AM 5.97 42.746 0.282 7.38 2.27 11.72
2/28/2023 1:45:00 AM 5.97 42.746 0.282 7.38 3.09 11.71
2/28/2023 2:00:00 AM 5.96 42.728 0.282 7.38 2.35 11.74
2/28/2023 2:15:00 AM 5.95 42.71 0.282 7.38 2.51 11.73
2/28/2023 2:30:00 AM 5.94 42.692 0.282 7.38 2.54 11.74
2/28/2023 2:45:00 AM 5.93 42.674 0.282 7.38 2.47 11.74
2/28/2023 3:00:00 AM 5.93 42.674 0.283 7.38 2.51 11.74
2/28/2023 3:15:00 AM 5.92 42.656 0.283 7.38 2.51 11.72
2/28/2023 3:30:00 AM 5.91 42.638 0.283 7.38 2.22 11.73
2/28/2023 3:45:00 AM 5.9 42.62 0.283 7.38 2.22 11.76
2/28/2023 4:00:00 AM 5.89 42.602 0.282 7.38 2.16 11.76
2/28/2023 4:15:00 AM 5.88 42.584 0.282 7.38 2.67 11.74
2/28/2023 4:30:00 AM 5.87 42.566 0.282 7.38 2.34 11.76
2/28/2023 4:45:00 AM 5.86 42.548 0.282 7.37 2.49 11.75
2/28/2023 5:00:00 AM 5.84 42.512 0.282 7.38 2.39 11.77
2/28/2023 5:15:00 AM 5.84 42.512 0.282 7.38 2.41 11.77
2/28/2023 5:30:00 AM 5.83 42.494 0.282 7.38 2.5 11.77
2/28/2023 5:45:00 AM 5.82 42.476 0.282 7.38 2.42 11.78
2/28/2023 6:00:00 AM 5.82 42.476 0.283 7.38 2.39 11.79
2/28/2023 6:15:00 AM 5.81 42.458 0.283 7.38 2.54 11.78
2/28/2023 6:30:00 AM 5.8 42.44 0.283 7.38 2.4 11.8
2/28/2023 6:45:00 AM 5.79 42.422 0.283 7.38 2.41 11.8
2/28/2023 7:00:00 AM 5.78 42.404 0.283 7.38 2.25 11.8
2/28/2023 7:15:00 AM 5.77 42.386 0.284 7.38 2.24 11.81
2/28/2023 7:30:00 AM 5.76 42.368 0.284 7.39 2.26 11.81
2/28/2023 7:45:00 AM 5.75 42.35 0.284 7.39 2.32 11.82
2/28/2023 8:00:00 AM 5.74 42.332 0.284 7.39 2.27 11.84
2/28/2023 8:15:00 AM 5.73 42.314 0.284 7.4 2.22 11.87
2/28/2023 8:30:00 AM 5.72 42.296 0.284 7.41 2.22 11.91
2/28/2023 8:45:00 AM 5.72 42.296 0.284 7.42 2.49 11.99
2/28/2023 9:00:00 AM 5.72 42.296 0.284 7.44 2.13 12.08
2/28/2023 9:15:00 AM 5.72 42.296 0.283 7.46 2.23 12.18
2/28/2023 9:30:00 AM 5.72 42.296 0.283 7.49 2.25 12.33
2/28/2023 9:45:00 AM 5.74 42.332 0.283 7.52 2.49 12.53
2/28/2023 10:00:00 AM 5.77 42.386 0.282 7.57 2.34 12.79
2/28/2023 10:15:00 AM 5.8 42.44 0.282 7.62 2.04 13.01
2/28/2023 10:30:00 AM 5.83 42.494 0.282 7.68 2.02 13.23
2/28/2023 10:45:00 AM 5.86 42.548 0.282 7.74 2.18 13.39
2/28/2023 11:00:00 AM 5.9 42.62 0.282 7.81 2.2 13.57
2/28/2023 11:15:00 AM 5.94 42.692 0.282 7.89 2.03 13.75
2/28/2023 11:30:00 AM 5.99 42.782 0.282 7.96 2 13.85
2/28/2023 11:45:00 AM 6.05 42.89 0.282 8.07 1.96 14.04
2/28/2023 12:00:00 PM 6.1 42.98 0.282 8.16 2.01 14.19
2/28/2023 12:15:00 PM 6.14 43.052 0.282 8.24 1.93 14.24
2/28/2023 12:30:00 PM 6.18 43.124 0.282 8.3 2.01 14.31
2/28/2023 12:45:00 PM 6.24 43.232 0.281 8.37 1.96 14.4
2/28/2023 1:00:00 PM 6.31 43.358 0.281 8.44 1.99 14.47
2/28/2023 1:15:00 PM 6.38 43.484 0.281 8.5 1.95 14.54
2/28/2023 1:30:00 PM 6.45 43.61 0.281 8.56 2 14.57
2/28/2023 1:45:00 PM 6.56 43.808 0.281 8.62 1.94 14.69
2/28/2023 2:00:00 PM 6.61 43.898 0.281 8.66 1.96 14.7
2/28/2023 2:15:00 PM 6.67 44.006 0.281 8.69 1.99 14.68
2/28/2023 2:30:00 PM 6.79 44.222 0.281 8.73 1.88 14.77
2/28/2023 2:45:00 PM 6.89 44.402 0.281 8.77 1.9 14.8
2/28/2023 3:00:00 PM 7.03 44.654 0.281 8.81 1.95 14.85
2/28/2023 3:15:00 PM 7.17 44.906 0.281 8.84 2.25 14.89
2/28/2023 3:30:00 PM 7.31 45.158 0.281 8.88 1.98 14.92
2/28/2023 3:45:00 PM 7.42 45.356 0.281 8.91 2.2 14.89
2/28/2023 4:00:00 PM 7.51 45.518 0.281 8.92 2.03 14.86
2/28/2023 4:15:00 PM 7.64 45.752 0.281 8.93 2.03 14.83
2/28/2023 4:30:00 PM 7.67 45.806 0.281 8.93 1.95 14.76
2/28/2023 4:45:00 PM 7.74 45.932 0.281 8.93 1.91 14.68
2/28/2023 5:00:00 PM 7.77 45.986 0.281 8.93 1.99 14.62
2/28/2023 5:15:00 PM 7.79 46.022 0.281 8.91 2.01 14.45
2/28/2023 5:30:00 PM 7.81 46.058 0.282 8.88 2.09 14.3
2/28/2023 5:45:00 PM 7.83 46.094 0.282 8.85 2.27 14.15
2/28/2023 6:00:00 PM 7.84 46.112 0.282 8.81 1.97 14.01
2/28/2023 6:15:00 PM 7.83 46.094 0.282 8.76 2.04 13.84
2/28/2023 6:30:00 PM 7.84 46.112 0.283 8.69 2.18 13.66
2/28/2023 6:45:00 PM 7.85 46.13 0.283 8.6 1.92 13.44
2/28/2023 7:00:00 PM 7.83 46.094 0.283 8.48 1.93 13.19
2/28/2023 7:15:00 PM 7.78 46.004 0.284 8.33 1.98 12.97
2/28/2023 7:30:00 PM 7.7 45.86 0.285 8.17 2.29 12.72
2/28/2023 7:45:00 PM 7.6 45.68 0.285 8.01 2.02 12.55
2/28/2023 8:00:00 PM 7.49 45.482 0.286 7.87 2.15 12.36
2/28/2023 8:15:00 PM 7.37 45.266 0.286 7.77 2.29 12.18
2/28/2023 8:30:00 PM 7.25 45.05 0.287 7.7 2.16 12.03
2/28/2023 8:45:00 PM 7.12 44.816 0.287 7.64 2.17 11.93
2/28/2023 9:00:00 PM 7 44.6 0.287 7.59 2.15 11.84
2/28/2023 9:15:00 PM 6.87 44.366 0.288 7.55 2.05 11.79
2/28/2023 9:30:00 PM 6.76 44.168 0.288 7.53 1.98 11.75
2/28/2023 9:45:00 PM 6.64 43.952 0.288 7.5 3.21 11.74
2/28/2023 10:00:00 PM 6.52 43.736 0.288 7.48 1.94 11.75
2/28/2023 10:15:00 PM 6.4 43.52 0.289 7.47 1.97 11.75
2/28/2023 10:30:00 PM 6.3 43.34 0.289 7.46 1.95 11.76
2/28/2023 10:45:00 PM 6.2 43.16 0.289 7.45 1.98 11.76
2/28/2023 11:00:00 PM 6.11 42.998 0.289 7.44 1.9 11.77
2/28/2023 11:15:00 PM 6.02 42.836 0.289 7.43 2.07 11.77
2/28/2023 11:30:00 PM 5.94 42.692 0.289 7.42 1.93 11.8
2/28/2023 11:45:00 PM 5.86 42.548 0.29 7.41 1.79 11.79
3/1/2023 12:00:00 AM 5.79 42.422 0.29 7.41 2.03 11.82
3/1/2023 12:15:00 AM 5.72 42.296 0.29 7.4 1.8 11.83
3/1/2023 12:30:00 AM 5.65 42.17 0.29 7.4 1.99 11.84
3/1/2023 12:45:00 AM 5.59 42.062 0.29 7.4 1.93 11.87
3/1/2023 1:00:00 AM 5.53 41.954 0.29 7.39 1.85 11.88
3/1/2023 1:15:00 AM 5.47 41.846 0.291 7.39 1.85 11.9
3/1/2023 1:30:00 AM 5.4 41.72 0.291 7.39 1.9 11.91
3/1/2023 1:45:00 AM 5.34 41.612 0.291 7.39 1.82 11.93
3/1/2023 2:00:00 AM 5.28 41.504 0.291 7.38 1.88 11.95
3/1/2023 2:15:00 AM 5.22 41.396 0.291 7.38 1.86 11.97
3/1/2023 2:30:00 AM 5.16 41.288 0.291 7.38 1.89 11.99
3/1/2023 2:45:00 AM 5.11 41.198 0.292 7.38 1.96 12.01
3/1/2023 3:00:00 AM 5.05 41.09 0.292 7.38 1.94 11.99
3/1/2023 3:15:00 AM 4.99 40.982 0.292 7.38 2.53 12.03
3/1/2023 3:30:00 AM 4.94 40.892 0.292 7.38 2.07 12.06
3/1/2023 3:45:00 AM 4.89 40.802 0.292 7.38 1.9 12.08
3/1/2023 4:00:00 AM 4.83 40.694 0.292 7.38 1.88 12.1
3/1/2023 4:15:00 AM 4.78 40.604 0.292 7.38 1.92 12.11
3/1/2023 4:30:00 AM 4.72 40.496 0.292 7.38 1.98 12.11
3/1/2023 4:45:00 AM 4.67 40.406 0.292 7.38 2.04 12.14
3/1/2023 5:00:00 AM 4.62 40.316 0.292 7.38 2.07 12.15
3/1/2023 5:15:00 AM 4.56 40.208 0.293 7.37 1.94 12.17
3/1/2023 5:30:00 AM 4.5 40.1 0.293 7.37 1.96 12.22
3/1/2023 5:45:00 AM 4.45 40.01 0.293 7.37 1.89 12.22
3/1/2023 6:00:00 AM 4.39 39.902 0.293 7.37 2.08 12.26
3/1/2023 6:15:00 AM 4.34 39.812 0.293 7.37 1.96 12.28
3/1/2023 6:30:00 AM 4.29 39.722 0.293 7.37 1.94 12.31
3/1/2023 6:45:00 AM 4.23 39.614 0.293 7.37 1.85 12.33
3/1/2023 7:00:00 AM 4.18 39.524 0.293 7.37 1.91 12.36
3/1/2023 7:15:00 AM 4.12 39.416 0.293 7.37 1.88 12.4
3/1/2023 7:30:00 AM 4.07 39.326 0.293 7.38 1.87 12.42
3/1/2023 7:45:00 AM 4.02 39.236 0.293 7.38 1.88 12.47
3/1/2023 8:00:00 AM 3.98 39.164 0.293 7.39 1.8 12.56
3/1/2023 8:15:00 AM 3.94 39.092 0.292 7.4 1.84 12.67
3/1/2023 8:30:00 AM 3.92 39.056 0.292 7.42 1.77 12.84
3/1/2023 8:45:00 AM 3.91 39.038 0.292 7.45 1.84 13.05
3/1/2023 9:00:00 AM 3.91 39.038 0.292 7.48 1.77 13.28
3/1/2023 9:15:00 AM 3.94 39.092 0.292 7.53 1.82 13.57
3/1/2023 9:30:00 AM 3.96 39.128 0.292 7.58 1.79 13.83
3/1/2023 9:45:00 AM 4.03 39.254 0.291 7.65 1.78 14.12
3/1/2023 10:00:00 AM 4.1 39.38 0.291 7.72 1.76 14.35
3/1/2023 10:15:00 AM 4.23 39.614 0.29 7.81 1.94 14.62
3/1/2023 10:30:00 AM 4.34 39.812 0.29 7.9 1.73 14.81
3/1/2023 10:45:00 AM 4.45 40.01 0.29 8 1.81 14.98
3/1/2023 11:00:00 AM 4.63 40.334 0.289 8.12 1.83 15.14
3/1/2023 11:15:00 AM 4.82 40.676 0.289 8.22 1.82 15.25
3/1/2023 11:30:00 AM 5.03 41.054 0.288 8.32 1.74 15.35
3/1/2023 11:45:00 AM 5.24 41.432 0.288 8.41 1.73 15.39
3/1/2023 12:00:00 PM 5.44 41.792 0.288 8.49 1.71 15.45
3/1/2023 12:15:00 PM 5.68 42.224 0.287 8.57 1.7 15.45
3/1/2023 12:30:00 PM 5.98 42.764 0.287 8.64 1.66 15.47
3/1/2023 12:45:00 PM 6.26 43.268 0.287 8.69 1.72 15.46
3/1/2023 1:00:00 PM 6.53 43.754 0.286 8.74 2.56 15.46
3/1/2023 1:15:00 PM 6.75 44.15 0.286 8.79 1.7 15.45
3/1/2023 1:30:00 PM 6.97 44.546 0.286 8.84 1.72 15.41
3/1/2023 1:45:00 PM 7.27 45.086 0.286 8.88 1.7 15.4
3/1/2023 2:00:00 PM 7.51 45.518 0.285 8.91 1.66 15.42
3/1/2023 2:15:00 PM 7.74 45.932 0.285 8.95 1.84 15.39
3/1/2023 2:30:00 PM 7.88 46.184 0.285 8.98 1.74 15.39
3/1/2023 2:45:00 PM 8.07 46.526 0.285 9 1.69 15.36
3/1/2023 3:00:00 PM 8.29 46.922 0.285 9.02 1.69 15.3
3/1/2023 3:15:00 PM 8.46 47.228 0.285 9.05 1.68 15.3
3/1/2023 3:30:00 PM 8.61 47.498 0.284 9.07 1.69 15.27
3/1/2023 3:45:00 PM 8.71 47.678 0.284 9.08 1.62 15.19
3/1/2023 4:00:00 PM 8.86 47.948 0.284 9.1 1.58 15.1
3/1/2023 4:15:00 PM 8.98 48.164 0.284 9.11 1.61 14.99
3/1/2023 4:30:00 PM 9.07 48.326 0.284 9.12 1.65 14.89
3/1/2023 4:45:00 PM 9.14 48.452 0.284 9.11 1.62 14.68
3/1/2023 5:00:00 PM 9.18 48.524 0.284 9.09 1.64 14.5
3/1/2023 5:15:00 PM 9.19 48.542 0.284 9.08 1.65 14.33
3/1/2023 5:30:00 PM 9.18 48.524 0.285 9.04 1.66 14.11
3/1/2023 5:45:00 PM 9.16 48.488 0.285 9.01 1.65 13.94
3/1/2023 6:00:00 PM 9.12 48.416 0.285 8.96 1.7 13.76
3/1/2023 6:15:00 PM 9.02 48.236 0.286 8.9 1.66 13.55
3/1/2023 6:30:00 PM 8.94 48.092 0.286 8.82 1.74 13.33
3/1/2023 6:45:00 PM 8.83 47.894 0.287 8.71 1.7 13.1
3/1/2023 7:00:00 PM 8.72 47.696 0.287 8.58 1.7 12.84
3/1/2023 7:15:00 PM 8.6 47.48 0.288 8.41 1.63 12.61
3/1/2023 7:30:00 PM 8.47 47.246 0.288 8.22 1.71 12.41
3/1/2023 7:45:00 PM 8.34 47.012 0.288 8.05 1.77 12.22
3/1/2023 8:00:00 PM 8.22 46.796 0.289 7.92 1.74 12.06
3/1/2023 8:15:00 PM 8.09 46.562 0.289 7.81 1.84 11.89
3/1/2023 8:30:00 PM 7.97 46.346 0.289 7.74 1.87 11.76
3/1/2023 8:45:00 PM 7.86 46.148 0.289 7.67 1.85 11.64
3/1/2023 9:00:00 PM 7.76 45.968 0.289 7.62 1.86 11.55
3/1/2023 9:15:00 PM 7.65 45.77 0.289 7.58 1.8 11.49
3/1/2023 9:30:00 PM 7.55 45.59 0.289 7.55 1.8 11.43
3/1/2023 9:45:00 PM 7.46 45.428 0.289 7.52 1.77 11.41
3/1/2023 10:00:00 PM 7.38 45.284 0.289 7.5 1.63 11.38
3/1/2023 10:15:00 PM 7.32 45.176 0.289 7.49 1.74 11.36
3/1/2023 10:30:00 PM 7.25 45.05 0.289 7.47 1.54 11.36
3/1/2023 10:45:00 PM 7.19 44.942 0.289 7.46 1.56 11.37
3/1/2023 11:00:00 PM 7.13 44.834 0.289 7.45 1.5 11.37
3/1/2023 11:15:00 PM 7.08 44.744 0.289 7.44 2.4 11.35
3/1/2023 11:30:00 PM 7.03 44.654 0.289 7.43 1.61 11.38
3/1/2023 11:45:00 PM 6.99 44.582 0.289 7.42 1.46 11.37
3/2/2023 12:00:00 AM 6.95 44.51 0.289 7.42 1.51 11.39
3/2/2023 12:15:00 AM 6.92 44.456 0.288 7.41 1.53 11.41
3/2/2023 12:30:00 AM 6.89 44.402 0.288 7.41 1.62 11.41
3/2/2023 12:45:00 AM 6.87 44.366 0.288 7.4 1.48 11.42
3/2/2023 1:00:00 AM 6.86 44.348 0.288 7.4 1.45 11.44
3/2/2023 1:15:00 AM 6.86 44.348 0.288 7.39 1.99 11.44
3/2/2023 1:30:00 AM 6.85 44.33 0.288 7.39 1.45 11.44
3/2/2023 1:45:00 AM 6.85 44.33 0.288 7.39 1.51 11.44
3/2/2023 2:00:00 AM 6.85 44.33 0.288 7.39 1.44 11.44
3/2/2023 2:15:00 AM 6.86 44.348 0.288 7.38 1.6 11.41
3/2/2023 2:30:00 AM 6.88 44.384 0.289 7.38 1.52 11.43
3/2/2023 2:45:00 AM 6.89 44.402 0.289 7.38 1.62 11.43
3/2/2023 3:00:00 AM 6.9 44.42 0.289 7.38 1.5 11.41
3/2/2023 3:15:00 AM 6.91 44.438 0.289 7.38 1.53 11.4
3/2/2023 3:30:00 AM 6.93 44.474 0.289 7.38 1.5 11.4
3/2/2023 3:45:00 AM 6.94 44.492 0.289 7.38 1.66 11.4
3/2/2023 4:00:00 AM 6.95 44.51 0.289 7.38 1.47 11.39
3/2/2023 4:15:00 AM 6.97 44.546 0.289 7.38 1.5 11.39
3/2/2023 4:30:00 AM 6.98 44.564 0.289 7.38 1.64 11.37
3/2/2023 4:45:00 AM 6.99 44.582 0.289 7.38 1.51 11.38
3/2/2023 5:00:00 AM 7.01 44.618 0.289 7.38 1.51 11.36
3/2/2023 5:15:00 AM 7.02 44.636 0.29 7.38 1.6 11.36
3/2/2023 5:30:00 AM 7.03 44.654 0.29 7.38 1.54 11.36
3/2/2023 5:45:00 AM 7.04 44.672 0.29 7.38 1.51 11.35
3/2/2023 6:00:00 AM 7.05 44.69 0.29 7.38 1.47 11.35
3/2/2023 6:15:00 AM 7.05 44.69 0.29 7.38 1.48 11.34
3/2/2023 6:30:00 AM 7.06 44.708 0.29 7.38 1.61 11.34
3/2/2023 6:45:00 AM 7.07 44.726 0.29 7.38 1.56 11.34
3/2/2023 7:00:00 AM 7.07 44.726 0.29 7.38 1.53 11.33
3/2/2023 7:15:00 AM 7.07 44.726 0.29 7.38 1.6 11.34
3/2/2023 7:30:00 AM 7.08 44.744 0.29 7.38 1.82 11.34
3/2/2023 7:45:00 AM 7.08 44.744 0.29 7.38 1.63 11.34
3/2/2023 8:00:00 AM 7.08 44.744 0.291 7.38 1.5 11.37
3/2/2023 8:15:00 AM 7.09 44.762 0.291 7.39 1.47 11.42
3/2/2023 8:30:00 AM 7.1 44.78 0.291 7.41 1.54 11.5
3/2/2023 8:45:00 AM 7.11 44.798 0.291 7.42 1.48 11.62
3/2/2023 9:00:00 AM 7.11 44.798 0.291 7.44 1.46 11.66
3/2/2023 9:15:00 AM 7.12 44.816 0.291 7.45 1.46 11.74
3/2/2023 9:30:00 AM 7.13 44.834 0.291 7.47 1.54 11.83
3/2/2023 9:45:00 AM 7.15 44.87 0.291 7.49 1.53 11.96
3/2/2023 10:00:00 AM 7.18 44.924 0.29 7.54 1.48 12.27
3/2/2023 10:15:00 AM 7.22 44.996 0.29 7.6 1.55 12.52
3/2/2023 10:30:00 AM 7.26 45.068 0.29 7.66 1.35 12.8
3/2/2023 10:45:00 AM 7.33 45.194 0.29 7.75 1.39 13.13
3/2/2023 11:00:00 AM 7.39 45.302 0.289 7.86 1.44 13.4
3/2/2023 11:15:00 AM 7.52 45.536 0.289 8 1.42 13.74
3/2/2023 11:30:00 AM 7.62 45.716 0.289 8.17 1.4 13.98
3/2/2023 11:45:00 AM 7.68 45.824 0.288 8.3 1.37 14.14
3/2/2023 12:00:00 PM 7.78 46.004 0.288 8.44 1.35 14.33
3/2/2023 12:15:00 PM 7.93 46.274 0.287 8.58 1.37 14.49
3/2/2023 12:30:00 PM 8.09 46.562 0.287 8.69 1.37 14.62
3/2/2023 12:45:00 PM 8.25 46.85 0.287 8.78 1.48 14.72
3/2/2023 1:00:00 PM 8.38 47.084 0.286 8.86 1.42 14.81
3/2/2023 1:15:00 PM 8.51 47.318 0.286 8.93 1.44 14.85
3/2/2023 1:30:00 PM 8.67 47.606 0.286 8.99 1.44 14.91
3/2/2023 1:45:00 PM 8.84 47.912 0.285 9.04 1.33 14.93
3/2/2023 2:00:00 PM 8.98 48.164 0.285 9.08 1.41 14.95
3/2/2023 2:15:00 PM 9.12 48.416 0.285 9.12 1.28 14.93
3/2/2023 2:30:00 PM 9.25 48.65 0.285 9.15 1.32 14.94
3/2/2023 2:45:00 PM 9.36 48.848 0.285 9.18 1.36 14.91
3/2/2023 3:00:00 PM 9.46 49.028 0.285 9.2 1.34 14.86
3/2/2023 3:15:00 PM 9.58 49.244 0.284 9.22 1.27 14.86
3/2/2023 3:30:00 PM 9.69 49.442 0.284 9.24 1.27 14.84
3/2/2023 3:45:00 PM 9.76 49.568 0.284 9.25 1.32 14.77
3/2/2023 4:00:00 PM 9.83 49.694 0.284 9.26 1.4 14.75
3/2/2023 4:15:00 PM 9.88 49.784 0.284 9.26 1.32 14.7
3/2/2023 4:30:00 PM 9.92 49.856 0.284 9.26 1.3 14.6
3/2/2023 4:45:00 PM 9.94 49.892 0.284 9.26 1.33 14.51
3/2/2023 5:00:00 PM 9.95 49.91 0.284 9.25 1.37 14.37
3/2/2023 5:15:00 PM 9.93 49.874 0.285 9.23 1.34 14.21
3/2/2023 5:30:00 PM 9.92 49.856 0.285 9.2 1.44 14
3/2/2023 5:45:00 PM 9.89 49.802 0.285 9.17 1.33 13.87
3/2/2023 6:00:00 PM 9.85 49.73 0.285 9.13 1.4 13.67
3/2/2023 6:15:00 PM 9.8 49.64 0.286 9.08 1.3 13.43
3/2/2023 6:30:00 PM 9.74 49.532 0.286 9.01 1.31 13.21
3/2/2023 6:45:00 PM 9.67 49.406 0.286 8.92 1.41 12.91
3/2/2023 7:00:00 PM 9.58 49.244 0.287 8.79 1.43 12.61
3/2/2023 7:15:00 PM 9.49 49.082 0.288 8.64 1.34 12.33
3/2/2023 7:30:00 PM 9.4 48.92 0.288 8.45 1.37 12.08
3/2/2023 7:45:00 PM 9.31 48.758 0.289 8.23 1.4 11.85
3/2/2023 8:00:00 PM 9.23 48.614 0.289 8.04 1.56 11.64
3/2/2023 8:15:00 PM 9.14 48.452 0.289 7.89 1.53 11.47
3/2/2023 8:30:00 PM 9.06 48.308 0.29 7.79 1.45 11.32
3/2/2023 8:45:00 PM 8.98 48.164 0.29 7.71 1.47 11.18
3/2/2023 9:00:00 PM 8.9 48.02 0.29 7.65 1.66 11.07
3/2/2023 9:15:00 PM 8.81 47.858 0.29 7.61 1.62 10.98
3/2/2023 9:30:00 PM 8.72 47.696 0.29 7.57 1.45 10.93
3/2/2023 9:45:00 PM 8.64 47.552 0.29 7.54 1.41 10.88
3/2/2023 10:00:00 PM 8.56 47.408 0.29 7.52 1.42 10.85
3/2/2023 10:15:00 PM 8.48 47.264 0.29 7.5 1.43 10.85
3/2/2023 10:30:00 PM 8.4 47.12 0.29 7.48 1.45 10.84
3/2/2023 10:45:00 PM 8.33 46.994 0.29 7.47 1.42 10.84
3/2/2023 11:00:00 PM 8.26 46.868 0.29 7.46 1.58 10.84
3/2/2023 11:15:00 PM 8.18 46.724 0.29 7.44 9.15 10.85
3/2/2023 11:30:00 PM 8.11 46.598 0.29 7.43 1.53 10.86
3/2/2023 11:45:00 PM 8.02 46.436 0.29 7.43 1.47 10.85
3/3/2023 12:00:00 AM 7.94 46.292 0.29 7.42 1.42 10.87
3/3/2023 12:15:00 AM 7.87 46.166 0.29 7.41 1.54 10.92
3/3/2023 12:30:00 AM 7.8 46.04 0.29 7.4 1.49 10.94
3/3/2023 12:45:00 AM 7.72 45.896 0.29 7.4 1.46 10.96
3/3/2023 1:00:00 AM 7.66 45.788 0.29 7.4 1.44 10.98
3/3/2023 1:15:00 AM 7.59 45.662 0.29 7.39 1.48 10.99
3/3/2023 1:30:00 AM 7.53 45.554 0.29 7.39 1.54 11.04
3/3/2023 1:45:00 AM 7.47 45.446 0.29 7.39 1.44 11.06
3/3/2023 2:00:00 AM 7.41 45.338 0.29 7.38 1.45 11.07
3/3/2023 2:15:00 AM 7.35 45.23 0.29 7.38 1.46 11.11
3/3/2023 2:30:00 AM 7.3 45.14 0.29 7.38 1.6 11.13
3/3/2023 2:45:00 AM 7.24 45.032 0.291 7.38 1.55 11.16
3/3/2023 3:00:00 AM 7.19 44.942 0.291 7.38 1.73 11.18
3/3/2023 3:15:00 AM 7.13 44.834 0.291 7.37 1.56 11.22
3/3/2023 3:30:00 AM 7.08 44.744 0.291 7.37 1.53 11.23
3/3/2023 3:45:00 AM 7.04 44.672 0.291 7.37 1.65 11.26
3/3/2023 4:00:00 AM 7 44.6 0.291 7.37 1.57 11.29
3/3/2023 4:15:00 AM 6.96 44.528 0.291 7.37 1.56 11.32
3/3/2023 4:30:00 AM 6.92 44.456 0.291 7.37 1.52 11.33
3/3/2023 4:45:00 AM 6.88 44.384 0.292 7.37 1.54 11.36
3/3/2023 5:00:00 AM 6.85 44.33 0.292 7.37 1.53 11.38
3/3/2023 5:15:00 AM 6.8 44.24 0.292 7.38 1.55 11.4
3/3/2023 5:30:00 AM 6.76 44.168 0.292 7.38 1.6 11.44
3/3/2023 5:45:00 AM 6.7 44.06 0.292 7.38 1.5 11.45
3/3/2023 6:00:00 AM 6.65 43.97 0.292 7.38 1.73 11.49
3/3/2023 6:15:00 AM 6.6 43.88 0.292 7.38 1.6 11.52
3/3/2023 6:30:00 AM 6.54 43.772 0.292 7.38 1.58 11.53
3/3/2023 6:45:00 AM 6.48 43.664 0.292 7.38 1.57 11.56
3/3/2023 7:00:00 AM 6.43 43.574 0.293 7.38 1.6 11.58
3/3/2023 7:15:00 AM 6.36 43.448 0.293 7.39 1.65 11.61
3/3/2023 7:30:00 AM 6.3 43.34 0.293 7.39 1.76 11.65
3/3/2023 7:45:00 AM 6.25 43.25 0.293 7.4 1.6 11.72
3/3/2023 8:00:00 AM 6.19 43.142 0.293 7.41 1.75 11.83
3/3/2023 8:15:00 AM 6.14 43.052 0.293 7.43 1.46 11.98
3/3/2023 8:30:00 AM 6.1 42.98 0.293 7.45 1.44 12.17
3/3/2023 8:45:00 AM 6.06 42.908 0.293 7.49 1.5 12.38
3/3/2023 9:00:00 AM 6.05 42.89 0.293 7.53 1.34 12.61
3/3/2023 9:15:00 AM 6.03 42.854 0.293 7.58 1.5 12.92
3/3/2023 9:30:00 AM 6.02 42.836 0.293 7.64 1.51 13.19
3/3/2023 9:45:00 AM 6.08 42.944 0.292 7.73 1.47 13.53
3/3/2023 10:00:00 AM 6.11 42.998 0.292 7.83 1.43 13.85
3/3/2023 10:15:00 AM 6.2 43.16 0.292 7.96 1.52 14.18
3/3/2023 10:30:00 AM 6.28 43.304 0.291 8.13 1.42 14.49
3/3/2023 10:45:00 AM 6.33 43.394 0.291 8.27 1.43 14.71
3/3/2023 11:00:00 AM 6.45 43.61 0.291 8.43 1.4 14.96
3/3/2023 11:15:00 AM 6.57 43.826 0.29 8.57 1.46 15.14
3/3/2023 11:30:00 AM 6.7 44.06 0.29 8.68 1.55 15.3
3/3/2023 11:45:00 AM 6.86 44.348 0.289 8.78 1.45 15.39
3/3/2023 12:00:00 PM 6.95 44.51 0.289 8.85 1.51 15.46
3/3/2023 12:15:00 PM 7.02 44.636 0.289 8.91 1.39 15.5
3/3/2023 12:30:00 PM 7.09 44.762 0.289 8.96 1.43 15.54
3/3/2023 12:45:00 PM 7.2 44.96 0.288 9.01 1.34 15.58
3/3/2023 1:00:00 PM 7.3 45.14 0.288 9.05 1.4 15.57
3/3/2023 1:15:00 PM 7.34 45.212 0.288 9.07 1.39 15.51
3/3/2023 1:30:00 PM 7.38 45.284 0.288 9.1 1.44 15.48
3/3/2023 1:45:00 PM 7.41 45.338 0.287 9.11 1.39 15.41
3/3/2023 2:00:00 PM 7.41 45.338 0.287 9.1 1.49 15.23
3/3/2023 2:15:00 PM 7.42 45.356 0.287 9.09 1.44 15.05
3/3/2023 2:30:00 PM 7.43 45.374 0.287 9.09 1.43 15.04
3/3/2023 2:45:00 PM 7.43 45.374 0.287 9.08 1.43 14.91
3/3/2023 3:00:00 PM 7.4 45.32 0.287 9.05 1.42 14.72
3/3/2023 3:15:00 PM 7.39 45.302 0.286 9.03 1.43 14.64
3/3/2023 3:30:00 PM 7.37 45.266 0.286 9.01 1.53 14.51
3/3/2023 3:45:00 PM 7.36 45.248 0.286 8.97 1.41 14.36
3/3/2023 4:00:00 PM 7.33 45.194 0.286 8.93 1.45 14.25
3/3/2023 4:15:00 PM 7.29 45.122 0.287 8.89 1.54 14.14
3/3/2023 4:30:00 PM 7.26 45.068 0.287 8.8 1.58 13.91
3/3/2023 4:45:00 PM 7.22 44.996 0.288 8.72 1.52 13.71
3/3/2023 5:00:00 PM 7.19 44.942 0.288 8.65 1.39 13.62
3/3/2023 5:15:00 PM 7.15 44.87 0.288 8.53 1.35 13.43
3/3/2023 5:30:00 PM 7.1 44.78 0.288 8.4 1.53 13.23
3/3/2023 5:45:00 PM 7.05 44.69 0.289 8.25 1.33 13.07
3/3/2023 6:00:00 PM 7.01 44.618 0.289 8.16 1.42 13
3/3/2023 6:15:00 PM 6.96 44.528 0.289 8.04 1.36 12.82
3/3/2023 6:30:00 PM 6.91 44.438 0.289 7.94 1.4 12.7
3/3/2023 6:45:00 PM 6.87 44.366 0.289 7.86 1.32 12.53
3/3/2023 7:00:00 PM 6.82 44.276 0.289 7.78 1.44 12.37
3/3/2023 7:15:00 PM 6.77 44.186 0.29 7.72 1.49 12.26
3/3/2023 7:30:00 PM 6.72 44.096 0.29 7.67 1.45 12.16
3/3/2023 7:45:00 PM 6.67 44.006 0.29 7.63 1.5 12.05
3/3/2023 8:00:00 PM 6.61 43.898 0.29 7.59 1.57 11.98
3/3/2023 8:15:00 PM 6.57 43.826 0.29 7.56 1.48 11.9
3/3/2023 8:30:00 PM 6.52 43.736 0.289 7.54 1.53 11.82
3/3/2023 8:45:00 PM 6.48 43.664 0.288 7.51 1.53 11.78
3/3/2023 9:00:00 PM 6.44 43.592 0.288 7.49 1.54 11.74
3/3/2023 9:15:00 PM 6.42 43.556 0.288 7.48 1.5 11.7
3/3/2023 9:30:00 PM 6.39 43.502 0.288 7.46 1.64 11.68
3/3/2023 9:45:00 PM 6.36 43.448 0.288 7.46 1.51 11.63
3/3/2023 10:00:00 PM 6.32 43.376 0.285 7.45 3.03 11.68
3/3/2023 10:15:00 PM 6.31 43.358 0.286 7.44 2.98 11.63
3/3/2023 10:30:00 PM 6.31 43.358 0.285 7.43 1.99 11.64
3/3/2023 10:45:00 PM 6.3 43.34 0.284 7.43 3.14 11.62
3/3/2023 11:00:00 PM 6.3 43.34 0.284 7.42 2 11.59
3/3/2023 11:15:00 PM 6.3 43.34 0.283 7.42 2.47 11.58
3/3/2023 11:30:00 PM 6.31 43.358 0.283 7.42 3.15 11.61
3/3/2023 11:45:00 PM 6.32 43.376 0.281 7.42 3.38 11.6
3/4/2023 12:00:00 AM 6.33 43.394 0.281 7.41 3.19 11.58
3/4/2023 12:15:00 AM 6.36 43.448 0.281 7.41 3.2 11.57
3/4/2023 12:30:00 AM 6.39 43.502 0.279 7.41 4.34 11.56
3/4/2023 12:45:00 AM 6.42 43.556 0.278 7.41 4.24 11.54
3/4/2023 1:00:00 AM 6.45 43.61 0.278 7.4 3.7 11.53
3/4/2023 1:15:00 AM 6.49 43.682 0.276 7.4 4.65 11.53
3/4/2023 1:30:00 AM 6.53 43.754 0.275 7.4 4.82 11.53
3/4/2023 1:45:00 AM 6.57 43.826 0.274 7.4 6.33 11.51
3/4/2023 2:00:00 AM 6.6 43.88 0.273 7.4 7.21 11.5
3/4/2023 2:15:00 AM 6.64 43.952 0.272 7.39 8.4 11.49
3/4/2023 2:30:00 AM 6.67 44.006 0.271 7.4 11.23 11.47
3/4/2023 2:45:00 AM 6.7 44.06 0.27 7.39 12.54 11.45
3/4/2023 3:00:00 AM 6.74 44.132 0.269 7.39 16.26 11.43
3/4/2023 3:15:00 AM 6.78 44.204 0.267 7.39 21.56 11.4
3/4/2023 3:30:00 AM 6.81 44.258 0.266 7.39 24.89 11.38
3/4/2023 3:45:00 AM 6.84 44.312 0.266 7.38 38.79 11.35
3/4/2023 4:00:00 AM 6.85 44.33 0.266 7.38 34.7 11.32
3/4/2023 4:15:00 AM 6.86 44.348 0.268 7.38 47.38 11.3
3/4/2023 4:30:00 AM 6.87 44.366 0.269 7.38 50.6 11.29
3/4/2023 4:45:00 AM 6.87 44.366 0.27 7.39 51.93 11.31
3/4/2023 5:00:00 AM 6.88 44.384 0.271 7.4 53.65 11.33
3/4/2023 5:15:00 AM 6.89 44.402 0.272 7.41 63.7 11.36
3/4/2023 5:30:00 AM 6.9 44.42 0.272 7.42 77.32 11.38
3/4/2023 5:45:00 AM 6.9 44.42 0.271 7.44 67.15 11.4
3/4/2023 6:00:00 AM 6.89 44.402 0.269 7.45 74.87 11.42
3/4/2023 6:15:00 AM 6.88 44.384 0.269 7.47 81.55 11.44
3/4/2023 6:30:00 AM 6.85 44.33 0.268 7.48 54.55 11.45
3/4/2023 6:45:00 AM 6.83 44.294 0.268 7.48 48.17 11.46
3/4/2023 7:00:00 AM 6.81 44.258 0.267 7.49 41.91 11.47
3/4/2023 7:15:00 AM 6.78 44.204 0.266 7.49 41.14 11.48
3/4/2023 7:30:00 AM 6.75 44.15 0.266 7.5 36.1 11.49
3/4/2023 7:45:00 AM 6.72 44.096 0.266 7.51 36.09 11.51
3/4/2023 8:00:00 AM 6.69 44.042 0.266 7.52 39.82 11.53
3/4/2023 8:15:00 AM 6.66 43.988 0.265 7.53 40.78 11.55
3/4/2023 8:30:00 AM 6.63 43.934 0.264 7.54 46.15 11.58
3/4/2023 8:45:00 AM 6.61 43.898 0.262 7.55 50.57 11.62
3/4/2023 9:00:00 AM 6.61 43.898 0.259 7.57 53.37 11.68
3/4/2023 9:15:00 AM 6.65 43.97 0.256 7.58 58.96 11.74
3/4/2023 9:30:00 AM 6.68 44.024 0.254 7.59 62.76 11.79
3/4/2023 9:45:00 AM 6.71 44.078 0.253 7.6 68.25 11.81
3/4/2023 10:00:00 AM 6.74 44.132 0.254 7.6 62.53 11.83
3/4/2023 10:15:00 AM 6.76 44.168 0.255 7.6 63.41 11.86
3/4/2023 10:30:00 AM 6.78 44.204 0.258 7.61 58.95 11.9
3/4/2023 10:45:00 AM 6.79 44.222 0.261 7.61 56.31 11.95
3/4/2023 11:00:00 AM 6.83 44.294 0.263 7.62 54.36 12.01
3/4/2023 11:15:00 AM 6.87 44.366 0.266 7.63 46.58 12.09
3/4/2023 11:30:00 AM 6.93 44.474 0.268 7.65 44.98 12.17
3/4/2023 11:45:00 AM 7 44.6 0.271 7.67 42.12 12.26
3/4/2023 12:00:00 PM 7.1 44.78 0.273 7.7 38.59 12.37
3/4/2023 12:15:00 PM 7.29 45.122 0.275 7.74 37.06 12.51
3/4/2023 12:30:00 PM 7.44 45.392 0.277 7.77 28.16 12.62
3/4/2023 12:45:00 PM 7.51 45.518 0.278 7.79 35.32 12.66
3/4/2023 1:00:00 PM 7.63 45.734 0.279 7.82 31.94 12.73
3/4/2023 1:15:00 PM 7.76 45.968 0.279 7.85 31.33 12.8
3/4/2023 1:30:00 PM 8.02 46.436 0.279 7.9 28.7 12.93
3/4/2023 1:45:00 PM 8.22 46.796 0.278 7.95 27.55 13
3/4/2023 2:00:00 PM 8.4 47.12 0.277 8 27.72 13.04
3/4/2023 2:15:00 PM 8.53 47.354 0.276 8.02 27.24 13.01
3/4/2023 2:30:00 PM 8.61 47.498 0.275 8.03 24.16 12.95
3/4/2023 2:45:00 PM 8.64 47.552 0.274 8.03 24.32 12.87
3/4/2023 3:00:00 PM 8.67 47.606 0.273 8.02 23.14 12.78
3/4/2023 3:15:00 PM 8.71 47.678 0.272 8.01 26.56 12.7
3/4/2023 3:30:00 PM 8.75 47.75 0.271 8.02 22.08 12.68
3/4/2023 3:45:00 PM 8.76 47.768 0.27 8.02 21.89 12.65
3/4/2023 4:00:00 PM 8.82 47.876 0.27 8.04 21.5 12.7
3/4/2023 4:15:00 PM 8.86 47.948 0.269 8.07 20.47 12.76
3/4/2023 4:30:00 PM 8.8 47.84 0.268 8.07 20.02 12.72
3/4/2023 4:45:00 PM 8.75 47.75 0.268 8.06 20.63 12.72
3/4/2023 5:00:00 PM 8.75 47.75 0.267 8.07 20.36 12.73
3/4/2023 5:15:00 PM 8.74 47.732 0.267 8.06 18.77 12.69
3/4/2023 5:30:00 PM 8.71 47.678 0.266 8.06 19.43 12.69
3/4/2023 5:45:00 PM 8.69 47.642 0.266 8.04 19.33 12.62
3/4/2023 6:00:00 PM 8.64 47.552 0.265 8.01 19.85 12.52
3/4/2023 6:15:00 PM 8.6 47.48 0.265 7.97 19.31 12.41
3/4/2023 6:30:00 PM 8.53 47.354 0.265 7.93 18.91 12.28
3/4/2023 6:45:00 PM 8.42 47.156 0.265 7.87 18 12.15
3/4/2023 7:00:00 PM 8.31 46.958 0.265 7.83 18.23 12.04
3/4/2023 7:15:00 PM 8.21 46.778 0.265 7.77 18.7 11.92
3/4/2023 7:30:00 PM 8.1 46.58 0.265 7.73 16.95 11.8
3/4/2023 7:45:00 PM 7.99 46.382 0.265 7.69 17.56 11.69
3/4/2023 8:00:00 PM 7.86 46.148 0.265 7.65 17.85 11.61
3/4/2023 8:15:00 PM 7.75 45.95 0.265 7.62 17.79 11.54
3/4/2023 8:30:00 PM 7.64 45.752 0.265 7.59 18.48 11.49
3/4/2023 8:45:00 PM 7.55 45.59 0.265 7.57 18.02 11.45
3/4/2023 9:00:00 PM 7.45 45.41 0.265 7.55 17.91 11.42
3/4/2023 9:15:00 PM 7.38 45.284 0.265 7.53 17.42 11.41
3/4/2023 9:30:00 PM 7.3 45.14 0.265 7.52 21.22 11.4
3/4/2023 9:45:00 PM 7.22 44.996 0.265 7.5 17.61 11.4
3/4/2023 10:00:00 PM 7.14 44.852 0.265 7.49 18.21 11.41
3/4/2023 10:15:00 PM 7.07 44.726 0.264 7.48 17.69 11.42
3/4/2023 10:30:00 PM 7 44.6 0.264 7.48 18.33 11.44
3/4/2023 10:45:00 PM 6.94 44.492 0.264 7.47 17.4 11.46
3/4/2023 11:00:00 PM 6.88 44.384 0.264 7.47 17.23 11.48
3/4/2023 11:15:00 PM 6.81 44.258 0.264 7.46 16.35 11.49
3/4/2023 11:30:00 PM 6.75 44.15 0.264 7.45 17.4 11.51
3/4/2023 11:45:00 PM 6.7 44.06 0.264 7.45 17.56 11.53
3/5/2023 12:00:00 AM 6.64 43.952 0.264 7.45 17.89 11.56
3/5/2023 12:15:00 AM 6.59 43.862 0.264 7.44 17.17 11.58
3/5/2023 12:30:00 AM 6.53 43.754 0.264 7.44 16.51 11.6
3/5/2023 12:45:00 AM 6.47 43.646 0.264 7.44 16.64 11.62
3/5/2023 1:00:00 AM 6.42 43.556 0.264 7.43 23.9 11.64
3/5/2023 1:15:00 AM 6.36 43.448 0.264 7.43 15.24 11.66
3/5/2023 1:30:00 AM 6.3 43.34 0.264 7.43 15 11.68
3/5/2023 1:45:00 AM 6.23 43.214 0.264 7.43 15.34 11.7
3/5/2023 2:00:00 AM 6.17 43.106 0.264 7.43 14.91 11.72
3/5/2023 2:15:00 AM 6.11 42.998 0.264 7.42 14.57 11.74
3/5/2023 2:30:00 AM 6.05 42.89 0.264 7.42 14 11.75
3/5/2023 2:45:00 AM 6 42.8 0.265 7.42 13.91 11.77
3/5/2023 3:00:00 AM 5.93 42.674 0.265 7.42 13.71 11.79
3/5/2023 3:15:00 AM 5.86 42.548 0.265 7.42 13.35 11.8
3/5/2023 3:30:00 AM 5.81 42.458 0.265 7.41 13.47 11.82
3/5/2023 3:45:00 AM 5.75 42.35 0.265 7.41 12.75 11.84
3/5/2023 4:00:00 AM 5.7 42.26 0.265 7.41 13.12 11.85
3/5/2023 4:15:00 AM 5.64 42.152 0.266 7.41 12.83 11.87
3/5/2023 4:30:00 AM 5.58 42.044 0.266 7.41 12.03 11.89
3/5/2023 4:45:00 AM 5.53 41.954 0.266 7.41 11.78 11.91
3/5/2023 5:00:00 AM 5.47 41.846 0.266 7.41 11.63 11.93
3/5/2023 5:15:00 AM 5.41 41.738 0.266 7.41 11.72 11.95
3/5/2023 5:30:00 AM 5.36 41.648 0.267 7.41 10.76 11.97
3/5/2023 5:45:00 AM 5.3 41.54 0.267 7.4 11 11.98
3/5/2023 6:00:00 AM 5.24 41.432 0.267 7.4 10.31 12
3/5/2023 6:15:00 AM 5.19 41.342 0.268 7.4 10.73 12.02
3/5/2023 6:30:00 AM 5.12 41.216 0.268 7.4 16 12.04
3/5/2023 6:45:00 AM 5.07 41.126 0.268 7.4 9.68 12.06
3/5/2023 7:00:00 AM 5.01 41.018 0.268 7.4 9.66 12.08
3/5/2023 7:15:00 AM 4.95 40.91 0.269 7.4 8.84 12.11
3/5/2023 7:30:00 AM 4.89 40.802 0.269 7.4 9.38 12.13
3/5/2023 7:45:00 AM 4.84 40.712 0.269 7.4 8.87 12.17
3/5/2023 8:00:00 AM 4.79 40.622 0.27 7.41 9.22 12.23
3/5/2023 8:15:00 AM 4.75 40.55 0.27 7.42 8.13 12.31
3/5/2023 8:30:00 AM 4.71 40.478 0.27 7.43 8.57 12.4
3/5/2023 8:45:00 AM 4.68 40.424 0.27 7.44 7.8 12.51
3/5/2023 9:00:00 AM 4.66 40.388 0.271 7.45 10.06 12.64
3/5/2023 9:15:00 AM 4.66 40.388 0.271 7.48 7.47 12.8
3/5/2023 9:30:00 AM 4.68 40.424 0.271 7.51 7.35 12.98
3/5/2023 9:45:00 AM 4.74 40.532 0.271 7.54 6.74 13.2
3/5/2023 10:00:00 AM 4.83 40.694 0.271 7.58 6.26 13.42
3/5/2023 10:15:00 AM 4.93 40.874 0.271 7.63 6.69 13.61
3/5/2023 10:30:00 AM 5.07 41.126 0.271 7.68 6.07 13.81
3/5/2023 10:45:00 AM 5.26 41.468 0.271 7.74 6.61 14
3/5/2023 11:00:00 AM 5.52 41.936 0.271 7.81 5.88 14.17
3/5/2023 11:15:00 AM 5.8 42.44 0.271 7.88 6.01 14.31
3/5/2023 11:30:00 AM 6.08 42.944 0.271 7.95 5.61 14.42
3/5/2023 11:45:00 AM 6.34 43.412 0.271 8.03 5.41 14.52
3/5/2023 12:00:00 PM 6.61 43.898 0.271 8.1 5.67 14.58
3/5/2023 12:15:00 PM 6.92 44.456 0.271 8.18 5.44 14.65
3/5/2023 12:30:00 PM 7.09 44.762 0.271 8.24 5.23 14.65
3/5/2023 12:45:00 PM 7.36 45.248 0.271 8.31 4.69 14.7
3/5/2023 1:00:00 PM 7.49 45.482 0.271 8.35 5.32 14.69
3/5/2023 1:15:00 PM 7.75 45.95 0.271 8.41 4.78 14.73
3/5/2023 1:30:00 PM 7.93 46.274 0.271 8.44 4.56 14.68
3/5/2023 1:45:00 PM 8.16 46.688 0.271 8.48 4.65 14.66
3/5/2023 2:00:00 PM 8.45 47.21 0.271 8.53 4.45 14.69
3/5/2023 2:15:00 PM 8.73 47.714 0.272 8.58 4.42 14.68
3/5/2023 2:30:00 PM 8.99 48.182 0.272 8.62 4.21 14.63
3/5/2023 2:45:00 PM 9.24 48.632 0.272 8.67 4.22 14.57
3/5/2023 3:00:00 PM 9.44 48.992 0.272 8.69 4.13 14.45
3/5/2023 3:15:00 PM 9.63 49.334 0.272 8.72 3.99 14.35
3/5/2023 3:30:00 PM 9.79 49.622 0.272 8.74 4.41 14.25
3/5/2023 3:45:00 PM 9.94 49.892 0.272 8.76 3.9 14.15
3/5/2023 4:00:00 PM 10.12 50.216 0.272 8.78 3.63 14.1
3/5/2023 4:15:00 PM 10.27 50.486 0.272 8.8 3.74 14.04
3/5/2023 4:30:00 PM 10.38 50.684 0.272 8.82 3.67 13.98
3/5/2023 4:45:00 PM 10.42 50.756 0.273 8.81 3.61 13.86
3/5/2023 5:00:00 PM 10.43 50.774 0.273 8.79 3.68 13.72
3/5/2023 5:15:00 PM 10.38 50.684 0.274 8.76 3.58 13.55
3/5/2023 5:30:00 PM 10.37 50.666 0.274 8.72 3.59 13.39
3/5/2023 5:45:00 PM 10.32 50.576 0.274 8.68 3.51 13.25
3/5/2023 6:00:00 PM 10.28 50.504 0.275 8.64 3.62 13.12
3/5/2023 6:15:00 PM 10.2 50.36 0.275 8.58 3.41 12.96
3/5/2023 6:30:00 PM 10.12 50.216 0.276 8.51 3.27 12.78
3/5/2023 6:45:00 PM 10.02 50.036 0.276 8.41 3.26 12.59
3/5/2023 7:00:00 PM 9.91 49.838 0.277 8.29 3.29 12.39
3/5/2023 7:15:00 PM 9.78 49.604 0.277 8.16 3.38 12.18
3/5/2023 7:30:00 PM 9.62 49.316 0.278 8.03 3.06 11.99
3/5/2023 7:45:00 PM 9.46 49.028 0.278 7.92 4.04 11.81
3/5/2023 8:00:00 PM 9.29 48.722 0.279 7.83 3.46 11.64
3/5/2023 8:15:00 PM 9.13 48.434 0.279 7.75 3.71 11.51
3/5/2023 8:30:00 PM 8.97 48.146 0.279 7.69 3.7 11.38
3/5/2023 8:45:00 PM 8.81 47.858 0.28 7.64 3.79 11.28
3/5/2023 9:00:00 PM 8.66 47.588 0.28 7.6 3.61 11.21
3/5/2023 9:15:00 PM 8.52 47.336 0.28 7.56 3.75 11.15
3/5/2023 9:30:00 PM 8.38 47.084 0.281 7.54 3.75 11.13
3/5/2023 9:45:00 PM 8.24 46.832 0.281 7.51 3.42 11.12
3/5/2023 10:00:00 PM 8.12 46.616 0.281 7.5 3.49 11.13
3/5/2023 10:15:00 PM 8 46.4 0.281 7.48 3.2 11.14
3/5/2023 10:30:00 PM 7.89 46.202 0.281 7.47 3.25 11.16
3/5/2023 10:45:00 PM 7.79 46.022 0.282 7.46 3.43 11.19
3/5/2023 11:00:00 PM 7.69 45.842 0.282 7.45 3.25 11.2
3/5/2023 11:15:00 PM 7.59 45.662 0.282 7.44 3.1 11.22
3/5/2023 11:30:00 PM 7.5 45.5 0.282 7.43 2.99 11.25
3/5/2023 11:45:00 PM 7.41 45.338 0.282 7.43 3.24 11.28
3/6/2023 12:00:00 AM 7.34 45.212 0.283 7.42 3.07 11.32
3/6/2023 12:15:00 AM 7.26 45.068 0.283 7.42 2.95 11.35
3/6/2023 12:30:00 AM 7.18 44.924 0.283 7.41 3.03 11.37
3/6/2023 12:45:00 AM 7.11 44.798 0.283 7.41 2.84 11.4
3/6/2023 1:00:00 AM 7.04 44.672 0.284 7.41 2.99 11.43
3/6/2023 1:15:00 AM 6.96 44.528 0.284 7.41 3.08 11.46
3/6/2023 1:30:00 AM 6.89 44.402 0.284 7.41 2.77 11.48
3/6/2023 1:45:00 AM 6.81 44.258 0.284 7.4 3.26 11.51
3/6/2023 2:00:00 AM 6.73 44.114 0.285 7.4 3.32 11.54
3/6/2023 2:15:00 AM 6.66 43.988 0.285 7.4 2.91 11.57
3/6/2023 2:30:00 AM 6.59 43.862 0.285 7.4 2.87 11.59
3/6/2023 2:45:00 AM 6.52 43.736 0.285 7.4 2.96 11.61
3/6/2023 3:00:00 AM 6.44 43.592 0.285 7.39 2.9 11.64
3/6/2023 3:15:00 AM 6.37 43.466 0.286 7.39 2.73 11.66
3/6/2023 3:30:00 AM 6.3 43.34 0.286 7.39 3.01 11.68
3/6/2023 3:45:00 AM 6.23 43.214 0.286 7.39 2.79 11.7
3/6/2023 4:00:00 AM 6.15 43.07 0.286 7.39 2.83 11.72
3/6/2023 4:15:00 AM 6.08 42.944 0.287 7.39 2.69 11.74
3/6/2023 4:30:00 AM 6.01 42.818 0.287 7.39 3.1 11.76
3/6/2023 4:45:00 AM 5.93 42.674 0.287 7.39 2.78 11.78
3/6/2023 5:00:00 AM 5.85 42.53 0.287 7.39 2.96 11.8
3/6/2023 5:15:00 AM 5.78 42.404 0.288 7.39 2.91 11.82
3/6/2023 5:30:00 AM 5.7 42.26 0.288 7.39 2.84 11.85
3/6/2023 5:45:00 AM 5.63 42.134 0.288 7.39 2.77 11.87
3/6/2023 6:00:00 AM 5.55 41.99 0.288 7.39 3.17 11.89
3/6/2023 6:15:00 AM 5.48 41.864 0.288 7.39 3.53 11.92
3/6/2023 6:30:00 AM 5.4 41.72 0.289 7.39 2.94 11.95
3/6/2023 6:45:00 AM 5.33 41.594 0.289 7.39 2.66 11.98
3/6/2023 7:00:00 AM 5.26 41.468 0.289 7.39 2.67 12
3/6/2023 7:15:00 AM 5.19 41.342 0.289 7.39 2.55 12.02
3/6/2023 7:30:00 AM 5.12 41.216 0.289 7.39 2.52 12.06
3/6/2023 7:45:00 AM 5.06 41.108 0.289 7.39 2.62 12.13
3/6/2023 8:00:00 AM 4.99 40.982 0.289 7.4 2.43 12.22
3/6/2023 8:15:00 AM 4.94 40.892 0.29 7.41 2.32 12.33
3/6/2023 8:30:00 AM 4.89 40.802 0.29 7.43 2.25 12.46
3/6/2023 8:45:00 AM 4.84 40.712 0.29 7.45 2.23 12.61
3/6/2023 9:00:00 AM 4.82 40.676 0.29 7.47 2.13 12.8
3/6/2023 9:15:00 AM 4.82 40.676 0.29 7.5 2.32 12.99
3/6/2023 9:30:00 AM 4.84 40.712 0.289 7.54 2.47 13.22
3/6/2023 9:45:00 AM 4.9 40.82 0.289 7.59 2.09 13.48
3/6/2023 10:00:00 AM 4.99 40.982 0.289 7.65 2.07 13.72
3/6/2023 10:15:00 AM 5.12 41.216 0.289 7.71 2.16 13.96
3/6/2023 10:30:00 AM 5.21 41.378 0.288 7.79 2.21 14.17
3/6/2023 10:45:00 AM 5.34 41.612 0.288 7.87 2.04 14.35
3/6/2023 11:00:00 AM 5.53 41.954 0.288 7.97 2.01 14.53
3/6/2023 11:15:00 AM 5.75 42.35 0.287 8.06 1.98 14.67
3/6/2023 11:30:00 AM 5.99 42.782 0.287 8.15 1.96 14.76
3/6/2023 11:45:00 AM 6.26 43.268 0.287 8.24 1.89 14.84
3/6/2023 12:00:00 PM 6.53 43.754 0.287 8.32 2.04 14.9
3/6/2023 12:15:00 PM 6.74 44.132 0.286 8.39 1.94 14.91
3/6/2023 12:30:00 PM 6.97 44.546 0.286 8.45 1.84 14.94
3/6/2023 12:45:00 PM 7.24 45.032 0.286 8.5 1.97 14.96
3/6/2023 1:00:00 PM 7.51 45.518 0.286 8.55 1.81 14.98
3/6/2023 1:15:00 PM 7.78 46.004 0.286 8.6 1.88 14.99
3/6/2023 1:30:00 PM 8.07 46.526 0.285 8.64 1.91 14.97
3/6/2023 1:45:00 PM 8.36 47.048 0.285 8.69 1.88 14.95
3/6/2023 2:00:00 PM 8.65 47.57 0.285 8.72 1.9 14.88
3/6/2023 2:15:00 PM 8.93 48.074 0.285 8.76 1.77 14.8
3/6/2023 2:30:00 PM 9.19 48.542 0.284 8.78 1.79 14.7
3/6/2023 2:45:00 PM 9.46 49.028 0.284 8.82 1.81 14.58
3/6/2023 3:00:00 PM 9.69 49.442 0.284 8.84 1.84 14.48
3/6/2023 3:15:00 PM 9.9 49.82 0.284 8.86 1.88 14.38
3/6/2023 3:30:00 PM 10.09 50.162 0.284 8.89 1.85 14.31
3/6/2023 3:45:00 PM 10.27 50.486 0.284 8.9 1.86 14.23
3/6/2023 4:00:00 PM 10.42 50.756 0.284 8.92 1.84 14.17
3/6/2023 4:15:00 PM 10.55 50.99 0.284 8.93 1.81 14.08
3/6/2023 4:30:00 PM 10.65 51.17 0.284 8.93 1.84 14.01
3/6/2023 4:45:00 PM 10.7 51.26 0.284 8.93 1.79 13.88
3/6/2023 5:00:00 PM 10.74 51.332 0.284 8.92 1.81 13.75
3/6/2023 5:15:00 PM 10.75 51.35 0.284 8.92 1.91 13.64
3/6/2023 5:30:00 PM 10.72 51.296 0.284 8.89 1.78 13.46
3/6/2023 5:45:00 PM 10.68 51.224 0.284 8.85 1.83 13.29
3/6/2023 6:00:00 PM 10.63 51.134 0.284 8.82 1.83 13.14
3/6/2023 6:15:00 PM 10.54 50.972 0.284 8.76 1.76 12.98
3/6/2023 6:30:00 PM 10.43 50.774 0.285 8.69 1.75 12.79
3/6/2023 6:45:00 PM 10.3 50.54 0.285 8.59 1.79 12.59
3/6/2023 7:00:00 PM 10.15 50.27 0.285 8.47 1.95 12.37
3/6/2023 7:15:00 PM 9.98 49.964 0.286 8.32 1.79 12.18
3/6/2023 7:30:00 PM 9.79 49.622 0.286 8.16 1.98 11.98
3/6/2023 7:45:00 PM 9.61 49.298 0.287 8.01 2.1 11.8
3/6/2023 8:00:00 PM 9.43 48.974 0.287 7.88 2.2 11.64
3/6/2023 8:15:00 PM 9.25 48.65 0.287 7.79 2.18 11.49
3/6/2023 8:30:00 PM 9.08 48.344 0.288 7.71 2.15 11.37
3/6/2023 8:45:00 PM 8.91 48.038 0.288 7.65 2.24 11.26
3/6/2023 9:00:00 PM 8.75 47.75 0.288 7.6 2.16 11.17
3/6/2023 9:15:00 PM 8.6 47.48 0.288 7.56 3.06 11.11
3/6/2023 9:30:00 PM 8.47 47.246 0.288 7.53 2.21 11.06
3/6/2023 9:45:00 PM 8.35 47.03 0.289 7.51 2.17 11.03
3/6/2023 10:00:00 PM 8.24 46.832 0.289 7.49 2.27 11.02
3/6/2023 10:15:00 PM 8.14 46.652 0.289 7.47 2.25 11.01
3/6/2023 10:30:00 PM 8.04 46.472 0.289 7.45 2.17 11.01
3/6/2023 10:45:00 PM 7.95 46.31 0.289 7.44 2.21 11.02
3/6/2023 11:00:00 PM 7.87 46.166 0.289 7.43 2.05 11.03
3/6/2023 11:15:00 PM 7.79 46.022 0.289 7.42 2.03 11.03
3/6/2023 11:30:00 PM 7.71 45.878 0.289 7.41 1.99 11.04
3/6/2023 11:45:00 PM 7.63 45.734 0.289 7.41 2.09 11.05
3/7/2023 12:00:00 AM 7.55 45.59 0.289 7.4 1.95 11.07
3/7/2023 12:15:00 AM 7.48 45.464 0.289 7.39 2.01 11.08
3/7/2023 12:30:00 AM 7.41 45.338 0.289 7.39 2.09 11.1
3/7/2023 12:45:00 AM 7.33 45.194 0.289 7.39 1.99 11.11
3/7/2023 1:00:00 AM 7.27 45.086 0.289 7.38 2.01 11.13
3/7/2023 1:15:00 AM 7.22 44.996 0.289 7.38 3.14 11.15
3/7/2023 1:30:00 AM 7.17 44.906 0.289 7.38 2.24 11.17
3/7/2023 1:45:00 AM 7.1 44.78 0.29 7.37 2.11 11.19
3/7/2023 2:00:00 AM 7.05 44.69 0.29 7.37 2.12 11.21
3/7/2023 2:15:00 AM 7 44.6 0.29 7.37 2.15 11.23
3/7/2023 2:30:00 AM 6.98 44.564 0.29 7.37 2.17 11.25
3/7/2023 2:45:00 AM 6.95 44.51 0.29 7.37 2.06 11.26
3/7/2023 3:00:00 AM 6.91 44.438 0.29 7.37 2.06 11.28
3/7/2023 3:15:00 AM 6.9 44.42 0.29 7.37 2.6 11.29
3/7/2023 3:30:00 AM 6.89 44.402 0.29 7.37 5.57 11.3
3/7/2023 3:45:00 AM 6.86 44.348 0.29 7.37 8.75 11.32
3/7/2023 4:00:00 AM 6.85 44.33 0.29 7.38 6.32 11.32
3/7/2023 4:15:00 AM 6.82 44.276 0.29 7.38 6.09 11.34
3/7/2023 4:30:00 AM 6.77 44.186 0.291 7.38 2.65 11.35
3/7/2023 4:45:00 AM 6.71 44.078 0.291 7.38 2.49 11.37
3/7/2023 5:00:00 AM 6.67 44.006 0.291 7.38 2.28 11.4
3/7/2023 5:15:00 AM 6.62 43.916 0.291 7.38 2.59 11.42
3/7/2023 5:30:00 AM 6.6 43.88 0.291 7.39 2.33 11.43
3/7/2023 5:45:00 AM 6.53 43.754 0.291 7.39 2.5 11.45
3/7/2023 6:00:00 AM 6.5 43.7 0.291 7.39 3.06 11.47
3/7/2023 6:15:00 AM 6.47 43.646 0.291 7.39 2.25 11.49
3/7/2023 6:30:00 AM 6.43 43.574 0.292 7.39 2.17 11.51
3/7/2023 6:45:00 AM 6.39 43.502 0.292 7.39 2.05 11.53
3/7/2023 7:00:00 AM 6.36 43.448 0.292 7.39 2.31 11.55
3/7/2023 7:15:00 AM 6.33 43.394 0.292 7.39 2.86 11.57
3/7/2023 7:30:00 AM 6.28 43.304 0.292 7.39 2.16 11.59
3/7/2023 7:45:00 AM 6.23 43.214 0.292 7.4 2.18 11.63
3/7/2023 8:00:00 AM 6.22 43.196 0.292 7.4 2.25 11.69
3/7/2023 8:15:00 AM 6.19 43.142 0.292 7.41 1.96 11.78
3/7/2023 8:30:00 AM 6.17 43.106 0.292 7.43 2.04 11.92
3/7/2023 8:45:00 AM 6.14 43.052 0.292 7.46 2.05 12.13
3/7/2023 9:00:00 AM 6.12 43.016 0.292 7.5 2.04 12.38
3/7/2023 9:15:00 AM 6.12 43.016 0.292 7.54 1.96 12.62
3/7/2023 9:30:00 AM 6.13 43.034 0.292 7.59 1.91 12.91
3/7/2023 9:45:00 AM 6.15 43.07 0.291 7.65 1.87 13.21
3/7/2023 10:00:00 AM 6.17 43.106 0.291 7.72 1.85 13.45
3/7/2023 10:15:00 AM 6.28 43.304 0.291 7.82 1.88 13.78
3/7/2023 10:30:00 AM 6.35 43.43 0.29 7.93 1.86 14.04
3/7/2023 10:45:00 AM 6.47 43.646 0.29 8.04 2.03 14.27
3/7/2023 11:00:00 AM 6.51 43.718 0.29 8.16 1.97 14.44
3/7/2023 11:15:00 AM 6.7 44.06 0.289 8.28 1.94 14.6
3/7/2023 11:30:00 AM 6.92 44.456 0.289 8.38 1.85 14.72
3/7/2023 11:45:00 AM 7.15 44.87 0.289 8.48 1.87 14.79
3/7/2023 12:00:00 PM 7.34 45.212 0.288 8.54 1.87 14.81
3/7/2023 12:15:00 PM 7.5 45.5 0.288 8.6 1.76 14.84
3/7/2023 12:30:00 PM 7.69 45.842 0.288 8.65 1.77 14.83
3/7/2023 12:45:00 PM 7.9 46.22 0.288 8.71 1.71 14.82
3/7/2023 1:00:00 PM 8.13 46.634 0.287 8.76 1.83 14.79
3/7/2023 1:15:00 PM 8.39 47.102 0.287 8.8 1.79 14.74
3/7/2023 1:30:00 PM 8.63 47.534 0.287 8.84 1.77 14.69
3/7/2023 1:45:00 PM 8.85 47.93 0.287 8.88 1.77 14.66
3/7/2023 2:00:00 PM 9.12 48.416 0.286 8.91 1.8 14.62
3/7/2023 2:15:00 PM 9.32 48.776 0.286 8.94 1.83 14.57
3/7/2023 2:30:00 PM 9.5 49.1 0.286 8.97 1.87 14.51
3/7/2023 2:45:00 PM 9.7 49.46 0.286 8.99 1.85 14.46
3/7/2023 3:00:00 PM 9.84 49.712 0.286 9.01 1.79 14.44
3/7/2023 3:15:00 PM 9.98 49.964 0.286 9.03 1.82 14.39
3/7/2023 3:30:00 PM 10.09 50.162 0.286 9.04 1.99 14.29
3/7/2023 3:45:00 PM 10.18 50.324 0.285 9.05 1.89 14.24
3/7/2023 4:00:00 PM 10.23 50.414 0.285 9.07 1.79 14.17
3/7/2023 4:15:00 PM 10.32 50.576 0.285 9.08 1.81 14.09
3/7/2023 4:30:00 PM 10.35 50.63 0.285 9.08 1.8 14
3/7/2023 4:45:00 PM 10.36 50.648 0.285 9.08 1.88 13.88
3/7/2023 5:00:00 PM 10.3 50.54 0.285 9.06 1.86 13.71
3/7/2023 5:15:00 PM 10.24 50.432 0.286 9.04 1.8 13.52
3/7/2023 5:30:00 PM 10.17 50.306 0.286 9.01 1.77 13.38
3/7/2023 5:45:00 PM 10.1 50.18 0.286 8.98 1.76 13.25
3/7/2023 6:00:00 PM 10 50 0.286 8.95 1.8 13.13
3/7/2023 6:15:00 PM 9.83 49.694 0.286 8.91 1.81 12.99
3/7/2023 6:30:00 PM 9.72 49.496 0.287 8.85 1.81 12.84
3/7/2023 6:45:00 PM 9.54 49.172 0.287 8.77 1.82 12.68
3/7/2023 7:00:00 PM 9.34 48.812 0.288 8.67 1.77 12.47
3/7/2023 7:15:00 PM 9.12 48.416 0.288 8.55 1.78 12.34
3/7/2023 7:30:00 PM 8.88 47.984 0.289 8.4 1.77 12.16
3/7/2023 7:45:00 PM 8.68 47.624 0.289 8.23 1.79 12.03
3/7/2023 8:00:00 PM 8.44 47.192 0.29 8.06 2.06 11.84
3/7/2023 8:15:00 PM 8.23 46.814 0.29 7.92 1.95 11.74
3/7/2023 8:30:00 PM 8 46.4 0.29 7.81 1.94 11.61
3/7/2023 8:45:00 PM 7.76 45.968 0.291 7.73 4.51 11.54
3/7/2023 9:00:00 PM 7.55 45.59 0.291 7.67 2.14 11.47
3/7/2023 9:15:00 PM 7.34 45.212 0.291 7.62 2.21 11.41
3/7/2023 9:30:00 PM 7.15 44.87 0.291 7.58 2.78 11.4
3/7/2023 9:45:00 PM 6.99 44.582 0.291 7.55 2.25 11.41
3/7/2023 10:00:00 PM 6.84 44.312 0.291 7.52 3.28 11.43
3/7/2023 10:15:00 PM 6.66 43.988 0.291 7.51 2.22 11.48
3/7/2023 10:30:00 PM 6.54 43.772 0.292 7.49 2.51 11.52
3/7/2023 10:45:00 PM 6.43 43.574 0.292 7.48 2.23 11.57
3/7/2023 11:00:00 PM 6.32 43.376 0.292 7.47 2.06 11.6
3/7/2023 11:15:00 PM 6.21 43.178 0.292 7.46 2.1 11.64
3/7/2023 11:30:00 PM 6.11 42.998 0.292 7.45 2.09 11.68
3/7/2023 11:45:00 PM 6.01 42.818 0.292 7.44 2.4 11.7
3/8/2023 12:00:00 AM 5.93 42.674 0.292 7.43 2.19 11.73
3/8/2023 12:15:00 AM 5.85 42.53 0.292 7.43 1.99 11.76
3/8/2023 12:30:00 AM 5.78 42.404 0.292 7.42 2 11.79
3/8/2023 12:45:00 AM 5.67 42.206 0.292 7.42 2.12 11.82
3/8/2023 1:00:00 AM 5.55 41.99 0.292 7.41 2.18 11.86
3/8/2023 1:15:00 AM 5.47 41.846 0.292 7.41 2.01 11.89
3/8/2023 1:30:00 AM 5.38 41.684 0.292 7.41 2.01 11.92
3/8/2023 1:45:00 AM 5.28 41.504 0.292 7.41 2.04 11.9
3/8/2023 2:00:00 AM 5.21 41.378 0.292 7.4 2 11.98
3/8/2023 2:15:00 AM 5.13 41.234 0.293 7.4 2.08 12.01
3/8/2023 2:30:00 AM 5.04 41.072 0.293 7.4 2.22 12.04
3/8/2023 2:45:00 AM 4.97 40.946 0.293 7.4 2.06 12.06
3/8/2023 3:00:00 AM 4.91 40.838 0.293 7.4 2.05 12.08
3/8/2023 3:15:00 AM 4.85 40.73 0.293 7.4 2.01 12.1
3/8/2023 3:30:00 AM 4.8 40.64 0.293 7.39 2.02 12.11
3/8/2023 3:45:00 AM 4.75 40.55 0.293 7.39 2.18 12.12
3/8/2023 4:00:00 AM 4.7 40.46 0.293 7.39 2.21 12.14
3/8/2023 4:15:00 AM 4.64 40.352 0.293 7.39 2.25 12.15
3/8/2023 4:30:00 AM 4.59 40.262 0.293 7.39 2.23 12.17
3/8/2023 4:45:00 AM 4.53 40.154 0.294 7.39 2.03 12.19
3/8/2023 5:00:00 AM 4.49 40.082 0.294 7.39 2.15 12.21
3/8/2023 5:15:00 AM 4.44 39.992 0.294 7.39 2.21 12.22
3/8/2023 5:30:00 AM 4.4 39.92 0.294 7.38 2.47 12.24
3/8/2023 5:45:00 AM 4.34 39.812 0.294 7.38 2.37 12.24
3/8/2023 6:00:00 AM 4.29 39.722 0.294 7.38 2.79 12.28
3/8/2023 6:15:00 AM 4.24 39.632 0.294 7.38 2.6 12.3
3/8/2023 6:30:00 AM 4.18 39.524 0.294 7.39 2.18 12.29
3/8/2023 6:45:00 AM 4.12 39.416 0.294 7.39 2.27 12.35
3/8/2023 7:00:00 AM 4.07 39.326 0.295 7.39 2.24 12.38
3/8/2023 7:15:00 AM 4.01 39.218 0.295 7.39 2.18 12.4
3/8/2023 7:30:00 AM 3.97 39.146 0.295 7.39 2.13 12.44
3/8/2023 7:45:00 AM 3.93 39.074 0.295 7.4 2.11 12.52
3/8/2023 8:00:00 AM 3.87 38.966 0.295 7.41 2.05 12.61
3/8/2023 8:15:00 AM 3.83 38.894 0.295 7.42 2.15 12.74
3/8/2023 8:30:00 AM 3.8 38.84 0.295 7.44 1.95 12.86
3/8/2023 8:45:00 AM 3.79 38.822 0.295 7.46 1.95 13.02
3/8/2023 9:00:00 AM 3.77 38.786 0.295 7.49 2.08 13.22
3/8/2023 9:15:00 AM 3.76 38.768 0.295 7.52 1.93 13.42
3/8/2023 9:30:00 AM 3.78 38.804 0.295 7.57 2.03 13.66
3/8/2023 9:45:00 AM 3.83 38.894 0.294 7.62 1.95 13.91
3/8/2023 10:00:00 AM 3.91 39.038 0.294 7.68 1.94 14.16
3/8/2023 10:15:00 AM 3.99 39.182 0.294 7.74 1.92 14.37
3/8/2023 10:30:00 AM 4.1 39.38 0.293 7.81 1.91 14.57
3/8/2023 10:45:00 AM 4.28 39.704 0.293 7.89 1.9 14.76
3/8/2023 11:00:00 AM 4.54 40.172 0.292 8 1.9 14.95
3/8/2023 11:15:00 AM 4.82 40.676 0.292 8.11 1.88 15.09
3/8/2023 11:30:00 AM 5.09 41.162 0.292 8.21 1.86 15.19
3/8/2023 11:45:00 AM 5.33 41.594 0.291 8.29 1.81 15.24
3/8/2023 12:00:00 PM 5.58 42.044 0.291 8.38 1.85 15.26
3/8/2023 12:15:00 PM 5.85 42.53 0.29 8.46 1.71 15.3
3/8/2023 12:30:00 PM 6.11 42.998 0.29 8.53 1.73 15.3
3/8/2023 12:45:00 PM 6.39 43.502 0.29 8.59 1.76 15.31
3/8/2023 1:00:00 PM 6.67 44.006 0.289 8.65 1.73 15.31
3/8/2023 1:15:00 PM 6.95 44.51 0.289 8.7 1.76 15.3
3/8/2023 1:30:00 PM 7.22 44.996 0.289 8.74 1.69 15.3
3/8/2023 1:45:00 PM 7.49 45.482 0.289 8.79 1.69 15.3
3/8/2023 2:00:00 PM 7.74 45.932 0.288 8.82 1.67 15.28
3/8/2023 2:15:00 PM 7.97 46.346 0.288 8.86 1.76 15.24
3/8/2023 2:30:00 PM 8.21 46.778 0.288 8.89 1.71 15.18
3/8/2023 2:45:00 PM 8.4 47.12 0.287 8.92 1.64 15.1
3/8/2023 3:00:00 PM 8.64 47.552 0.287 8.95 1.74 15.02
3/8/2023 3:15:00 PM 8.86 47.948 0.287 8.97 1.72 14.91
3/8/2023 3:30:00 PM 9.03 48.254 0.287 9 1.69 14.8
3/8/2023 3:45:00 PM 9.2 48.56 0.287 9.02 1.72 14.66
3/8/2023 4:00:00 PM 9.34 48.812 0.286 9.03 1.76 14.57
3/8/2023 4:15:00 PM 9.48 49.064 0.286 9.05 1.8 14.46
3/8/2023 4:30:00 PM 9.58 49.244 0.286 9.06 1.72 14.35
3/8/2023 4:45:00 PM 9.62 49.316 0.286 9.06 1.64 14.21
3/8/2023 5:00:00 PM 9.65 49.37 0.286 9.05 1.7 14.05
3/8/2023 5:15:00 PM 9.63 49.334 0.286 9.03 1.74 13.86
3/8/2023 5:30:00 PM 9.6 49.28 0.286 9 1.69 13.67
3/8/2023 5:45:00 PM 9.59 49.262 0.286 8.98 1.66 13.52
3/8/2023 6:00:00 PM 9.53 49.154 0.287 8.95 1.77 13.39
3/8/2023 6:15:00 PM 9.44 48.992 0.287 8.91 1.63 13.24
3/8/2023 6:30:00 PM 9.35 48.83 0.287 8.85 1.65 13.07
3/8/2023 6:45:00 PM 9.21 48.578 0.287 8.77 1.7 12.91
3/8/2023 7:00:00 PM 9.07 48.326 0.288 8.68 1.69 12.73
3/8/2023 7:15:00 PM 8.91 48.038 0.288 8.56 1.67 12.55
3/8/2023 7:30:00 PM 8.74 47.732 0.288 8.41 1.7 12.37

These are provisional data and have not been subject to a quality assurance process, but rather are the raw data reported by the instrument.
H: value is above sensor operating range
L: value is below sensor operating range
Offline: station is not reporting data
NC: parameter is not collected at site

Data Availability & Limitations

Uncertainty and potential for error can be associated with environmental monitoring data. Provisional data have not been subject to a quality assurance process, but rather are the raw data reported by the instrument. Data users are cautioned to consider carefully the provisional nature of the information before using it for decisions that concern personal or public safety or the conduct of business that involves substantial monetary or operational consequences.

Approved data are currently available by request by emailing: [email protected]. Approved data have been subject to a quality assurance process to correct for equipment or fouling drift. Data recorded during equipment malfunctions have been removed.

View Historical Stations that have been discontinued.